Provisional Data: Lititz Run near Lititz, PA


Please select a monitoring station.
Please select start date.
Please select start date.

Toggle Unit: C/F Toggle Unit: C/F
Sample Time Temperature (C) Temperature (F) Specific Conductivity (mS/cm) pH   Turbidity (NTU+) DO (mg/L)
4/18/2023 12:00:00 AM 14.56 58.208 1.048 7.87 9.26 7.87
4/18/2023 12:15:00 AM 14.45 58.01 1.055 7.86 8.41 7.83
4/18/2023 12:30:00 AM 14.34 57.812 1.062 7.85 7.74 7.79
4/18/2023 12:45:00 AM 14.23 57.614 1.068 7.84 7.75 7.75
4/18/2023 1:00:00 AM 14.12 57.416 1.074 7.83 7.77 7.73
4/18/2023 1:15:00 AM 14.02 57.236 1.08 7.83 8.28 7.71
4/18/2023 1:30:00 AM 13.93 57.074 1.085 7.82 7.83 7.68
4/18/2023 1:45:00 AM 13.85 56.93 1.091 7.82 8.93 7.67
4/18/2023 2:00:00 AM 13.76 56.768 1.096 7.82 7.93 7.67
4/18/2023 2:15:00 AM 13.68 56.624 1.101 7.81 8.01 7.67
4/18/2023 2:30:00 AM 13.59 56.462 1.106 7.81 8.11 7.68
4/18/2023 2:45:00 AM 13.51 56.318 1.111 7.81 8.06 7.68
4/18/2023 3:00:00 AM 13.43 56.174 1.116 7.81 7.73 7.69
4/18/2023 3:15:00 AM 13.36 56.048 1.12 7.81 7.71 7.69
4/18/2023 3:30:00 AM 13.29 55.922 1.123 7.81 7.85 7.71
4/18/2023 3:45:00 AM 13.21 55.778 1.124 7.81 7.94 7.71
4/18/2023 4:00:00 AM 13.14 55.652 1.127 7.81 7.82 7.74
4/18/2023 4:15:00 AM 13.07 55.526 1.128 7.81 8.1 7.74
4/18/2023 4:30:00 AM 13.01 55.418 1.128 7.81 7.68 7.76
4/18/2023 4:45:00 AM 12.94 55.292 1.128 7.81 7.95 7.79
4/18/2023 5:00:00 AM 12.87 55.166 1.126 7.81 7.39 7.81
4/18/2023 5:15:00 AM 12.8 55.04 1.123 7.81 7.66 7.83
4/18/2023 5:30:00 AM 12.75 54.95 1.119 7.82 7.58 7.85
4/18/2023 5:45:00 AM 12.69 54.842 1.114 7.82 7.71 7.88
4/18/2023 6:00:00 AM 12.64 54.752 1.108 7.82 7.83 7.9
4/18/2023 6:15:00 AM 12.59 54.662 1.102 7.82 7.27 7.93
4/18/2023 6:30:00 AM 12.54 54.572 1.095 7.82 7.42 7.97
4/18/2023 6:45:00 AM 12.49 54.482 1.088 7.83 7.38 8.01
4/18/2023 7:00:00 AM 12.43 54.374 1.08 7.83 7.19 8.05
4/18/2023 7:15:00 AM 12.38 54.284 1.071 7.83 7.49 8.12
4/18/2023 7:30:00 AM 12.31 54.158 1.062 7.84 7.61 8.19
4/18/2023 7:45:00 AM 12.26 54.068 1.051 7.84 7.38 8.28
4/18/2023 8:00:00 AM 12.2 53.96 1.041 7.85 7.36 8.37
4/18/2023 8:15:00 AM 12.15 53.87 1.029 7.86 7.08 8.48
4/18/2023 8:30:00 AM 12.1 53.78 1.018 7.86 6.94 8.6
4/18/2023 8:45:00 AM 12.05 53.69 1.008 7.87 7.22 8.7
4/18/2023 9:00:00 AM 12.01 53.618 0.999 7.88 6.93 8.79
4/18/2023 9:15:00 AM 11.98 53.564 0.991 7.89 6.85 8.93
4/18/2023 9:30:00 AM 11.96 53.528 0.983 7.9 6.72 9.13
4/18/2023 9:45:00 AM 11.94 53.492 0.976 7.92 6.89 9.35
4/18/2023 10:00:00 AM 11.93 53.474 0.97 7.93 6.74 9.51
4/18/2023 10:15:00 AM 11.92 53.456 0.966 7.94 6.88 9.56
4/18/2023 10:30:00 AM 11.92 53.456 0.965 7.95 7.1 9.65
4/18/2023 10:45:00 AM 11.93 53.474 0.965 7.96 6.48 9.78
4/18/2023 11:00:00 AM 11.94 53.492 0.965 7.97 6.95 9.91
4/18/2023 11:15:00 AM 11.97 53.546 0.967 7.99 8.43 10.14
4/18/2023 11:30:00 AM 12.01 53.618 0.969 8.01 6.89 10.41
4/18/2023 11:45:00 AM 12.04 53.672 0.97 8.03 6.98 10.64
4/18/2023 12:00:00 PM 12.06 53.708 0.971 8.05 6.72 10.75
4/18/2023 12:15:00 PM 12.14 53.852 0.97 8.08 6.73 11.14
4/18/2023 12:30:00 PM 12.24 54.032 0.97 8.11 6.69 11.61
4/18/2023 12:45:00 PM 12.44 54.392 0.97 8.16 7.06 12.16
4/18/2023 1:00:00 PM 12.64 54.752 0.974 8.2 6.75 12.53
4/18/2023 1:15:00 PM 12.91 55.238 0.98 8.23 6.45 12.85
4/18/2023 1:30:00 PM 13.1 55.58 0.992 8.26 6.33 13
4/18/2023 1:45:00 PM 13.33 55.994 1.006 8.28 6.37 13.17
4/18/2023 2:00:00 PM 13.64 56.552 1.023 8.31 6.59 13.47
4/18/2023 2:15:00 PM 13.91 57.038 1.041 8.34 6.37 13.67
4/18/2023 2:30:00 PM 14.17 57.506 1.058 8.37 6.66 13.83
4/18/2023 2:45:00 PM 14.36 57.848 1.072 8.38 6.33 13.88
4/18/2023 3:00:00 PM 14.56 58.208 1.08 8.4 6.16 13.95
4/18/2023 3:15:00 PM 14.75 58.55 1.086 8.41 6.12 14.03
4/18/2023 3:30:00 PM 14.9 58.82 1.088 8.43 6.29 14.04
4/18/2023 3:45:00 PM 15.02 59.036 1.089 8.44 6.46 13.99
4/18/2023 4:00:00 PM 15.11 59.198 1.089 8.44 6.43 13.9
4/18/2023 4:15:00 PM 15.18 59.324 1.087 8.44 6.33 13.8
4/18/2023 4:30:00 PM 15.23 59.414 1.086 8.45 6.35 13.7
4/18/2023 4:45:00 PM 15.27 59.486 1.085 8.45 6.47 13.58
4/18/2023 5:00:00 PM 15.28 59.504 1.086 8.44 6.25 13.42
4/18/2023 5:15:00 PM 15.27 59.486 1.087 8.44 6.68 13.24
4/18/2023 5:30:00 PM 15.26 59.468 1.089 8.43 6.58 13.04
4/18/2023 5:45:00 PM 15.23 59.414 1.091 8.43 6.64 12.83
4/18/2023 6:00:00 PM 15.18 59.324 1.093 8.41 6.73 12.58
4/18/2023 6:15:00 PM 15.13 59.234 1.098 8.4 6.56 12.33
4/18/2023 6:30:00 PM 15.07 59.126 1.107 8.38 6.74 12.05
4/18/2023 6:45:00 PM 15.02 59.036 1.118 8.36 6.83 11.8
4/18/2023 7:00:00 PM 14.95 58.91 1.13 8.34 6.36 11.55
4/18/2023 7:15:00 PM 14.89 58.802 1.138 8.33 6.45 11.32
4/18/2023 7:30:00 PM 14.81 58.658 1.14 8.31 6.86 11.06
4/18/2023 7:45:00 PM 14.72 58.496 1.137 8.28 6.78 10.8
4/18/2023 8:00:00 PM 14.63 58.334 1.13 8.26 7.4 10.53
4/18/2023 8:15:00 PM 14.54 58.172 1.121 8.24 7.31 10.28
4/18/2023 8:30:00 PM 14.46 58.028 1.112 8.21 7.17 10.08
4/18/2023 8:45:00 PM 14.37 57.866 1.104 8.19 7.43 9.91
4/18/2023 9:00:00 PM 14.28 57.704 1.097 8.17 7.07 9.76
4/18/2023 9:15:00 PM 14.2 57.56 1.093 8.16 7.44 9.62
4/18/2023 9:30:00 PM 14.11 57.398 1.091 8.14 7.03 9.53
4/18/2023 9:45:00 PM 14.01 57.218 1.091 8.12 6.75 9.43
4/18/2023 10:00:00 PM 13.91 57.038 1.092 8.11 6.93 9.34
4/18/2023 10:15:00 PM 13.82 56.876 1.094 8.09 6.94 9.25
4/18/2023 10:30:00 PM 13.71 56.678 1.097 8.08 6.58 9.17
4/18/2023 10:45:00 PM 13.6 56.48 1.1 8.06 7.29 9.09
4/18/2023 11:00:00 PM 13.49 56.282 1.103 8.04 7.46 9.02
4/18/2023 11:15:00 PM 13.37 56.066 1.105 8.03 7.41 8.94
4/18/2023 11:30:00 PM 13.25 55.85 1.107 8 7.16 8.86
4/18/2023 11:45:00 PM 13.12 55.616 1.11 7.98 7.71 8.77
4/19/2023 12:00:00 AM 12.99 55.382 1.113 7.96 8.27 8.7
4/19/2023 12:15:00 AM 12.87 55.166 1.117 7.95 8.25 8.64
4/19/2023 12:30:00 AM 12.76 54.968 1.122 7.93 7.98 8.57
4/19/2023 12:45:00 AM 12.65 54.77 1.127 7.92 8.8 8.51
4/19/2023 1:00:00 AM 12.55 54.59 1.132 7.91 7.8 8.46
4/19/2023 1:15:00 AM 12.45 54.41 1.137 7.89 7.68 8.42
4/19/2023 1:30:00 AM 12.36 54.248 1.142 7.89 7.45 8.39
4/19/2023 1:45:00 AM 12.26 54.068 1.146 7.88 7.42 8.37
4/19/2023 2:00:00 AM 12.17 53.906 1.149 7.87 7.25 8.34
4/19/2023 2:15:00 AM 12.08 53.744 1.152 7.87 7.41 8.34
4/19/2023 2:30:00 AM 11.99 53.582 1.155 7.86 7.32 8.33
4/19/2023 2:45:00 AM 11.91 53.438 1.16 7.86 7.48 8.33
4/19/2023 3:00:00 AM 11.82 53.276 1.164 7.86 7.8 8.33
4/19/2023 3:15:00 AM 11.74 53.132 1.169 7.85 7.47 8.33
4/19/2023 3:30:00 AM 11.66 52.988 1.173 7.85 7.43 8.34
4/19/2023 3:45:00 AM 11.58 52.844 1.175 7.85 7.3 8.36
4/19/2023 4:00:00 AM 11.5 52.7 1.176 7.85 7.49 8.38
4/19/2023 4:15:00 AM 11.42 52.556 1.177 7.85 7.51 8.41
4/19/2023 4:30:00 AM 11.34 52.412 1.177 7.85 7.38 8.41
4/19/2023 4:45:00 AM 11.26 52.268 1.176 7.85 7.31 8.44
4/19/2023 5:00:00 AM 11.19 52.142 1.174 7.85 7.67 8.45
4/19/2023 5:15:00 AM 11.11 51.998 1.17 7.84 8.05 8.48
4/19/2023 5:30:00 AM 11.02 51.836 1.165 7.85 7.25 8.51
4/19/2023 5:45:00 AM 10.94 51.692 1.158 7.85 7.11 8.55
4/19/2023 6:00:00 AM 10.85 51.53 1.151 7.85 7.09 8.58
4/19/2023 6:15:00 AM 10.77 51.386 1.144 7.85 7.19 8.62
4/19/2023 6:30:00 AM 10.69 51.242 1.137 7.85 7.34 8.67
4/19/2023 6:45:00 AM 10.62 51.116 1.129 7.85 7.23 8.75
4/19/2023 7:00:00 AM 10.54 50.972 1.119 7.86 6.91 8.86
4/19/2023 7:15:00 AM 10.48 50.864 1.107 7.86 7.04 8.99
4/19/2023 7:30:00 AM 10.42 50.756 1.094 7.87 7.25 9.17
4/19/2023 7:45:00 AM 10.38 50.684 1.082 7.89 7.47 9.37
4/19/2023 8:00:00 AM 10.35 50.63 1.069 7.9 7.31 9.56
4/19/2023 8:15:00 AM 10.33 50.594 1.057 7.91 7.16 9.77
4/19/2023 8:30:00 AM 10.33 50.594 1.045 7.94 6.93 10.02
4/19/2023 8:45:00 AM 10.36 50.648 1.035 7.96 6.86 10.3
4/19/2023 9:00:00 AM 10.42 50.756 1.025 7.99 6.95 10.67
4/19/2023 9:15:00 AM 10.5 50.9 1.016 8.02 6.76 11.02
4/19/2023 9:30:00 AM 10.6 51.08 1.007 8.05 6.81 11.36
4/19/2023 9:45:00 AM 10.73 51.314 0.999 8.09 6.49 11.69
4/19/2023 10:00:00 AM 10.88 51.584 0.992 8.12 7.27 12
4/19/2023 10:15:00 AM 11.04 51.872 0.986 8.15 6.83 12.31
4/19/2023 10:30:00 AM 11.23 52.214 0.982 8.18 6.87 12.59
4/19/2023 10:45:00 AM 11.44 52.592 0.979 8.21 6.76 12.85
4/19/2023 11:00:00 AM 11.65 52.97 0.977 8.24 10.27 13.06
4/19/2023 11:15:00 AM 11.88 53.384 0.976 8.27 7.88 13.29
4/19/2023 11:30:00 AM 12.12 53.816 0.977 8.29 6.96 13.51
4/19/2023 11:45:00 AM 12.38 54.284 0.977 8.31 6.7 13.71
4/19/2023 12:00:00 PM 12.66 54.788 0.976 8.34 6.02 13.91
4/19/2023 12:15:00 PM 12.95 55.31 0.976 8.37 6.11 14.1
4/19/2023 12:30:00 PM 13.26 55.868 0.976 8.4 5.88 14.29
4/19/2023 12:45:00 PM 13.58 56.444 0.978 8.42 5.62 14.45
4/19/2023 1:00:00 PM 13.93 57.074 0.983 8.45 5.9 14.59
4/19/2023 1:15:00 PM 14.26 57.668 0.993 8.47 5.68 14.7
4/19/2023 1:30:00 PM 14.6 58.28 1.006 8.48 5.86 14.82
4/19/2023 1:45:00 PM 14.93 58.874 1.024 8.5 5.89 14.88
4/19/2023 2:00:00 PM 15.26 59.468 1.044 8.52 6.18 14.91
4/19/2023 2:15:00 PM 15.58 60.044 1.064 8.53 5.94 14.93
4/19/2023 2:30:00 PM 15.88 60.584 1.082 8.54 5.88 14.91
4/19/2023 2:45:00 PM 16.16 61.088 1.097 8.55 6 14.9
4/19/2023 3:00:00 PM 16.4 61.52 1.109 8.56 5.85 14.83
4/19/2023 3:15:00 PM 16.6 61.88 1.117 8.57 6.32 14.75
4/19/2023 3:30:00 PM 16.79 62.222 1.121 8.57 6.03 14.63
4/19/2023 3:45:00 PM 16.93 62.474 1.122 8.57 5.86 14.46
4/19/2023 4:00:00 PM 17.04 62.672 1.121 8.57 5.98 14.25
4/19/2023 4:15:00 PM 17.1 62.78 1.118 8.57 5.95 14.1
4/19/2023 4:30:00 PM 17.17 62.906 1.116 8.57 5.94 13.89
4/19/2023 4:45:00 PM 17.23 63.014 1.113 8.56 5.99 13.68
4/19/2023 5:00:00 PM 17.27 63.086 1.113 8.55 6.1 13.45
4/19/2023 5:15:00 PM 17.27 63.086 1.113 8.54 5.72 13.16
4/19/2023 5:30:00 PM 17.26 63.068 1.114 8.52 5.88 12.89
4/19/2023 5:45:00 PM 17.23 63.014 1.117 8.5 5.7 12.59
4/19/2023 6:00:00 PM 17.19 62.942 1.121 8.48 5.8 12.29
4/19/2023 6:15:00 PM 17.15 62.87 1.127 8.46 6.08 11.97
4/19/2023 6:30:00 PM 17.1 62.78 1.133 8.43 6.24 11.66
4/19/2023 6:45:00 PM 17.05 62.69 1.137 8.4 5.97 11.34
4/19/2023 7:00:00 PM 16.99 62.582 1.137 8.37 6 11.05
4/19/2023 7:15:00 PM 16.91 62.438 1.134 8.35 5.93 10.77
4/19/2023 7:30:00 PM 16.84 62.312 1.127 8.32 6.15 10.49
4/19/2023 7:45:00 PM 16.76 62.168 1.12 8.29 5.84 10.21
4/19/2023 8:00:00 PM 16.66 61.988 1.112 8.26 6.13 9.93
4/19/2023 8:15:00 PM 16.56 61.808 1.105 8.23 6.34 9.65
4/19/2023 8:30:00 PM 16.45 61.61 1.1 8.2 6.34 9.42
4/19/2023 8:45:00 PM 16.33 61.394 1.096 8.18 7.16 9.24
4/19/2023 9:00:00 PM 16.23 61.214 1.093 8.15 7.23 9.09
4/19/2023 9:15:00 PM 16.11 60.998 1.091 8.13 7 8.96
4/19/2023 9:30:00 PM 15.99 60.782 1.089 8.11 6.83 8.85
4/19/2023 9:45:00 PM 15.87 60.566 1.088 8.1 7.12 8.76
4/19/2023 10:00:00 PM 15.74 60.332 1.087 8.08 6.95 8.68
4/19/2023 10:15:00 PM 15.62 60.116 1.087 8.06 7.5 8.58
4/19/2023 10:30:00 PM 15.49 59.882 1.087 8.04 7.08 8.51
4/19/2023 10:45:00 PM 15.35 59.63 1.089 8.03 7.08 8.44
4/19/2023 11:00:00 PM 15.21 59.378 1.093 8.01 6.98 8.36
4/19/2023 11:15:00 PM 15.08 59.144 1.098 8 7.11 8.27
4/19/2023 11:30:00 PM 14.94 58.892 1.103 7.98 7.38 8.21
4/19/2023 11:45:00 PM 14.8 58.64 1.109 7.96 7.01 8.13
4/20/2023 12:00:00 AM 14.66 58.388 1.115 7.95 7.27 8.06
4/20/2023 12:15:00 AM 14.52 58.136 1.121 7.93 7.43 8.01
4/20/2023 12:30:00 AM 14.39 57.902 1.127 7.91 7.91 7.95
4/20/2023 12:45:00 AM 14.26 57.668 1.132 7.9 7.61 7.89
4/20/2023 1:00:00 AM 14.15 57.47 1.138 7.88 6.96 7.86
4/20/2023 1:15:00 AM 14.04 57.272 1.144 7.87 7.33 7.83
4/20/2023 1:30:00 AM 13.93 57.074 1.149 7.85 7.3 7.8
4/20/2023 1:45:00 AM 13.84 56.912 1.154 7.84 7 7.79
4/20/2023 2:00:00 AM 13.73 56.714 1.159 7.84 7.04 7.78
4/20/2023 2:15:00 AM 13.63 56.534 1.162 7.83 7.3 7.77
4/20/2023 2:30:00 AM 13.54 56.372 1.164 7.82 7.27 7.77
4/20/2023 2:45:00 AM 13.45 56.21 1.167 7.82 6.86 7.78
4/20/2023 3:00:00 AM 13.35 56.03 1.17 7.82 6.99 7.8
4/20/2023 3:15:00 AM 13.26 55.868 1.174 7.81 7.4 7.81
4/20/2023 3:30:00 AM 13.17 55.706 1.178 7.81 7.4 7.82
4/20/2023 3:45:00 AM 13.09 55.562 1.181 7.81 7.43 7.85
4/20/2023 4:00:00 AM 13 55.4 1.184 7.81 7.25 7.85
4/20/2023 4:15:00 AM 12.92 55.256 1.186 7.81 7.44 7.87
4/20/2023 4:30:00 AM 12.83 55.094 1.187 7.81 7.39 7.9
4/20/2023 4:45:00 AM 12.75 54.95 1.187 7.81 7.15 7.93
4/20/2023 5:00:00 AM 12.68 54.824 1.187 7.81 7.1 7.95
4/20/2023 5:15:00 AM 12.62 54.716 1.185 7.81 7.02 7.98
4/20/2023 5:30:00 AM 12.56 54.608 1.182 7.81 7.88 7.98
4/20/2023 5:45:00 AM 12.49 54.482 1.179 7.81 6.94 8.01
4/20/2023 6:00:00 AM 12.42 54.356 1.175 7.82 7.78 8.06
4/20/2023 6:15:00 AM 12.35 54.23 1.17 7.82 7.66 8.08
4/20/2023 6:30:00 AM 12.28 54.104 1.163 7.82 8.7 8.13
4/20/2023 6:45:00 AM 12.21 53.978 1.156 7.82 8.18 8.19
4/20/2023 7:00:00 AM 12.14 53.852 1.146 7.83 7.95 8.3
4/20/2023 7:15:00 AM 12.09 53.762 1.135 7.84 7.89 8.45
4/20/2023 7:30:00 AM 12.04 53.672 1.123 7.85 7.87 8.62
4/20/2023 7:45:00 AM 12.01 53.618 1.11 7.86 8.01 8.8
4/20/2023 8:00:00 AM 11.99 53.582 1.097 7.88 7.78 9.03
4/20/2023 8:15:00 AM 11.97 53.546 1.085 7.9 7.75 9.28
4/20/2023 8:30:00 AM 11.97 53.546 1.072 7.92 8.28 9.55
4/20/2023 8:45:00 AM 12 53.6 1.059 7.95 8.04 9.88
4/20/2023 9:00:00 AM 12.04 53.672 1.048 7.97 7.56 10.23
4/20/2023 9:15:00 AM 12.1 53.78 1.035 8.01 7.71 10.61
4/20/2023 9:30:00 AM 12.19 53.942 1.024 8.04 7.26 10.96
4/20/2023 9:45:00 AM 12.31 54.158 1.012 8.08 7.43 11.34
4/20/2023 10:00:00 AM 12.44 54.392 1.002 8.11 7.56 11.67
4/20/2023 10:15:00 AM 12.59 54.662 0.994 8.14 7.26 11.99
4/20/2023 10:30:00 AM 12.76 54.968 0.988 8.17 7.73 12.31
4/20/2023 10:45:00 AM 12.95 55.31 0.985 8.2 7.15 12.57
4/20/2023 11:00:00 AM 13.15 55.67 0.985 8.23 7.16 12.82
4/20/2023 11:15:00 AM 13.37 56.066 0.987 8.25 7.15 13.06
4/20/2023 11:30:00 AM 13.6 56.48 0.988 8.28 7.1 13.28
4/20/2023 11:45:00 AM 13.84 56.912 0.988 8.3 6.58 13.49
4/20/2023 12:00:00 PM 14.1 57.38 0.986 8.33 7.86 13.7
4/20/2023 12:15:00 PM 14.38 57.884 0.983 8.36 6.81 13.91
4/20/2023 12:30:00 PM 14.68 58.424 0.98 8.39 6.74 14.09
4/20/2023 12:45:00 PM 14.98 58.964 0.98 8.41 8.26 14.26
4/20/2023 1:00:00 PM 15.31 59.558 0.984 8.44 7.2 14.41
4/20/2023 1:15:00 PM 15.65 60.17 0.994 8.46 7.85 14.55
4/20/2023 1:30:00 PM 16 60.8 1.01 8.48 7.83 14.66
4/20/2023 1:45:00 PM 16.33 61.394 1.03 8.5 7.48 14.72
4/20/2023 2:00:00 PM 16.68 62.024 1.053 8.52 11.46 14.78
4/20/2023 2:15:00 PM 17.03 62.654 1.076 8.53 7.79 14.79
4/20/2023 2:30:00 PM 17.34 63.212 1.097 8.55 7.38 14.78
4/20/2023 2:45:00 PM 17.64 63.752 1.115 8.55 8.43 14.73
4/20/2023 3:00:00 PM 17.9 64.22 1.127 8.56 7.38 14.65
4/20/2023 3:15:00 PM 18.14 64.652 1.134 8.56 6.87 14.51
4/20/2023 3:30:00 PM 18.33 64.994 1.139 8.56 7.04 14.38
4/20/2023 3:45:00 PM 18.49 65.282 1.142 8.56 7.03 14.21
4/20/2023 4:00:00 PM 18.63 65.534 1.145 8.55 6.78 14.02
4/20/2023 4:15:00 PM 18.75 65.75 1.149 8.55 6.86 13.8
4/20/2023 4:30:00 PM 18.85 65.93 1.153 8.54 6.89 13.56
4/20/2023 4:45:00 PM 18.93 66.074 1.158 8.53 6.64 13.33
4/20/2023 5:00:00 PM 18.99 66.182 1.161 8.52 6.93 13.08
4/20/2023 5:15:00 PM 19.02 66.236 1.164 8.5 7.83 12.78
4/20/2023 5:30:00 PM 19.03 66.254 1.166 8.48 7.45 12.47
4/20/2023 5:45:00 PM 19.03 66.254 1.167 8.47 8.29 12.19
4/20/2023 6:00:00 PM 19.03 66.254 1.167 8.45 7.5 11.94
4/20/2023 6:15:00 PM 19.01 66.218 1.168 8.43 9.05 11.72
4/20/2023 6:30:00 PM 18.99 66.182 1.169 8.41 7.12 11.45
4/20/2023 6:45:00 PM 18.95 66.11 1.169 8.38 7.08 11.15
4/20/2023 7:00:00 PM 18.89 66.002 1.17 8.35 7.25 10.82
4/20/2023 7:15:00 PM 18.84 65.912 1.17 8.32 7.02 10.45
4/20/2023 7:30:00 PM 18.79 65.82201 1.171 8.29 7.09 10.11
4/20/2023 7:45:00 PM 18.73 65.714 1.17 8.26 6.8 9.79
4/20/2023 8:00:00 PM 18.67 65.606 1.168 8.23 6.95 9.49
4/20/2023 8:15:00 PM 18.6 65.48 1.165 8.2 7.33 9.2
4/20/2023 8:30:00 PM 18.52 65.336 1.162 8.17 7.64 8.98
4/20/2023 8:45:00 PM 18.44 65.192 1.159 8.14 8.13 8.76
4/20/2023 9:00:00 PM 18.34 65.012 1.155 8.12 7.95 8.58
4/20/2023 9:15:00 PM 18.24 64.832 1.151 8.09 7.86 8.42
4/20/2023 9:30:00 PM 18.14 64.652 1.148 8.07 7.56 8.27
4/20/2023 9:45:00 PM 18.03 64.454 1.146 8.05 7.66 8.11
4/20/2023 10:00:00 PM 17.91 64.238 1.146 8.03 7.85 7.98
4/20/2023 10:15:00 PM 17.8 64.04 1.147 8.01 6.97 7.85
4/20/2023 10:30:00 PM 17.67 63.806 1.15 7.99 7.99 7.71
4/20/2023 10:45:00 PM 17.54 63.572 1.153 7.97 7.58 7.57
4/20/2023 11:00:00 PM 17.41 63.338 1.156 7.95 8.14 7.42
4/20/2023 11:15:00 PM 17.27 63.086 1.159 7.93 7.82 7.31
4/20/2023 11:30:00 PM 17.14 62.852 1.163 7.91 8.08 7.19
4/20/2023 11:45:00 PM 17 62.6 1.168 7.89 7.41 7.08
4/21/2023 12:00:00 AM 16.87 62.366 1.172 7.88 7.86 6.99
4/21/2023 12:15:00 AM 16.74 62.132 1.176 7.87 7.39 6.89
4/21/2023 12:30:00 AM 16.62 61.916 1.18 7.85 7.65 6.83
4/21/2023 12:45:00 AM 16.5 61.7 1.184 7.85 8.39 6.77
4/21/2023 1:00:00 AM 16.38 61.484 1.188 7.84 7.33 6.74
4/21/2023 1:15:00 AM 16.26 61.268 1.19 7.82 7.79 6.68
4/21/2023 1:30:00 AM 16.15 61.07 1.193 7.81 7.38 6.64
4/21/2023 1:45:00 AM 16.04 60.872 1.196 7.81 7.66 6.64
4/21/2023 2:00:00 AM 15.94 60.692 1.199 7.8 7.21 6.62
4/21/2023 2:15:00 AM 15.84 60.512 1.202 7.79 7.77 6.61
4/21/2023 2:30:00 AM 15.74 60.332 1.205 7.79 7.99 6.61
4/21/2023 2:45:00 AM 15.64 60.152 1.207 7.78 7.6 6.61
4/21/2023 3:00:00 AM 15.53 59.954 1.208 7.77 7.91 6.62
4/21/2023 3:15:00 AM 15.43 59.774 1.21 7.77 7.77 6.63
4/21/2023 3:30:00 AM 15.33 59.594 1.211 7.76 7.51 6.64
4/21/2023 3:45:00 AM 15.24 59.432 1.212 7.76 7.43 6.67
4/21/2023 4:00:00 AM 15.15 59.27 1.213 7.76 7.42 6.67
4/21/2023 4:15:00 AM 15.05 59.09 1.214 7.76 8.59 6.69
4/21/2023 4:30:00 AM 14.96 58.928 1.215 7.75 8.17 6.71
4/21/2023 4:45:00 AM 14.87 58.766 1.215 7.76 8.3 6.75
4/21/2023 5:00:00 AM 14.78 58.604 1.214 7.75 8.06 6.77
4/21/2023 5:15:00 AM 14.7 58.46 1.212 7.76 7.97 6.76
4/21/2023 5:30:00 AM 14.61 58.298 1.209 7.76 7.65 6.82
4/21/2023 5:45:00 AM 14.51 58.118 1.205 7.76 8.29 6.86
4/21/2023 6:00:00 AM 14.42 57.956 1.198 7.76 8.07 6.88
4/21/2023 6:15:00 AM 14.33 57.794 1.191 7.76 7.5 6.93
4/21/2023 6:30:00 AM 14.24 57.632 1.183 7.76 7.54 6.96
4/21/2023 6:45:00 AM 14.16 57.488 1.173 7.77 7.36 7.06
4/21/2023 7:00:00 AM 14.08 57.344 1.164 7.77 7.08 7.19
4/21/2023 7:15:00 AM 14 57.2 1.153 7.78 7.4 7.34
4/21/2023 7:30:00 AM 13.94 57.092 1.142 7.79 7.09 7.48
4/21/2023 7:45:00 AM 13.89 57.002 1.13 7.8 7.17 7.72
4/21/2023 8:00:00 AM 13.85 56.93 1.118 7.82 7.27 7.93
4/21/2023 8:15:00 AM 13.81 56.858 1.106 7.83 7 8.2
4/21/2023 8:30:00 AM 13.79 56.822 1.094 7.85 7.16 8.45
4/21/2023 8:45:00 AM 13.79 56.822 1.083 7.88 6.93 8.79
4/21/2023 9:00:00 AM 13.82 56.876 1.073 7.91 7.29 9.18
4/21/2023 9:15:00 AM 13.86 56.948 1.063 7.94 6.68 9.59
4/21/2023 9:30:00 AM 13.92 57.056 1.054 7.97 6.59 9.95
4/21/2023 9:45:00 AM 14.01 57.218 1.045 8.01 6.72 10.38
4/21/2023 10:00:00 AM 14.11 57.398 1.038 8.03 6.79 10.68
4/21/2023 10:15:00 AM 14.23 57.614 1.032 8.07 6.42 11.08
4/21/2023 10:30:00 AM 14.38 57.884 1.028 8.1 6.5 11.43
4/21/2023 10:45:00 AM 14.53 58.154 1.026 8.13 6.84 11.73
4/21/2023 11:00:00 AM 14.7 58.46 1.026 8.16 6.66 12.04
4/21/2023 11:15:00 AM 14.9 58.82 1.027 8.19 7.12 12.32
4/21/2023 11:30:00 AM 15.1 59.18 1.028 8.21 6.52 12.56
4/21/2023 11:45:00 AM 15.32 59.576 1.029 8.24 6.94 12.8
4/21/2023 12:00:00 PM 15.57 60.026 1.028 8.27 7.57 13.03
4/21/2023 12:15:00 PM 15.83 60.494 1.026 8.3 6.24 13.24
4/21/2023 12:30:00 PM 16.11 60.998 1.025 8.32 6.5 13.47
4/21/2023 12:45:00 PM 16.41 61.538 1.025 8.35 6.42 13.65
4/21/2023 1:00:00 PM 16.72 62.096 1.028 8.38 6.47 13.84
4/21/2023 1:15:00 PM 17 62.6 1.034 8.4 6.17 13.93
4/21/2023 1:30:00 PM 17.31 63.158 1.045 8.43 6.48 14.04
4/21/2023 1:45:00 PM 17.64 63.752 1.059 8.45 6.51 14.13
4/21/2023 2:00:00 PM 17.96 64.328 1.076 8.47 6.26 14.22
4/21/2023 2:15:00 PM 18.28 64.904 1.096 8.48 6.21 14.23
4/21/2023 2:30:00 PM 18.59 65.462 1.115 8.5 6.54 14.22
4/21/2023 2:45:00 PM 18.88 65.984 1.132 8.5 6.43 14.15
4/21/2023 3:00:00 PM 19.14 66.452 1.146 8.5 6.52 14.04
4/21/2023 3:15:00 PM 19.37 66.866 1.155 8.5 6.44 13.85
4/21/2023 3:30:00 PM 19.57 67.226 1.161 8.5 6.15 13.72
4/21/2023 3:45:00 PM 19.73 67.514 1.164 8.5 6.39 13.5
4/21/2023 4:00:00 PM 19.86 67.748 1.166 8.49 6.3 13.3
4/21/2023 4:15:00 PM 19.96 67.92799 1.167 8.48 6.22 13.07
4/21/2023 4:30:00 PM 20.04 68.07201 1.167 8.47 6.42 12.81
4/21/2023 4:45:00 PM 20.1 68.18 1.168 8.46 6.16 12.54
4/21/2023 5:00:00 PM 20.14 68.252 1.168 8.45 5.98 12.27
4/21/2023 5:15:00 PM 20.15 68.27 1.167 8.43 6.03 11.95
4/21/2023 5:30:00 PM 20.15 68.27 1.167 8.41 6.03 11.63
4/21/2023 5:45:00 PM 20.14 68.252 1.166 8.39 5.99 11.3
4/21/2023 6:00:00 PM 20.11 68.198 1.165 8.36 5.93 10.93
4/21/2023 6:15:00 PM 20.06 68.108 1.165 8.34 5.83 10.62
4/21/2023 6:30:00 PM 20 68 1.165 8.31 5.54 10.3
4/21/2023 6:45:00 PM 19.93 67.874 1.164 8.28 5.69 9.99
4/21/2023 7:00:00 PM 19.87 67.766 1.163 8.25 5.48 9.68
4/21/2023 7:15:00 PM 19.79 67.622 1.16 8.23 5.79 9.41
4/21/2023 7:30:00 PM 19.71 67.478 1.158 8.2 5.49 9.12
4/21/2023 7:45:00 PM 19.63 67.334 1.155 8.16 5.66 8.83
4/21/2023 8:00:00 PM 19.54 67.172 1.153 8.13 6.11 8.52
4/21/2023 8:15:00 PM 19.44 66.992 1.151 8.1 6.04 8.24
4/21/2023 8:30:00 PM 19.35 66.83 1.15 8.08 6.09 8
4/21/2023 8:45:00 PM 19.25 66.65 1.149 8.05 6.07 7.79
4/21/2023 9:00:00 PM 19.15 66.47 1.149 8.03 6.31 7.64
4/21/2023 9:15:00 PM 19.06 66.308 1.149 8.01 6.5 7.48
4/21/2023 9:30:00 PM 18.96 66.128 1.15 7.99 5.96 7.34
4/21/2023 9:45:00 PM 18.87 65.966 1.151 7.97 6.57 7.23
4/21/2023 10:00:00 PM 18.77 65.786 1.151 7.96 5.9 7.14
4/21/2023 10:15:00 PM 18.66 65.588 1.148 7.95 6.28 7.02
4/21/2023 10:30:00 PM 18.55 65.39 1.145 7.93 6.4 6.94
4/21/2023 10:45:00 PM 18.43 65.174 1.143 7.92 6.85 6.85
4/21/2023 11:00:00 PM 18.31 64.958 1.141 7.91 6.32 6.76
4/21/2023 11:15:00 PM 18.18 64.724 1.141 7.89 6.36 6.69
4/21/2023 11:30:00 PM 18.05 64.49 1.142 7.88 6.51 6.61
4/21/2023 11:45:00 PM 17.91 64.238 1.145 7.87 7.26 6.54
4/22/2023 12:00:00 AM 17.77 63.986 1.148 7.86 6.4 6.46
4/22/2023 12:15:00 AM 17.62 63.716 1.151 7.85 6.49 6.42
4/22/2023 12:30:00 AM 17.48 63.464 1.155 7.84 6.34 6.36
4/22/2023 12:45:00 AM 17.34 63.212 1.159 7.83 6.36 6.3
4/22/2023 1:00:00 AM 17.2 62.96 1.163 7.82 7.18 6.28
4/22/2023 1:15:00 AM 17.06 62.708 1.169 7.81 6.4 6.26
4/22/2023 1:30:00 AM 16.93 62.474 1.173 7.8 6.29 6.25
4/22/2023 1:45:00 AM 16.8 62.24 1.178 7.79 6.37 6.22
4/22/2023 2:00:00 AM 16.67 62.006 1.182 7.79 7.25 6.22
4/22/2023 2:15:00 AM 16.56 61.808 1.186 7.78 6.13 6.24
4/22/2023 2:30:00 AM 16.44 61.592 1.189 7.78 6.84 6.25
4/22/2023 2:45:00 AM 16.33 61.394 1.192 7.77 6.27 6.27
4/22/2023 3:00:00 AM 16.22 61.196 1.195 7.77 5.95 6.26
4/22/2023 3:15:00 AM 16.11 60.998 1.195 7.76 6.37 6.3
4/22/2023 3:30:00 AM 15.99 60.782 1.195 7.75 6.3 6.32
4/22/2023 3:45:00 AM 15.88 60.584 1.194 7.75 6.56 6.33
4/22/2023 4:00:00 AM 15.77 60.386 1.193 7.75 6.22 6.36
4/22/2023 4:15:00 AM 15.67 60.206 1.192 7.75 5.95 6.4
4/22/2023 4:30:00 AM 15.57 60.026 1.192 7.75 6.44 6.39
4/22/2023 4:45:00 AM 15.47 59.846 1.192 7.75 6.12 6.44
4/22/2023 5:00:00 AM 15.37 59.666 1.192 7.75 6.49 6.47
4/22/2023 5:15:00 AM 15.26 59.468 1.191 7.75 5.91 6.52
4/22/2023 5:30:00 AM 15.17 59.306 1.191 7.75 6.21 6.54
4/22/2023 5:45:00 AM 15.06 59.108 1.189 7.75 5.93 6.56
4/22/2023 6:00:00 AM 14.96 58.928 1.188 7.75 6.05 6.6
4/22/2023 6:15:00 AM 14.86 58.748 1.186 7.75 6.32 6.66
4/22/2023 6:30:00 AM 14.76 58.568 1.182 7.75 6.06 6.72
4/22/2023 6:45:00 AM 14.67 58.406 1.178 7.75 5.97 6.77
4/22/2023 7:00:00 AM 14.58 58.244 1.172 7.76 5.87 6.9
4/22/2023 7:15:00 AM 14.51 58.118 1.165 7.77 6.09 7.07
4/22/2023 7:30:00 AM 14.44 57.992 1.156 7.78 6.15 7.28
4/22/2023 7:45:00 AM 14.39 57.902 1.146 7.79 6.15 7.56
4/22/2023 8:00:00 AM 14.36 57.848 1.135 7.81 6.02 7.89
4/22/2023 8:15:00 AM 14.32 57.776 1.123 7.83 6.08 8.19
4/22/2023 8:30:00 AM 14.29 57.722 1.111 7.86 5.73 8.42
4/22/2023 8:45:00 AM 14.28 57.704 1.099 7.88 5.53 8.68
4/22/2023 9:00:00 AM 14.29 57.722 1.088 7.9 5.58 9.05
4/22/2023 9:15:00 AM 14.34 57.812 1.077 7.94 5.36 9.46
4/22/2023 9:30:00 AM 14.41 57.938 1.066 7.98 5.28 9.88
4/22/2023 9:45:00 AM 14.5 58.1 1.055 8.01 5.17 10.34
4/22/2023 10:00:00 AM 14.64 58.352 1.044 8.05 5.19 10.72
4/22/2023 10:15:00 AM 14.81 58.658 1.034 8.09 5.39 11.13
4/22/2023 10:30:00 AM 14.94 58.892 1.024 8.13 5.17 11.49
4/22/2023 10:45:00 AM 15.03 59.054 1.017 8.15 5.37 11.64
4/22/2023 11:00:00 AM 15.14 59.252 1.012 8.18 5.45 11.87
4/22/2023 11:15:00 AM 15.31 59.558 1.01 8.21 5.39 12.22
4/22/2023 11:30:00 AM 15.41 59.738 1.011 8.23 5.53 12.33
4/22/2023 11:45:00 AM 15.51 59.918 1.012 8.25 5.51 12.36
4/22/2023 12:00:00 PM 15.72 60.296 1.013 8.27 5.35 12.64
4/22/2023 12:15:00 PM 15.99 60.782 1.012 8.31 5.4 13
4/22/2023 12:30:00 PM 16.09 60.962 1.011 8.32 5.53 13.09
4/22/2023 12:45:00 PM 16.24 61.232 1.007 8.35 5.59 13.21
4/22/2023 1:00:00 PM 16.36 61.448 1.003 8.37 5.46 13.35
4/22/2023 1:15:00 PM 16.47 61.646 0.998 8.38 5.37 13.38
4/22/2023 1:30:00 PM 16.78 62.204 0.993 8.42 5.42 13.74
4/22/2023 1:45:00 PM 16.94 62.492 0.991 8.44 5.4 13.77
4/22/2023 2:00:00 PM 17.01 62.618 0.993 8.44 5.24 13.53
4/22/2023 2:15:00 PM 17.15 62.87 0.999 8.46 5.68 13.54
4/22/2023 2:30:00 PM 17.27 63.086 1.009 8.47 5.14 13.6
4/22/2023 2:45:00 PM 17.38 63.284 1.022 8.48 5.35 13.57
4/22/2023 3:00:00 PM 17.48 63.464 1.038 8.48 5.78 13.47
4/22/2023 3:15:00 PM 17.51 63.518 1.054 8.47 5.5 13.16
4/22/2023 3:30:00 PM 17.52 63.536 1.07 8.45 5.44 12.67
4/22/2023 3:45:00 PM 17.54 63.572 1.086 8.43 5.25 12.3
4/22/2023 4:00:00 PM 17.55 63.59 1.1 8.41 5.31 11.94
4/22/2023 4:15:00 PM 17.46 63.428 1.108 8.38 5.72 11.4
4/22/2023 4:30:00 PM 17.37 63.266 1.113 8.34 5.88 10.89
4/22/2023 4:45:00 PM 17.35 63.23 1.114 8.3 7.41 10.51
4/22/2023 5:00:00 PM 17.35 63.23 1.115 8.28 6.73 10.25
4/22/2023 5:15:00 PM 17.32 63.176 1.117 8.25 6.93 9.98
4/22/2023 5:30:00 PM 17.29 63.122 1.119 8.23 6.5 9.75
4/22/2023 5:45:00 PM 17.27 63.086 1.118 8.21 6.97 9.57
4/22/2023 6:00:00 PM 17.24 63.032 1.11 8.19 6.8 9.34
4/22/2023 6:15:00 PM 17.19 62.942 1.103 8.16 7.28 9.16
4/22/2023 6:30:00 PM 17.13 62.834 1.094 8.14 7.03 8.95
4/22/2023 6:45:00 PM 17.06 62.708 1.088 8.11 7.81 8.77
4/22/2023 7:00:00 PM 16.98 62.564 1.084 8.09 8.96 8.62
4/22/2023 7:15:00 PM 16.87 62.366 1.084 8.06 12.59 8.55
4/22/2023 7:30:00 PM 16.74 62.132 1.074 8.03 16.83 8.46
4/22/2023 7:45:00 PM 16.59 61.862 1.066 7.99 15.28 8.31
4/22/2023 8:00:00 PM 16.41 61.538 1.064 7.95 14.64 8.12
4/22/2023 8:15:00 PM 16.23 61.214 1.068 7.91 15.06 7.96
4/22/2023 8:30:00 PM 16.06 60.908 1.071 7.87 15.93 7.79
4/22/2023 8:45:00 PM 15.94 60.692 1.066 7.84 16.24 7.63
4/22/2023 9:00:00 PM 15.86 60.548 1.046 7.81 15.81 7.51
4/22/2023 9:15:00 PM 15.76 60.368 1.001 7.79 14.55 7.46
4/22/2023 9:30:00 PM 15.63 60.134 0.943 7.77 15.77 7.38
4/22/2023 9:45:00 PM 15.52 59.936 0.891 7.74 13.1 7.26
4/22/2023 10:00:00 PM 15.45 59.81 0.85 7.71 14.51 7.04
4/22/2023 10:15:00 PM 15.44 59.792 0.816 7.67 15.17 6.78
4/22/2023 10:30:00 PM 15.45 59.81 0.784 7.64 14.87 6.55
4/22/2023 10:45:00 PM 15.48 59.864 0.754 7.61 14.06 6.31
4/22/2023 11:00:00 PM 15.51 59.918 0.726 7.58 13.74 6.16
4/22/2023 11:15:00 PM 15.53 59.954 0.702 7.56 12.91 6.02
4/22/2023 11:30:00 PM 15.53 59.954 0.685 7.55 13.13 5.9
4/22/2023 11:45:00 PM 15.52 59.936 0.672 7.54 12.46 5.86
4/23/2023 12:00:00 AM 15.5 59.9 0.664 7.53 12.86 5.81
4/23/2023 12:15:00 AM 15.48 59.864 0.659 7.52 11.42 5.77
4/23/2023 12:30:00 AM 15.45 59.81 0.657 7.51 10.96 5.75
4/23/2023 12:45:00 AM 15.42 59.756 0.659 7.51 10.77 5.72
4/23/2023 1:00:00 AM 15.39 59.702 0.663 7.51 10.45 5.73
4/23/2023 1:15:00 AM 15.35 59.63 0.67 7.51 9.62 5.72
4/23/2023 1:30:00 AM 15.31 59.558 0.679 7.5 9.44 5.73
4/23/2023 1:45:00 AM 15.26 59.468 0.69 7.5 9.23 5.74
4/23/2023 2:00:00 AM 15.21 59.378 0.701 7.51 8.97 5.76
4/23/2023 2:15:00 AM 15.16 59.288 0.713 7.51 8.65 5.75
4/23/2023 2:30:00 AM 15.1 59.18 0.726 7.51 8.59 5.75
4/23/2023 2:45:00 AM 15.04 59.072 0.739 7.51 8.02 5.78
4/23/2023 3:00:00 AM 14.97 58.946 0.752 7.51 7.94 5.88
4/23/2023 3:15:00 AM 14.91 58.838 0.764 7.52 7.7 5.93
4/23/2023 3:30:00 AM 14.84 58.712 0.776 7.52 7.77 5.94
4/23/2023 3:45:00 AM 14.77 58.586 0.787 7.53 7.71 6.03
4/23/2023 4:00:00 AM 14.7 58.46 0.797 7.53 7.44 6.11
4/23/2023 4:15:00 AM 14.62 58.316 0.807 7.54 7.28 6.19
4/23/2023 4:30:00 AM 14.55 58.19 0.818 7.55 7.1 6.25
4/23/2023 4:45:00 AM 14.47 58.046 0.829 7.55 7 6.32
4/23/2023 5:00:00 AM 14.38 57.884 0.839 7.56 6.68 6.4
4/23/2023 5:15:00 AM 14.29 57.722 0.849 7.57 6.37 6.47
4/23/2023 5:30:00 AM 14.19 57.542 0.858 7.57 7.31 6.55
4/23/2023 5:45:00 AM 14.09 57.362 0.866 7.58 6.71 6.63
4/23/2023 6:00:00 AM 14 57.2 0.873 7.59 6.47 6.7
4/23/2023 6:15:00 AM 13.9 57.02 0.879 7.59 6.21 6.79
4/23/2023 6:30:00 AM 13.82 56.876 0.884 7.6 6.06 6.87
4/23/2023 6:45:00 AM 13.74 56.732 0.888 7.61 6.13 6.97
4/23/2023 7:00:00 AM 14.01 57.218 0.884 7.62 6.74 7.02
4/23/2023 7:15:00 AM 13.92 57.056 0.888 7.63 6.92 7.19
4/23/2023 7:30:00 AM 13.85 56.93 0.89 7.65 5.81 7.36
4/23/2023 7:45:00 AM 13.78 56.804 0.891 7.66 5.86 7.51
4/23/2023 8:00:00 AM 13.73 56.714 0.891 7.68 5.63 7.76
4/23/2023 8:15:00 AM 13.68 56.624 0.891 7.7 5.59 7.98
4/23/2023 8:30:00 AM 13.66 56.588 0.891 7.73 5.71 8.24
4/23/2023 8:45:00 AM 13.66 56.588 0.89 7.76 5.2 8.58
4/23/2023 9:00:00 AM 13.69 56.642 0.889 7.79 5.25 8.95
4/23/2023 9:15:00 AM 13.74 56.732 0.888 7.83 5.34 9.32
4/23/2023 9:30:00 AM 13.8 56.84 0.888 7.87 4.95 9.63
4/23/2023 9:45:00 AM 13.88 56.984 0.887 7.9 5.36 10.04
4/23/2023 10:00:00 AM 13.98 57.164 0.888 7.94 5.09 10.4
4/23/2023 10:15:00 AM 14.1 57.38 0.89 7.98 5.34 10.73
4/23/2023 10:30:00 AM 14.24 57.632 0.893 8.01 5.49 11.1
4/23/2023 10:45:00 AM 14.39 57.902 0.897 8.05 5.61 11.41
4/23/2023 11:00:00 AM 14.54 58.172 0.901 8.08 5.28 11.68
4/23/2023 11:15:00 AM 14.67 58.406 0.905 8.11 5.18 11.85
4/23/2023 11:30:00 AM 14.82 58.676 0.908 8.14 5.05 12.09
4/23/2023 11:45:00 AM 14.96 58.928 0.909 8.16 5.16 12.27
4/23/2023 12:00:00 PM 15.15 59.27 0.91 8.19 5.16 12.48
4/23/2023 12:15:00 PM 15.33 59.594 0.91 8.22 5.42 12.71
4/23/2023 12:30:00 PM 15.54 59.972 0.909 8.25 5.38 12.9
4/23/2023 12:45:00 PM 15.76 60.368 0.909 8.28 5 13.09
4/23/2023 1:00:00 PM 15.99 60.782 0.91 8.31 4.95 13.31
4/23/2023 1:15:00 PM 16.21 61.178 0.913 8.35 4.89 13.5
4/23/2023 1:30:00 PM 16.34 61.412 0.92 8.36 5.12 13.38
4/23/2023 1:45:00 PM 16.42 61.556 0.93 8.37 4.64 13.34
4/23/2023 2:00:00 PM 16.58 61.844 0.945 8.38 5.01 13.39
4/23/2023 2:15:00 PM 16.83 62.294 0.963 8.4 4.92 13.67
4/23/2023 2:30:00 PM 17.06 62.708 0.985 8.42 4.68 13.77
4/23/2023 2:45:00 PM 17.28 63.104 1.009 8.43 4.79 13.72
4/23/2023 3:00:00 PM 17.36 63.248 1.031 8.43 4.98 13.43
4/23/2023 3:15:00 PM 17.46 63.428 1.051 8.43 4.7 13.33
4/23/2023 3:30:00 PM 17.49 63.482 1.068 8.43 4.79 13.2
4/23/2023 3:45:00 PM 17.48 63.464 1.081 8.41 5.07 12.85
4/23/2023 4:00:00 PM 17.42 63.356 1.089 8.39 4.97 12.42
4/23/2023 4:15:00 PM 17.41 63.338 1.092 8.37 5.36 12.22
4/23/2023 4:30:00 PM 17.35 63.23 1.093 8.36 5.04 12.16
4/23/2023 4:45:00 PM 17.3 63.14 1.093 8.35 5.41 12
4/23/2023 5:00:00 PM 17.25 63.05 1.092 8.34 5.11 11.84
4/23/2023 5:15:00 PM 17.22 62.996 1.092 8.33 4.85 11.7
4/23/2023 5:30:00 PM 17.17 62.906 1.09 8.32 4.77 11.56
4/23/2023 5:45:00 PM 17.12 62.816 1.089 8.31 4.53 11.38
4/23/2023 6:00:00 PM 17.07 62.726 1.087 8.29 4.9 11.15
4/23/2023 6:15:00 PM 16.98 62.564 1.085 8.27 4.77 10.97
4/23/2023 6:30:00 PM 16.86 62.348 1.084 8.25 4.84 10.7
4/23/2023 6:45:00 PM 16.74 62.132 1.082 8.23 4.44 10.55
4/23/2023 7:00:00 PM 16.61 61.898 1.08 8.21 4.76 10.35
4/23/2023 7:15:00 PM 16.46 61.628 1.079 8.18 4.91 10.14
4/23/2023 7:30:00 PM 16.32 61.376 1.077 8.16 5.16 9.92
4/23/2023 7:45:00 PM 16.19 61.142 1.076 8.13 4.95 9.7
4/23/2023 8:00:00 PM 16.04 60.872 1.075 8.11 4.94 9.53
4/23/2023 8:15:00 PM 15.9 60.62 1.073 8.09 4.99 9.31
4/23/2023 8:30:00 PM 15.75 60.35 1.072 8.06 5.75 9.14
4/23/2023 8:45:00 PM 15.61 60.098 1.07 8.04 5.05 8.98
4/23/2023 9:00:00 PM 15.47 59.846 1.069 8.01 5.36 8.85
4/23/2023 9:15:00 PM 15.33 59.594 1.068 7.99 6.15 8.72
4/23/2023 9:30:00 PM 15.21 59.378 1.067 7.97 5.52 8.61
4/23/2023 9:45:00 PM 15.08 59.144 1.067 7.95 5.44 8.53
4/23/2023 10:00:00 PM 14.95 58.91 1.066 7.93 5.49 8.44
4/23/2023 10:15:00 PM 14.82 58.676 1.065 7.91 5.92 8.38
4/23/2023 10:30:00 PM 14.69 58.442 1.064 7.9 5.47 8.31
4/23/2023 10:45:00 PM 14.55 58.19 1.063 7.88 5.2 8.26
4/23/2023 11:00:00 PM 14.42 57.956 1.063 7.87 5.54 8.21
4/23/2023 11:15:00 PM 14.29 57.722 1.063 7.86 5.57 8.16
4/23/2023 11:30:00 PM 14.16 57.488 1.064 7.85 5.53 8.11
4/23/2023 11:45:00 PM 14.04 57.272 1.064 7.84 5.77 8.05
4/24/2023 12:00:00 AM 13.91 57.038 1.065 7.83 5.9 8.02
4/24/2023 12:15:00 AM 13.79 56.822 1.065 7.82 5.69 7.95
4/24/2023 12:30:00 AM 13.66 56.588 1.067 7.81 5.85 7.91
4/24/2023 12:45:00 AM 13.54 56.372 1.07 7.81 5.59 7.89
4/24/2023 1:00:00 AM 13.42 56.156 1.073 7.8 5.68 7.86
4/24/2023 1:15:00 AM 13.31 55.958 1.077 7.79 5.51 7.84
4/24/2023 1:30:00 AM 13.2 55.76 1.081 7.79 5.58 7.81
4/24/2023 1:45:00 AM 13.09 55.562 1.084 7.79 5.52 7.81
4/24/2023 2:00:00 AM 12.98 55.364 1.086 7.78 5.6 7.81
4/24/2023 2:15:00 AM 12.87 55.166 1.087 7.78 5.49 7.82
4/24/2023 2:30:00 AM 12.77 54.986 1.088 7.78 5.34 7.83
4/24/2023 2:45:00 AM 12.67 54.806 1.09 7.78 5.16 7.84
4/24/2023 3:00:00 AM 12.58 54.644 1.09 7.78 5.09 7.87
4/24/2023 3:15:00 AM 12.48 54.464 1.09 7.78 5.45 7.88
4/24/2023 3:30:00 AM 12.39 54.302 1.09 7.78 5.41 7.9
4/24/2023 3:45:00 AM 12.3 54.14 1.089 7.78 5.13 7.91
4/24/2023 4:00:00 AM 12.2 53.96 1.087 7.78 5.21 7.96
4/24/2023 4:15:00 AM 12.11 53.798 1.086 7.78 5.3 8.01
4/24/2023 4:30:00 AM 12.02 53.636 1.084 7.78 5.85 8.02
4/24/2023 4:45:00 AM 11.93 53.474 1.082 7.79 5.52 8.07
4/24/2023 5:00:00 AM 11.84 53.312 1.079 7.79 5.52 8.11
4/24/2023 5:15:00 AM 11.75 53.15 1.076 7.79 5.44 8.15
4/24/2023 5:30:00 AM 11.66 52.988 1.071 7.79 5.64 8.18
4/24/2023 5:45:00 AM 11.58 52.844 1.066 7.79 5.26 8.2
4/24/2023 6:00:00 AM 11.49 52.682 1.06 7.8 5.49 8.26
4/24/2023 6:15:00 AM 11.39 52.502 1.053 7.8 5.13 8.31
4/24/2023 6:30:00 AM 11.31 52.358 1.046 7.8 5.26 8.38
4/24/2023 6:45:00 AM 11.22 52.196 1.039 7.81 5.66 8.46
4/24/2023 7:00:00 AM 11.14 52.052 1.03 7.81 5.48 8.58
4/24/2023 7:15:00 AM 11.07 51.926 1.021 7.82 5.22 8.72
4/24/2023 7:30:00 AM 11.01 51.818 1.013 7.83 5.38 8.89
4/24/2023 7:45:00 AM 10.97 51.746 1.004 7.84 5.19 9.07
4/24/2023 8:00:00 AM 10.94 51.692 0.997 7.86 5.12 9.24
4/24/2023 8:15:00 AM 10.92 51.656 0.99 7.88 4.85 9.43
4/24/2023 8:30:00 AM 10.91 51.638 0.983 7.9 4.82 9.68
4/24/2023 8:45:00 AM 10.94 51.692 0.975 7.92 4.77 10
4/24/2023 9:00:00 AM 10.98 51.764 0.968 7.95 4.57 10.31
4/24/2023 9:15:00 AM 11.05 51.89 0.961 7.98 4.48 10.64
4/24/2023 9:30:00 AM 11.14 52.052 0.954 8.02 4.64 10.97
4/24/2023 9:45:00 AM 11.24 52.232 0.948 8.05 5.36 11.29
4/24/2023 10:00:00 AM 11.37 52.466 0.943 8.08 5.19 11.61
4/24/2023 10:15:00 AM 11.5 52.7 0.939 8.11 4.47 11.87
4/24/2023 10:30:00 AM 11.68 53.024 0.938 8.14 4.65 12.2
4/24/2023 10:45:00 AM 11.81 53.258 0.94 8.17 5.27 12.39
4/24/2023 11:00:00 AM 12.03 53.654 0.944 8.19 10.16 12.55
4/24/2023 11:15:00 AM 12.21 53.978 0.948 8.22 6.45 12.87
4/24/2023 11:30:00 AM 12.3 54.14 0.953 8.23 4.86 12.9
4/24/2023 11:45:00 AM 12.37 54.266 0.957 8.24 4.62 12.83
4/24/2023 12:00:00 PM 12.56 54.608 0.959 8.26 5.2 13.07
4/24/2023 12:15:00 PM 12.61 54.698 0.96 8.27 4.33 12.98
4/24/2023 12:30:00 PM 12.84 55.112 0.962 8.29 4.72 13.15
4/24/2023 12:45:00 PM 12.97 55.346 0.965 8.31 5.16 13.34
4/24/2023 1:00:00 PM 13.09 55.562 0.97 8.32 4.84 13.39
4/24/2023 1:15:00 PM 13.25 55.85 0.979 8.34 4.93 13.46
4/24/2023 1:30:00 PM 13.44 56.192 0.993 8.36 4.74 13.5
4/24/2023 1:45:00 PM 13.8 56.84 1.01 8.39 4.82 13.91
4/24/2023 2:00:00 PM 13.9 57.02 1.029 8.4 4.27 13.83
4/24/2023 2:15:00 PM 14.12 57.416 1.049 8.41 4.34 13.78
4/24/2023 2:30:00 PM 14.32 57.776 1.067 8.42 4.26 13.76
4/24/2023 2:45:00 PM 14.53 58.154 1.082 8.43 4.5 13.81
4/24/2023 3:00:00 PM 14.75 58.55 1.094 8.44 4.3 13.86
4/24/2023 3:15:00 PM 14.94 58.892 1.101 8.45 4.54 13.87
4/24/2023 3:30:00 PM 15.17 59.306 1.107 8.47 4.73 13.96
4/24/2023 3:45:00 PM 15.35 59.63 1.109 8.48 4.53 13.97
4/24/2023 4:00:00 PM 15.43 59.774 1.109 8.48 4.72 13.86
4/24/2023 4:15:00 PM 15.5 59.9 1.109 8.48 4.75 13.7
4/24/2023 4:30:00 PM 15.56 60.008 1.108 8.48 4.39 13.53
4/24/2023 4:45:00 PM 15.66 60.188 1.109 8.48 4.53 13.54
4/24/2023 5:00:00 PM 15.67 60.206 1.111 8.48 4.59 13.4
4/24/2023 5:15:00 PM 15.69 60.242 1.114 8.47 4.59 13.22
4/24/2023 5:30:00 PM 15.7 60.26 1.115 8.46 4.6 13.07
4/24/2023 5:45:00 PM 15.66 60.188 1.113 8.44 4.56 12.78
4/24/2023 6:00:00 PM 15.6 60.08 1.11 8.42 4.65 12.43
4/24/2023 6:15:00 PM 15.57 60.026 1.104 8.4 5.08 12.25
4/24/2023 6:30:00 PM 15.5 59.9 1.1 8.38 4.68 11.99
4/24/2023 6:45:00 PM 15.43 59.774 1.096 8.36 4.85 11.68
4/24/2023 7:00:00 PM 15.34 59.612 1.093 8.33 4.62 11.4
4/24/2023 7:15:00 PM 15.26 59.468 1.09 8.31 4.64 11.16
4/24/2023 7:30:00 PM 15.19 59.342 1.088 8.28 4.91 10.91
4/24/2023 7:45:00 PM 15.12 59.216 1.087 8.26 4.76 10.65
4/24/2023 8:00:00 PM 15.05 59.09 1.086 8.23 5.15 10.38
4/24/2023 8:15:00 PM 14.98 58.964 1.085 8.21 5.07 10.14
4/24/2023 8:30:00 PM 14.9 58.82 1.083 8.18 5.55 9.92
4/24/2023 8:45:00 PM 14.83 58.694 1.08 8.15 5 9.71
4/24/2023 9:00:00 PM 14.74 58.532 1.076 8.13 5.31 9.54
4/24/2023 9:15:00 PM 14.64 58.352 1.071 8.11 5.62 9.4
4/24/2023 9:30:00 PM 14.54 58.172 1.067 8.09 5.64 9.28
4/24/2023 9:45:00 PM 14.43 57.974 1.067 8.08 5.04 9.18
4/24/2023 10:00:00 PM 14.32 57.776 1.069 8.06 5.26 9.09
4/24/2023 10:15:00 PM 14.21 57.578 1.074 8.04 5.05 9
4/24/2023 10:30:00 PM 14.1 57.38 1.08 8.03 5.64 8.91
4/24/2023 10:45:00 PM 13.99 57.182 1.085 8.01 5.53 8.84
4/24/2023 11:00:00 PM 13.89 57.002 1.09 8 5.08 8.73
4/24/2023 11:15:00 PM 13.78 56.804 1.093 7.98 5.44 8.68
4/24/2023 11:30:00 PM 13.67 56.606 1.095 7.96 5.01 8.61
4/24/2023 11:45:00 PM 13.56 56.408 1.097 7.94 4.92 8.55
4/25/2023 12:00:00 AM 13.44 56.192 1.098 7.93 5.14 8.5
4/25/2023 12:15:00 AM 13.33 55.994 1.099 7.91 5.27 8.43
4/25/2023 12:30:00 AM 13.22 55.796 1.101 7.89 5.12 8.38
4/25/2023 12:45:00 AM 13.11 55.598 1.103 7.88 5.53 8.33
4/25/2023 1:00:00 AM 13 55.4 1.104 7.87 5.58 8.28
4/25/2023 1:15:00 AM 12.9 55.22 1.106 7.86 5.43 8.25
4/25/2023 1:30:00 AM 12.79 55.022 1.107 7.85 5.77 8.23
4/25/2023 1:45:00 AM 12.69 54.842 1.108 7.84 5.1 8.21
4/25/2023 2:00:00 AM 12.59 54.662 1.11 7.84 5.18 8.2
4/25/2023 2:15:00 AM 12.5 54.5 1.111 7.83 5.43 8.18
4/25/2023 2:30:00 AM 12.4 54.32 1.112 7.83 5.51 8.19
4/25/2023 2:45:00 AM 12.31 54.158 1.114 7.83 5.6 8.19
4/25/2023 3:00:00 AM 12.22 53.996 1.116 7.83 4.97 8.2
4/25/2023 3:15:00 AM 12.13 53.834 1.119 7.82 4.84 8.21
4/25/2023 3:30:00 AM 12.04 53.672 1.122 7.82 4.84 8.22
4/25/2023 3:45:00 AM 11.96 53.528 1.125 7.82 5.13 8.24
4/25/2023 4:00:00 AM 11.88 53.384 1.127 7.82 5.03 8.25
4/25/2023 4:15:00 AM 11.8 53.24 1.129 7.82 5.53 8.27
4/25/2023 4:30:00 AM 11.72 53.096 1.13 7.82 5.31 8.27
4/25/2023 4:45:00 AM 11.63 52.934 1.131 7.82 5.42 8.3
4/25/2023 5:00:00 AM 11.55 52.79 1.13 7.82 5.6 8.33
4/25/2023 5:15:00 AM 11.47 52.646 1.129 7.82 5.36 8.36
4/25/2023 5:30:00 AM 11.39 52.502 1.126 7.82 5.58 8.38
4/25/2023 5:45:00 AM 11.31 52.358 1.122 7.82 5.57 8.41
4/25/2023 6:00:00 AM 11.23 52.214 1.117 7.82 5.47 8.43
4/25/2023 6:15:00 AM 11.15 52.07 1.112 7.83 4.89 8.48
4/25/2023 6:30:00 AM 11.06 51.908 1.107 7.83 5.37 8.55
4/25/2023 6:45:00 AM 10.98 51.764 1.1 7.83 5.45 8.62
4/25/2023 7:00:00 AM 10.91 51.638 1.094 7.84 5.43 8.74
4/25/2023 7:15:00 AM 10.85 51.53 1.086 7.85 5.12 8.88
4/25/2023 7:30:00 AM 10.8 51.44 1.078 7.86 5 9.04
4/25/2023 7:45:00 AM 10.76 51.368 1.069 7.87 4.98 9.21
4/25/2023 8:00:00 AM 10.72 51.296 1.06 7.88 4.89 9.4
4/25/2023 8:15:00 AM 10.7 51.26 1.05 7.9 4.74 9.62
4/25/2023 8:30:00 AM 10.69 51.242 1.041 7.92 4.93 9.87
4/25/2023 8:45:00 AM 10.71 51.278 1.032 7.95 4.58 10.18
4/25/2023 9:00:00 AM 10.77 51.386 1.024 7.98 4.49 10.53
4/25/2023 9:15:00 AM 10.84 51.512 1.017 8.01 4.24 10.91
4/25/2023 9:30:00 AM 10.92 51.656 1.01 8.05 4.56 11.24
4/25/2023 9:45:00 AM 11.02 51.836 1.003 8.08 7.75 11.6
4/25/2023 10:00:00 AM 11.16 52.088 0.997 8.12 4.64 11.97
4/25/2023 10:15:00 AM 11.3 52.34 0.991 8.14 9.34 12.25
4/25/2023 10:30:00 AM 11.44 52.592 0.987 8.17 5.11 12.46
4/25/2023 10:45:00 AM 11.55 52.79 0.985 8.19 4.55 12.57
4/25/2023 11:00:00 AM 11.77 53.186 0.985 8.22 14.8 12.9
4/25/2023 11:15:00 AM 11.79 53.222 0.987 8.22 16.04 12.81
4/25/2023 11:30:00 AM 11.98 53.564 0.991 8.24 5.98 13.08
4/25/2023 11:45:00 AM 12.22 53.996 0.994 8.27 5.02 13.41
4/25/2023 12:00:00 PM 12.39 54.302 0.998 8.3 4.99 13.63
4/25/2023 12:15:00 PM 12.6 54.68 1 8.33 4.37 13.81
4/25/2023 12:30:00 PM 12.71 54.878 1.002 8.33 32.69 13.68
4/25/2023 12:45:00 PM 12.9 55.22 1.005 8.37 12.53 13.79
4/25/2023 1:00:00 PM 13.06 55.508 1.009 8.39 5.7 13.9
4/25/2023 1:15:00 PM 13.3 55.94 1.017 8.41 13.24 14.07
4/25/2023 1:30:00 PM 13.55 56.39 1.027 8.42 8.75 14.09
4/25/2023 1:45:00 PM 13.9 57.02 1.039 8.44 5.59 14.35
4/25/2023 2:00:00 PM 14.13 57.434 1.051 8.47 4.93 14.5
4/25/2023 2:15:00 PM 14.37 57.866 1.064 8.48 4.87 14.5
4/25/2023 2:30:00 PM 14.55 58.19 1.078 8.49 4.72 14.44
4/25/2023 2:45:00 PM 14.67 58.406 1.098 8.49 4.55 14.22
4/25/2023 3:00:00 PM 14.89 58.802 1.119 8.5 4.73 14.18
4/25/2023 3:15:00 PM 15.18 59.324 1.14 8.52 4.43 14.36
4/25/2023 3:30:00 PM 15.37 59.666 1.158 8.53 5.32 14.32
4/25/2023 3:45:00 PM 15.54 59.972 1.171 8.53 4.65 14.24
4/25/2023 4:00:00 PM 15.68 60.224 1.176 8.54 5.04 14.17
4/25/2023 4:15:00 PM 15.79 60.422 1.177 8.54 4.64 14.03
4/25/2023 4:30:00 PM 15.87 60.566 1.175 8.53 4.93 13.86
4/25/2023 4:45:00 PM 15.89 60.602 1.174 8.53 4.85 13.66
4/25/2023 5:00:00 PM 15.91 60.638 1.173 8.52 4.72 13.48
4/25/2023 5:15:00 PM 15.9 60.62 1.171 8.51 4.64 13.26
4/25/2023 5:30:00 PM 15.87 60.566 1.169 8.5 4.77 13.03
4/25/2023 5:45:00 PM 15.82 60.476 1.165 8.48 4.62 12.81
4/25/2023 6:00:00 PM 15.75 60.35 1.16 8.46 4.72 12.54
4/25/2023 6:15:00 PM 15.66 60.188 1.156 8.44 4.74 12.27
4/25/2023 6:30:00 PM 15.58 60.044 1.154 8.41 4.69 11.99
4/25/2023 6:45:00 PM 15.49 59.882 1.154 8.39 4.66 11.71
4/25/2023 7:00:00 PM 15.4 59.72 1.156 8.36 4.53 11.44
4/25/2023 7:15:00 PM 15.32 59.576 1.16 8.33 4.46 11.18
4/25/2023 7:30:00 PM 15.23 59.414 1.163 8.3 4.43 10.91
4/25/2023 7:45:00 PM 15.14 59.252 1.165 8.27 4.53 10.64
4/25/2023 8:00:00 PM 15.05 59.09 1.165 8.24 4.72 10.36
4/25/2023 8:15:00 PM 14.95 58.91 1.163 8.22 4.93 10.11
4/25/2023 8:30:00 PM 14.86 58.748 1.157 8.19 5.03 9.89
4/25/2023 8:45:00 PM 14.77 58.586 1.15 8.17 5.21 9.71
4/25/2023 9:00:00 PM 14.68 58.424 1.144 8.15 5.39 9.56
4/25/2023 9:15:00 PM 14.6 58.28 1.138 8.13 5.29 9.42
4/25/2023 9:30:00 PM 14.51 58.118 1.134 8.11 5.22 9.31
4/25/2023 9:45:00 PM 14.42 57.956 1.13 8.1 5.44 9.21
4/25/2023 10:00:00 PM 14.32 57.776 1.127 8.08 5.29 9.1
4/25/2023 10:15:00 PM 14.21 57.578 1.125 8.07 5.29 9.04
4/25/2023 10:30:00 PM 14.1 57.38 1.125 8.05 5.13 8.99
4/25/2023 10:45:00 PM 13.98 57.164 1.125 8.04 5.18 8.91
4/25/2023 11:00:00 PM 13.87 56.966 1.125 8.02 5.34 8.85
4/25/2023 11:15:00 PM 13.74 56.732 1.124 8.01 5.44 8.78
4/25/2023 11:30:00 PM 13.62 56.516 1.124 7.99 5.28 8.71
4/25/2023 11:45:00 PM 13.48 56.264 1.123 7.98 5.49 8.65
4/26/2023 12:00:00 AM 13.35 56.03 1.122 7.95 5.07 8.59
4/26/2023 12:15:00 AM 13.22 55.796 1.121 7.93 5 8.53
4/26/2023 12:30:00 AM 13.09 55.562 1.12 7.91 5.58 8.47
4/26/2023 12:45:00 AM 12.97 55.346 1.12 7.9 5.53 8.42
4/26/2023 1:00:00 AM 12.86 55.148 1.121 7.88 6.06 8.38
4/26/2023 1:15:00 AM 12.75 54.95 1.122 7.87 5.42 8.32
4/26/2023 1:30:00 AM 12.66 54.788 1.125 7.86 5.79 8.3
4/26/2023 1:45:00 AM 12.58 54.644 1.128 7.86 6.44 8.27
4/26/2023 2:00:00 AM 12.5 54.5 1.13 7.85 6.13 8.25
4/26/2023 2:15:00 AM 12.42 54.356 1.132 7.84 5.78 8.22
4/26/2023 2:30:00 AM 12.35 54.23 1.134 7.84 5.93 8.21
4/26/2023 2:45:00 AM 12.29 54.122 1.135 7.84 5.83 8.21
4/26/2023 3:00:00 AM 12.23 54.014 1.137 7.83 5.98 8.21
4/26/2023 3:15:00 AM 12.17 53.906 1.139 7.83 5.94 8.19
4/26/2023 3:30:00 AM 12.12 53.816 1.142 7.83 5.23 8.2
4/26/2023 3:45:00 AM 12.06 53.708 1.144 7.83 5.13 8.21
4/26/2023 4:00:00 AM 12.02 53.636 1.147 7.83 5.51 8.21
4/26/2023 4:15:00 AM 11.97 53.546 1.149 7.83 5.09 8.23
4/26/2023 4:30:00 AM 11.92 53.456 1.15 7.83 5.07 8.23
4/26/2023 4:45:00 AM 11.88 53.384 1.152 7.83 5.09 8.26
4/26/2023 5:00:00 AM 11.84 53.312 1.152 7.83 5.29 8.26
4/26/2023 5:15:00 AM 11.79 53.222 1.152 7.83 5.16 8.28
4/26/2023 5:30:00 AM 11.75 53.15 1.151 7.83 5.16 8.29
4/26/2023 5:45:00 AM 11.7 53.06 1.148 7.83 5.24 8.33
4/26/2023 6:00:00 AM 11.66 52.988 1.145 7.83 5.31 8.35
4/26/2023 6:15:00 AM 11.61 52.898 1.141 7.83 5.33 8.37
4/26/2023 6:30:00 AM 11.56 52.808 1.136 7.84 5.34 8.41
4/26/2023 6:45:00 AM 11.53 52.754 1.13 7.84 4.73 8.5
4/26/2023 7:00:00 AM 11.5 52.7 1.123 7.85 4.82 8.57
4/26/2023 7:15:00 AM 11.48 52.664 1.114 7.86 5.69 8.7
4/26/2023 7:30:00 AM 11.47 52.646 1.105 7.87 5.33 8.95
4/26/2023 7:45:00 AM 11.47 52.646 1.094 7.89 4.95 9.2
4/26/2023 8:00:00 AM 11.46 52.628 1.084 7.9 4.96 9.27
4/26/2023 8:15:00 AM 11.45 52.61 1.074 7.91 4.6 9.36
4/26/2023 8:30:00 AM 11.47 52.646 1.064 7.93 4.91 9.63
4/26/2023 8:45:00 AM 11.48 52.664 1.054 7.95 4.37 9.84
4/26/2023 9:00:00 AM 11.48 52.664 1.046 7.96 4.53 9.91
4/26/2023 9:15:00 AM 11.53 52.754 1.037 7.98 4.6 10.25
4/26/2023 9:30:00 AM 11.6 52.88 1.03 8.02 4.63 10.74
4/26/2023 9:45:00 AM 11.68 53.024 1.023 8.05 7.14 11.1
4/26/2023 10:00:00 AM 11.75 53.15 1.017 8.07 6.84 11.37
4/26/2023 10:15:00 AM 11.85 53.33 1.012 8.1 4.73 11.66
4/26/2023 10:30:00 AM 12.02 53.636 1.008 8.14 6.89 12
4/26/2023 10:45:00 AM 12.21 53.978 1.005 8.18 4.96 12.38
4/26/2023 11:00:00 AM 12.4 54.32 1.003 8.21 5.74 12.68
4/26/2023 11:15:00 AM 12.62 54.716 1.003 8.24 5.51 12.95
4/26/2023 11:30:00 AM 12.87 55.166 1.005 8.27 4.7 13.2
4/26/2023 11:45:00 AM 13.11 55.598 1.006 8.3 4.46 13.5
4/26/2023 12:00:00 PM 13.34 56.012 1.007 8.33 4.57 13.71
4/26/2023 12:15:00 PM 13.59 56.462 1.006 8.36 4.52 13.89
4/26/2023 12:30:00 PM 13.86 56.948 1.005 8.39 8.83 14.08
4/26/2023 12:45:00 PM 14.04 57.272 1.004 8.41 7.11 14.18
4/26/2023 1:00:00 PM 14.17 57.506 1.005 8.42 4.8 14.11
4/26/2023 1:15:00 PM 14.44 57.992 1.008 8.44 6.42 14.18
4/26/2023 1:30:00 PM 14.77 58.586 1.013 8.47 4.78 14.49
4/26/2023 1:45:00 PM 15.01 59.018 1.023 8.5 4.68 14.63
4/26/2023 2:00:00 PM 15.24 59.432 1.037 8.51 4.58 14.72
4/26/2023 2:15:00 PM 15.27 59.486 1.054 8.51 4.37 14.36
4/26/2023 2:30:00 PM 15.29 59.522 1.072 8.49 4.49 13.83
4/26/2023 2:45:00 PM 15.35 59.63 1.089 8.47 4.58 13.44
4/26/2023 3:00:00 PM 15.36 59.648 1.103 8.45 4.53 13
4/26/2023 3:15:00 PM 15.37 59.666 1.113 8.42 4.8 12.57
4/26/2023 3:30:00 PM 15.47 59.846 1.119 8.42 4.6 12.63
4/26/2023 3:45:00 PM 15.66 60.188 1.121 8.44 4.9 13.07
4/26/2023 4:00:00 PM 15.8 60.44 1.121 8.45 4.79 13.24
4/26/2023 4:15:00 PM 15.94 60.692 1.119 8.47 4.31 13.26
4/26/2023 4:30:00 PM 15.99 60.782 1.116 8.46 4.32 12.97
4/26/2023 4:45:00 PM 16.01 60.818 1.113 8.44 4.66 12.41
4/26/2023 5:00:00 PM 16.07 60.926 1.107 8.43 4.45 12.16
4/26/2023 5:15:00 PM 16.13 61.034 1.103 8.44 4.43 12.28
4/26/2023 5:30:00 PM 16.12 61.016 1.101 8.43 4.71 12.22
4/26/2023 5:45:00 PM 16.07 60.926 1.1 8.41 4.62 11.99
4/26/2023 6:00:00 PM 15.99 60.782 1.102 8.39 5.23 11.72
4/26/2023 6:15:00 PM 15.92 60.656 1.106 8.37 4.81 11.48
4/26/2023 6:30:00 PM 15.89 60.602 1.113 8.36 4.67 11.4
4/26/2023 6:45:00 PM 15.87 60.566 1.119 8.35 4.62 11.32
4/26/2023 7:00:00 PM 15.84 60.512 1.126 8.33 4.56 11.11
4/26/2023 7:15:00 PM 15.81 60.458 1.131 8.31 4.7 10.83
4/26/2023 7:30:00 PM 15.77 60.386 1.135 8.27 4.71 10.54
4/26/2023 7:45:00 PM 15.71 60.278 1.135 8.24 4.63 10.26
4/26/2023 8:00:00 PM 15.62 60.116 1.133 8.21 4.78 10
4/26/2023 8:15:00 PM 15.51 59.918 1.128 8.17 4.77 9.73
4/26/2023 8:30:00 PM 15.41 59.738 1.122 8.14 5.12 9.48
4/26/2023 8:45:00 PM 15.31 59.558 1.116 8.11 5.12 9.28
4/26/2023 9:00:00 PM 15.22 59.396 1.11 8.09 4.95 9.14
4/26/2023 9:15:00 PM 15.16 59.288 1.105 8.07 5.66 9.01
4/26/2023 9:30:00 PM 15.1 59.18 1.101 8.06 5.14 8.9
4/26/2023 9:45:00 PM 15.05 59.09 1.098 8.04 4.86 8.82
4/26/2023 10:00:00 PM 15 59 1.095 8.03 5.06 8.74
4/26/2023 10:15:00 PM 14.94 58.892 1.092 8.01 5.04 8.66
4/26/2023 10:30:00 PM 14.87 58.766 1.09 8 4.84 8.6
4/26/2023 10:45:00 PM 14.79 58.622 1.089 7.99 5.14 8.53
4/26/2023 11:00:00 PM 14.73 58.514 1.09 7.98 4.81 8.46
4/26/2023 11:15:00 PM 14.66 58.388 1.091 7.97 5.12 8.42
4/26/2023 11:30:00 PM 14.59 58.262 1.094 7.96 5.17 8.36
4/26/2023 11:45:00 PM 14.51 58.118 1.097 7.95 5.17 8.29
4/27/2023 12:00:00 AM 14.43 57.974 1.101 7.94 4.87 8.25
4/27/2023 12:15:00 AM 14.34 57.812 1.106 7.93 5.11 8.19
4/27/2023 12:30:00 AM 14.26 57.668 1.111 7.91 5.33 8.14
4/27/2023 12:45:00 AM 14.17 57.506 1.117 7.9 4.83 8.07
4/27/2023 1:00:00 AM 14.09 57.362 1.124 7.89 5.15 8.02
4/27/2023 1:15:00 AM 14.02 57.236 1.13 7.88 5.03 7.98
4/27/2023 1:30:00 AM 13.95 57.11 1.135 7.87 5.44 7.93
4/27/2023 1:45:00 AM 13.89 57.002 1.139 7.86 5.11 7.92
4/27/2023 2:00:00 AM 13.83 56.894 1.141 7.86 5.19 7.89
4/27/2023 2:15:00 AM 13.77 56.786 1.142 7.85 5.05 7.88
4/27/2023 2:30:00 AM 13.72 56.696 1.142 7.84 4.99 7.85
4/27/2023 2:45:00 AM 13.67 56.606 1.143 7.84 5.18 7.84
4/27/2023 3:00:00 AM 13.63 56.534 1.143 7.83 4.99 7.82
4/27/2023 3:15:00 AM 13.57 56.426 1.141 7.83 5.14 7.83
4/27/2023 3:30:00 AM 13.52 56.336 1.138 7.83 5.23 7.83
4/27/2023 3:45:00 AM 13.47 56.246 1.137 7.82 5.13 7.83
4/27/2023 4:00:00 AM 13.43 56.174 1.133 7.82 5.82 7.81
4/27/2023 4:15:00 AM 13.39 56.102 1.13 7.81 5.54 7.81
4/27/2023 4:30:00 AM 13.35 56.03 1.13 7.81 5.31 7.82
4/27/2023 4:45:00 AM 13.32 55.976 1.129 7.81 5.34 7.84
4/27/2023 5:00:00 AM 13.28 55.904 1.127 7.81 4.93 7.86
4/27/2023 5:15:00 AM 13.25 55.85 1.124 7.81 5.07 7.86
4/27/2023 5:30:00 AM 13.21 55.778 1.12 7.81 5.11 7.87
4/27/2023 5:45:00 AM 13.17 55.706 1.115 7.82 5.26 7.89
4/27/2023 6:00:00 AM 13.13 55.634 1.11 7.82 5.13 7.9
4/27/2023 6:15:00 AM 13.09 55.562 1.104 7.82 5.11 7.91
4/27/2023 6:30:00 AM 13.05 55.49 1.098 7.82 5.3 7.95
4/27/2023 6:45:00 AM 13.02 55.436 1.092 7.82 5.37 7.99
4/27/2023 7:00:00 AM 12.99 55.382 1.085 7.82 5.04 8.06
4/27/2023 7:15:00 AM 12.97 55.346 1.078 7.83 5.15 8.17
4/27/2023 7:30:00 AM 12.95 55.31 1.069 7.84 5.21 8.27
4/27/2023 7:45:00 AM 12.93 55.274 1.06 7.85 4.99 8.44
4/27/2023 8:00:00 AM 12.92 55.256 1.05 7.86 5.01 8.6
4/27/2023 8:15:00 AM 12.9 55.22 1.039 7.87 4.84 8.77
4/27/2023 8:30:00 AM 12.89 55.202 1.029 7.89 5.11 8.96
4/27/2023 8:45:00 AM 12.89 55.202 1.019 7.9 4.36 9.15
4/27/2023 9:00:00 AM 12.89 55.202 1.01 7.92 4.49 9.39
4/27/2023 9:15:00 AM 12.91 55.238 1.002 7.94 4.39 9.73
4/27/2023 9:30:00 AM 12.95 55.31 0.996 7.97 4.41 10.1
4/27/2023 9:45:00 AM 12.99 55.382 0.99 8 4.53 10.48
4/27/2023 10:00:00 AM 13.06 55.508 0.985 8.04 4.68 10.9
4/27/2023 10:15:00 AM 13.1 55.58 0.982 8.06 5.36 11.13
4/27/2023 10:30:00 AM 13.14 55.652 0.981 8.08 4.89 11.17
4/27/2023 10:45:00 AM 13.19 55.742 0.981 8.09 4.83 11.32
4/27/2023 11:00:00 AM 13.27 55.886 0.983 8.12 5.87 11.58
4/27/2023 11:15:00 AM 13.4 56.12 0.985 8.15 4.84 11.98
4/27/2023 11:30:00 AM 13.5 56.3 0.988 8.17 4.67 12.22
4/27/2023 11:45:00 AM 13.65 56.57 0.991 8.21 4.57 12.56
4/27/2023 12:00:00 PM 13.85 56.93 0.992 8.24 4.46 12.89
4/27/2023 12:15:00 PM 14.04 57.272 0.993 8.28 4.43 13.14
4/27/2023 12:30:00 PM 14.21 57.578 0.992 8.3 7.08 13.37
4/27/2023 12:45:00 PM 14.33 57.794 0.993 8.32 4.62 13.45
4/27/2023 1:00:00 PM 14.43 57.974 0.996 8.33 4.4 13.32
4/27/2023 1:15:00 PM 14.61 58.298 1.004 8.35 4.3 13.46
4/27/2023 1:30:00 PM 14.62 58.316 1.016 8.35 4.3 13.41
4/27/2023 1:45:00 PM 14.73 58.514 1.033 8.36 4.35 13.5
4/27/2023 2:00:00 PM 14.91 58.838 1.056 8.38 4.5 13.62
4/27/2023 2:15:00 PM 15.15 59.27 1.084 8.39 4.46 13.7
4/27/2023 2:30:00 PM 15.55 59.99 1.113 8.43 4.37 14.03
4/27/2023 2:45:00 PM 15.82 60.476 1.142 8.45 4.38 14.25
4/27/2023 3:00:00 PM 16.1 60.98 1.167 8.47 4.59 14.34
4/27/2023 3:15:00 PM 16.36 61.448 1.185 8.48 4.42 14.39
4/27/2023 3:30:00 PM 16.56 61.808 1.197 8.49 4.61 14.37
4/27/2023 3:45:00 PM 16.72 62.096 1.201 8.51 4.71 14.3
4/27/2023 4:00:00 PM 16.81 62.258 1.2 8.5 4.81 14.04
4/27/2023 4:15:00 PM 16.86 62.348 1.196 8.5 4.81 13.69
4/27/2023 4:30:00 PM 16.91 62.438 1.191 8.49 4.89 13.51
4/27/2023 4:45:00 PM 16.94 62.492 1.187 8.48 4.86 13.35
4/27/2023 5:00:00 PM 16.96 62.528 1.186 8.48 4.75 13.23
4/27/2023 5:15:00 PM 16.97 62.546 1.188 8.48 4.91 13.12
4/27/2023 5:30:00 PM 16.97 62.546 1.193 8.46 4.9 12.99
4/27/2023 5:45:00 PM 16.97 62.546 1.199 8.46 4.86 12.79
4/27/2023 6:00:00 PM 16.95 62.51 1.205 8.44 4.66 12.52
4/27/2023 6:15:00 PM 16.93 62.474 1.211 8.42 5.18 12.25
4/27/2023 6:30:00 PM 16.91 62.438 1.215 8.4 4.66 12.01
4/27/2023 6:45:00 PM 16.9 62.42 1.22 8.38 4.72 11.73
4/27/2023 7:00:00 PM 16.89 62.402 1.222 8.37 4.62 11.46
4/27/2023 7:15:00 PM 16.88 62.384 1.219 8.35 4.69 11.16
4/27/2023 7:30:00 PM 16.87 62.366 1.211 8.33 4.52 10.85
4/27/2023 7:45:00 PM 16.84 62.312 1.204 8.31 4.87 10.53
4/27/2023 8:00:00 PM 16.79 62.222 1.199 8.29 4.89 10.22
4/27/2023 8:15:00 PM 16.73 62.114 1.198 8.26 4.91 9.92
4/27/2023 8:30:00 PM 16.66 61.988 1.197 8.23 4.83 9.64
4/27/2023 8:45:00 PM 16.59 61.862 1.195 8.2 5.25 9.4
4/27/2023 9:00:00 PM 16.51 61.718 1.19 8.18 5.2 9.17
4/27/2023 9:15:00 PM 16.42 61.556 1.182 8.15 5.2 9
4/27/2023 9:30:00 PM 16.33 61.394 1.173 8.13 5.41 8.84
4/27/2023 9:45:00 PM 16.23 61.214 1.164 8.1 5.52 8.7
4/27/2023 10:00:00 PM 16.13 61.034 1.155 8.08 5.32 8.57
4/27/2023 10:15:00 PM 16.04 60.872 1.147 8.06 5.28 8.45
4/27/2023 10:30:00 PM 15.94 60.692 1.14 8.04 5.52 8.36
4/27/2023 10:45:00 PM 15.85 60.53 1.133 8.02 5.49 8.26
4/27/2023 11:00:00 PM 15.75 60.35 1.127 8.01 5.43 8.17
4/27/2023 11:15:00 PM 15.67 60.206 1.122 7.99 5.24 8.07
4/27/2023 11:30:00 PM 15.58 60.044 1.119 7.98 5.21 7.98
4/27/2023 11:45:00 PM 15.49 59.882 1.118 7.96 5.02 7.88
4/28/2023 12:00:00 AM 15.41 59.738 1.119 7.94 5.2 7.8
4/28/2023 12:15:00 AM 15.32 59.576 1.121 7.93 5.26 7.72
4/28/2023 12:30:00 AM 15.24 59.432 1.125 7.91 5.26 7.63
4/28/2023 12:45:00 AM 15.16 59.288 1.129 7.9 5.13 7.55
4/28/2023 1:00:00 AM 15.08 59.144 1.133 7.88 4.97 7.46
4/28/2023 1:15:00 AM 15.01 59.018 1.138 7.87 5.22 7.41
4/28/2023 1:30:00 AM 14.94 58.892 1.142 7.86 4.75 7.37
4/28/2023 1:45:00 AM 14.87 58.766 1.148 7.85 5.1 7.31
4/28/2023 2:00:00 AM 14.81 58.658 1.155 7.84 5.17 7.27
4/28/2023 2:15:00 AM 14.75 58.55 1.161 7.83 5.29 7.21
4/28/2023 2:30:00 AM 14.68 58.424 1.167 7.82 4.89 7.19
4/28/2023 2:45:00 AM 14.62 58.316 1.172 7.82 5.02 7.18
4/28/2023 3:00:00 AM 14.56 58.208 1.176 7.81 5.01 7.17
4/28/2023 3:15:00 AM 14.51 58.118 1.18 7.81 4.6 7.17
4/28/2023 3:30:00 AM 14.45 58.01 1.185 7.81 4.73 7.15
4/28/2023 3:45:00 AM 14.4 57.92 1.19 7.81 4.88 7.13
4/28/2023 4:00:00 AM 14.36 57.848 1.196 7.81 4.71 7.17
4/28/2023 4:15:00 AM 14.31 57.758 1.202 7.81 5.01 7.16
4/28/2023 4:30:00 AM 14.26 57.668 1.206 7.81 5.31 7.16
4/28/2023 4:45:00 AM 14.22 57.596 1.21 7.81 5.51 7.16
4/28/2023 5:00:00 AM 14.18 57.524 1.213 7.81 5.26 7.16
4/28/2023 5:15:00 AM 14.13 57.434 1.214 7.81 5.13 7.17
4/28/2023 5:30:00 AM 14.07 57.326 1.214 7.81 4.98 7.18
4/28/2023 5:45:00 AM 14.02 57.236 1.213 7.81 5.36 7.19
4/28/2023 6:00:00 AM 13.97 57.146 1.211 7.81 4.83 7.21
4/28/2023 6:15:00 AM 13.91 57.038 1.207 7.81 4.84 7.23
4/28/2023 6:30:00 AM 13.85 56.93 1.202 7.81 5.03 7.26
4/28/2023 6:45:00 AM 13.8 56.84 1.196 7.82 4.79 7.31
4/28/2023 7:00:00 AM 13.75 56.75 1.188 7.82 5.08 7.38
4/28/2023 7:15:00 AM 13.69 56.642 1.179 7.82 5.1 7.49
4/28/2023 7:30:00 AM 13.63 56.534 1.168 7.83 4.96 7.58
4/28/2023 7:45:00 AM 13.58 56.444 1.156 7.84 4.79 7.68
4/28/2023 8:00:00 AM 13.53 56.354 1.143 7.84 4.83 7.81
4/28/2023 8:15:00 AM 13.49 56.282 1.13 7.86 4.49 7.99
4/28/2023 8:30:00 AM 13.45 56.21 1.116 7.87 4.68 8.19
4/28/2023 8:45:00 AM 13.41 56.138 1.103 7.88 4.42 8.38
4/28/2023 9:00:00 AM 13.37 56.066 1.09 7.89 4.45 8.5
4/28/2023 9:15:00 AM 13.33 55.994 1.077 7.9 4.35 8.63
4/28/2023 9:30:00 AM 13.3 55.94 1.065 7.91 4.46 8.75
4/28/2023 9:45:00 AM 13.26 55.868 1.053 7.92 6.46 8.89
4/28/2023 10:00:00 AM 13.23 55.814 1.041 7.93 4.48 9.07
4/28/2023 10:15:00 AM 13.21 55.778 1.031 7.95 4.78 9.26
4/28/2023 10:30:00 AM 13.19 55.742 1.022 7.96 4.46 9.46
4/28/2023 10:45:00 AM 13.16 55.688 1.016 7.97 4.75 9.6
4/28/2023 11:00:00 AM 13.14 55.652 1.011 7.98 4.59 9.68
4/28/2023 11:15:00 AM 13.12 55.616 1.01 7.99 5.1 9.75
4/28/2023 11:30:00 AM 13.11 55.598 1.011 8 4.5 9.83
4/28/2023 11:45:00 AM 13.09 55.562 1.014 8 4.83 9.88
4/28/2023 12:00:00 PM 13.09 55.562 1.018 8.01 4.83 9.93
4/28/2023 12:15:00 PM 13.09 55.562 1.023 8.01 4.76 10.01
4/28/2023 12:30:00 PM 13.09 55.562 1.027 8.02 4.95 10.1
4/28/2023 12:45:00 PM 13.1 55.58 1.031 8.03 5.04 10.21
4/28/2023 1:00:00 PM 13.12 55.616 1.033 8.05 4.82 10.31
4/28/2023 1:15:00 PM 13.13 55.634 1.037 8.06 5.2 10.42
4/28/2023 1:30:00 PM 13.14 55.652 1.041 8.07 4.95 10.48
4/28/2023 1:45:00 PM 13.16 55.688 1.05 8.07 4.84 10.53
4/28/2023 2:00:00 PM 13.18 55.724 1.061 8.08 4.74 10.51
4/28/2023 2:15:00 PM 13.18 55.724 1.073 8.08 4.91 10.5
4/28/2023 2:30:00 PM 13.19 55.742 1.086 8.08 5.68 10.49
4/28/2023 2:45:00 PM 13.22 55.796 1.094 8.08 5.6 10.5
4/28/2023 3:00:00 PM 13.25 55.85 1.106 8.09 5.4 10.59
4/28/2023 3:15:00 PM 13.31 55.958 1.117 8.11 5.39 10.81
4/28/2023 3:30:00 PM 13.36 56.048 1.125 8.13 5.34 11.05
4/28/2023 3:45:00 PM 13.38 56.084 1.132 8.13 5.71 10.96
4/28/2023 4:00:00 PM 13.41 56.138 1.136 8.13 5.68 10.94
4/28/2023 4:15:00 PM 13.43 56.174 1.138 8.13 6.07 10.94
4/28/2023 4:30:00 PM 13.42 56.156 1.134 8.12 6.39 10.76
4/28/2023 4:45:00 PM 13.41 56.138 1.125 8.1 6.9 10.59
4/28/2023 5:00:00 PM 13.4 56.12 1.117 8.09 7.19 10.57
4/28/2023 5:15:00 PM 13.39 56.102 1.11 8.08 7.71 10.49
4/28/2023 5:30:00 PM 13.37 56.066 1.106 8.07 7.32 10.38
4/28/2023 5:45:00 PM 13.36 56.048 1.102 8.05 8.12 10.25
4/28/2023 6:00:00 PM 13.33 55.994 1.095 8.03 8.05 10.1
4/28/2023 6:15:00 PM 13.29 55.922 1.085 8.02 7.91 9.97
4/28/2023 6:30:00 PM 13.24 55.832 1.071 8.01 7.9 9.84
4/28/2023 6:45:00 PM 13.19 55.742 1.049 7.99 8.27 9.74
4/28/2023 7:00:00 PM 13.14 55.652 1.03 7.98 8.25 9.66
4/28/2023 7:15:00 PM 13.08 55.544 1.008 7.97 8.28 9.6
4/28/2023 7:30:00 PM 13.02 55.436 0.983 7.95 8.65 9.53
4/28/2023 7:45:00 PM 12.95 55.31 0.959 7.94 8.7 9.46
4/28/2023 8:00:00 PM 12.89 55.202 0.936 7.92 8.87 9.39
4/28/2023 8:15:00 PM 12.81 55.058 0.907 7.9 10.06 9.3
4/28/2023 8:30:00 PM 12.74 54.932 0.88 7.88 11.23 9.22
4/28/2023 8:45:00 PM 12.68 54.824 0.851 7.85 13.72 9.13
4/28/2023 9:00:00 PM 12.63 54.734 0.828 7.82 20.81 9.02
4/28/2023 9:15:00 PM 12.6 54.68 0.807 7.78 22.5 8.93
4/28/2023 9:30:00 PM 12.57 54.626 0.791 7.76 22.55 8.85
4/28/2023 9:45:00 PM 12.56 54.608 0.789 7.74 21.08 8.74
4/28/2023 10:00:00 PM 12.58 54.644 0.801 7.71 22.99 8.63
4/28/2023 10:15:00 PM 12.6 54.68 0.814 7.7 21.9 8.57
4/28/2023 10:30:00 PM 12.61 54.698 0.817 7.69 24.3 8.55
4/28/2023 10:45:00 PM 12.57 54.626 0.801 7.69 22.67 8.6
4/28/2023 11:00:00 PM 12.5 54.5 0.77 7.69 25.44 8.66
4/28/2023 11:15:00 PM 12.42 54.356 0.738 7.68 21.83 8.72
4/28/2023 11:30:00 PM 12.35 54.23 0.713 7.68 17.27 8.75
4/28/2023 11:45:00 PM 12.29 54.122 0.687 7.66 19.08 8.78
4/29/2023 12:00:00 AM 12.23 54.014 0.66 7.66 17.73 8.79
4/29/2023 12:15:00 AM 12.18 53.924 0.638 7.65 16.6 8.81
4/29/2023 12:30:00 AM 12.13 53.834 0.619 7.64 15.7 8.82
4/29/2023 12:45:00 AM 12.09 53.762 0.605 7.63 14.37 8.82
4/29/2023 1:00:00 AM 12.05 53.69 0.595 7.63 13.21 8.83
4/29/2023 1:15:00 AM 12.01 53.618 0.589 7.62 12.23 8.83
4/29/2023 1:30:00 AM 11.98 53.564 0.587 7.62 12.51 8.83
4/29/2023 1:45:00 AM 11.95 53.51 0.587 7.62 12.22 8.82
4/29/2023 2:00:00 AM 11.92 53.456 0.591 7.62 11.04 8.8
4/29/2023 2:15:00 AM 11.91 53.438 0.595 7.62 11.69 8.79
4/29/2023 2:30:00 AM 11.89 53.402 0.601 7.62 10.39 8.79
4/29/2023 2:45:00 AM 11.88 53.384 0.607 7.63 10.24 8.77
4/29/2023 3:00:00 AM 11.86 53.348 0.614 7.63 9.38 8.76
4/29/2023 3:15:00 AM 11.86 53.348 0.622 7.63 9.52 8.74
4/29/2023 3:30:00 AM 11.85 53.33 0.632 7.64 8.97 8.73
4/29/2023 3:45:00 AM 11.85 53.33 0.642 7.64 9.63 8.72
4/29/2023 4:00:00 AM 11.86 53.348 0.652 7.65 9.5 8.71
4/29/2023 4:15:00 AM 11.86 53.348 0.662 7.65 9.3 8.7
4/29/2023 4:30:00 AM 11.87 53.366 0.672 7.66 9.09 8.68
4/29/2023 4:45:00 AM 11.88 53.384 0.68 7.66 9.29 8.67
4/29/2023 5:00:00 AM 11.88 53.384 0.688 7.67 8.42 8.66
4/29/2023 5:15:00 AM 11.89 53.402 0.696 7.68 8.07 8.67
4/29/2023 5:30:00 AM 11.89 53.402 0.702 7.68 8.71 8.66
4/29/2023 5:45:00 AM 11.89 53.402 0.708 7.69 8.99 8.63
4/29/2023 6:00:00 AM 11.9 53.42 0.713 7.69 8.1 8.66
4/29/2023 6:15:00 AM 11.9 53.42 0.715 7.7 8.77 8.67
4/29/2023 6:30:00 AM 11.9 53.42 0.716 7.7 8.95 8.68
4/29/2023 6:45:00 AM 11.9 53.42 0.719 7.71 8.18 8.7
4/29/2023 7:00:00 AM 11.9 53.42 0.722 7.71 7.79 8.71
4/29/2023 7:15:00 AM 11.91 53.438 0.726 7.72 7.31 8.75
4/29/2023 7:30:00 AM 11.92 53.456 0.73 7.73 7.6 8.83
4/29/2023 7:45:00 AM 11.94 53.492 0.734 7.74 7.11 8.9
4/29/2023 8:00:00 AM 11.95 53.51 0.737 7.75 6.66 8.97
4/29/2023 8:15:00 AM 11.99 53.582 0.739 7.76 8.95 9.11
4/29/2023 8:30:00 AM 12.02 53.636 0.742 7.78 6.17 9.28
4/29/2023 8:45:00 AM 12.07 53.726 0.746 7.79 6.21 9.48
4/29/2023 9:00:00 AM 12.11 53.798 0.751 7.81 6.36 9.58
4/29/2023 9:15:00 AM 12.15 53.87 0.757 7.82 6.12 9.68
4/29/2023 9:30:00 AM 12.2 53.96 0.764 7.83 6.49 9.84
4/29/2023 9:45:00 AM 12.26 54.068 0.771 7.85 6.08 10
4/29/2023 10:00:00 AM 12.32 54.176 0.777 7.87 5.9 10.15
4/29/2023 10:15:00 AM 12.39 54.302 0.783 7.89 5.91 10.3
4/29/2023 10:30:00 AM 12.45 54.41 0.789 7.9 6.05 10.39
4/29/2023 10:45:00 AM 12.5 54.5 0.795 7.91 5.94 10.48
4/29/2023 11:00:00 AM 12.56 54.608 0.8 7.93 5.64 10.58
4/29/2023 11:15:00 AM 12.63 54.734 0.804 7.95 5.9 10.75
4/29/2023 11:30:00 AM 12.71 54.878 0.808 7.97 5.86 11
4/29/2023 11:45:00 AM 12.79 55.022 0.813 7.99 5.73 11.12
4/29/2023 12:00:00 PM 12.86 55.148 0.818 8.01 6.55 11.23
4/29/2023 12:15:00 PM 12.93 55.274 0.825 8.02 6.21 11.25
4/29/2023 12:30:00 PM 13.01 55.418 0.834 8.04 5.33 11.35
4/29/2023 12:45:00 PM 13.09 55.562 0.845 8.05 5.51 11.42
4/29/2023 1:00:00 PM 13.19 55.742 0.857 8.07 5.55 11.52
4/29/2023 1:15:00 PM 13.29 55.922 0.868 8.08 5.59 11.64
4/29/2023 1:30:00 PM 13.39 56.102 0.879 8.09 5.33 11.72
4/29/2023 1:45:00 PM 13.48 56.264 0.889 8.11 6.14 11.73
4/29/2023 2:00:00 PM 13.59 56.462 0.898 8.12 5.71 11.8
4/29/2023 2:15:00 PM 13.7 56.66 0.907 8.13 5.34 11.89
4/29/2023 2:30:00 PM 13.8 56.84 0.915 8.14 5.58 11.96
4/29/2023 2:45:00 PM 13.91 57.038 0.922 8.16 5.69 12.03
4/29/2023 3:00:00 PM 14.02 57.236 0.928 8.17 5.6 12.11
4/29/2023 3:15:00 PM 14.13 57.434 0.933 8.18 5.3 12.19
4/29/2023 3:30:00 PM 14.2 57.56 0.938 8.18 5.68 12.08
4/29/2023 3:45:00 PM 14.27 57.686 0.943 8.18 5.93 11.91
4/29/2023 4:00:00 PM 14.34 57.812 0.947 8.18 5.31 11.88
4/29/2023 4:15:00 PM 14.42 57.956 0.951 8.18 5.76 11.93
4/29/2023 4:30:00 PM 14.47 58.046 0.955 8.18 5.46 11.85
4/29/2023 4:45:00 PM 14.51 58.118 0.957 8.17 6.43 11.74
4/29/2023 5:00:00 PM 14.54 58.172 0.958 8.16 5.56 11.48
4/29/2023 5:15:00 PM 14.56 58.208 0.96 8.14 5.26 11.26
4/29/2023 5:30:00 PM 14.57 58.226 0.961 8.13 5.3 11.03
4/29/2023 5:45:00 PM 14.6 58.28 0.962 8.12 5.18 10.91
4/29/2023 6:00:00 PM 14.63 58.334 0.962 8.11 4.85 10.89
4/29/2023 6:15:00 PM 14.66 58.388 0.963 8.11 5.21 10.8
4/29/2023 6:30:00 PM 14.7 58.46 0.963 8.1 4.99 10.72
4/29/2023 6:45:00 PM 14.73 58.514 0.965 8.1 5.09 10.62
4/29/2023 7:00:00 PM 14.75 58.55 0.966 8.1 4.95 10.54
4/29/2023 7:15:00 PM 14.75 58.55 0.967 8.09 5.03 10.44
4/29/2023 7:30:00 PM 14.75 58.55 0.968 8.08 4.73 10.29
4/29/2023 7:45:00 PM 14.73 58.514 0.968 8.07 4.89 10.12
4/29/2023 8:00:00 PM 14.71 58.478 0.969 8.05 5.2 9.94
4/29/2023 8:15:00 PM 14.69 58.442 0.97 8.03 5.27 9.77
4/29/2023 8:30:00 PM 14.66 58.388 0.971 8.02 5.17 9.61
4/29/2023 8:45:00 PM 14.63 58.334 0.972 8 5.25 9.45
4/29/2023 9:00:00 PM 14.61 58.298 0.971 7.98 5.48 9.3
4/29/2023 9:15:00 PM 14.58 58.244 0.97 7.97 5.59 9.19
4/29/2023 9:30:00 PM 14.55 58.19 0.969 7.96 5.21 9.07
4/29/2023 9:45:00 PM 14.53 58.154 0.968 7.95 5.48 8.97
4/29/2023 10:00:00 PM 14.5 58.1 0.968 7.94 5.26 8.87
4/29/2023 10:15:00 PM 14.46 58.028 0.968 7.93 5.84 8.78
4/29/2023 10:30:00 PM 14.43 57.974 0.968 7.92 5.77 8.69
4/29/2023 10:45:00 PM 14.39 57.902 0.969 7.91 5.49 8.62
4/29/2023 11:00:00 PM 14.35 57.83 0.97 7.9 5.23 8.55
4/29/2023 11:15:00 PM 14.32 57.776 0.971 7.89 5.61 8.49
4/29/2023 11:30:00 PM 14.28 57.704 0.972 7.88 5.6 8.43
4/29/2023 11:45:00 PM 14.23 57.614 0.972 7.88 5.91 8.37
4/30/2023 12:00:00 AM 14.19 57.542 0.973 7.87 5.82 8.32
4/30/2023 12:15:00 AM 14.15 57.47 0.974 7.86 5.81 8.27
4/30/2023 12:30:00 AM 14.11 57.398 0.975 7.86 5.7 8.23
4/30/2023 12:45:00 AM 14.07 57.326 0.977 7.85 5.43 8.19
4/30/2023 1:00:00 AM 14.04 57.272 0.978 7.85 5.69 8.17
4/30/2023 1:15:00 AM 14 57.2 0.979 7.84 5.72 8.13
4/30/2023 1:30:00 AM 13.96 57.128 0.979 7.84 5.57 8.13
4/30/2023 1:45:00 AM 13.93 57.074 0.979 7.84 5.81 8.1
4/30/2023 2:00:00 AM 13.89 57.002 0.978 7.83 5.52 8.08
4/30/2023 2:15:00 AM 13.86 56.948 0.977 7.83 5.57 8.07
4/30/2023 2:30:00 AM 13.83 56.894 0.975 7.83 5.47 8.08
4/30/2023 2:45:00 AM 13.8 56.84 0.974 7.83 5.56 8.07
4/30/2023 3:00:00 AM 13.77 56.786 0.972 7.83 5.51 8.08
4/30/2023 3:15:00 AM 13.74 56.732 0.97 7.83 5.19 8.06
4/30/2023 3:30:00 AM 13.71 56.678 0.968 7.83 5.78 8.07
4/30/2023 3:45:00 AM 13.68 56.624 0.967 7.83 5.72 8.07
4/30/2023 4:00:00 AM 13.66 56.588 0.965 7.82 5.74 8.07
4/30/2023 4:15:00 AM 13.63 56.534 0.963 7.83 5.6 8.08
4/30/2023 4:30:00 AM 13.6 56.48 0.96 7.83 5.76 8.08
4/30/2023 4:45:00 AM 13.57 56.426 0.957 7.83 5.79 8.09
4/30/2023 5:00:00 AM 13.55 56.39 0.953 7.83 5.6 8.1
4/30/2023 5:15:00 AM 13.52 56.336 0.948 7.83 5.39 8.11
4/30/2023 5:30:00 AM 13.5 56.3 0.945 7.83 6.23 8.11
4/30/2023 5:45:00 AM 13.47 56.246 0.942 7.83 5.88 8.12
4/30/2023 6:00:00 AM 13.45 56.21 0.939 7.83 5.37 8.13
4/30/2023 6:15:00 AM 13.42 56.156 0.935 7.83 5.63 8.14
4/30/2023 6:30:00 AM 13.39 56.102 0.931 7.83 5.34 8.16
4/30/2023 6:45:00 AM 13.36 56.048 0.926 7.83 5.25 8.17
4/30/2023 7:00:00 AM 13.34 56.012 0.921 7.83 5.39 8.21
4/30/2023 7:15:00 AM 13.31 55.958 0.915 7.84 5.27 8.28
4/30/2023 7:30:00 AM 13.29 55.922 0.908 7.84 5.07 8.36
4/30/2023 7:45:00 AM 13.27 55.886 0.901 7.85 5.21 8.44
4/30/2023 8:00:00 AM 13.25 55.85 0.894 7.86 5.21 8.6
4/30/2023 8:15:00 AM 13.24 55.832 0.887 7.87 5.13 8.72
4/30/2023 8:30:00 AM 13.22 55.796 0.881 7.88 5.02 8.8
4/30/2023 8:45:00 AM 13.2 55.76 0.875 7.88 4.9 8.84
4/30/2023 9:00:00 AM 13.18 55.724 0.869 7.88 4.88 8.86
4/30/2023 9:15:00 AM 13.16 55.688 0.865 7.89 4.6 8.92
4/30/2023 9:30:00 AM 13.13 55.634 0.858 7.89 5.17 8.93
4/30/2023 9:45:00 AM 13.11 55.598 0.853 7.89 5.19 8.91
4/30/2023 10:00:00 AM 13.1 55.58 0.84 7.89 6.02 8.97
4/30/2023 10:15:00 AM 13.09 55.562 0.835 7.89 5.78 9.02
4/30/2023 10:30:00 AM 13.09 55.562 0.836 7.9 5.94 9.11
4/30/2023 10:45:00 AM 13.1 55.58 0.838 7.9 5.83 9.23
4/30/2023 11:00:00 AM 13.11 55.598 0.834 7.92 6.11 9.37
4/30/2023 11:15:00 AM 13.11 55.598 0.828 7.93 6.93 9.53
4/30/2023 11:30:00 AM 13.1 55.58 0.812 7.93 8.06 9.54
4/30/2023 11:45:00 AM 13.12 55.616 0.796 7.93 11.46 9.61
4/30/2023 12:00:00 PM 13.14 55.652 0.801 7.92 17.06 9.66
4/30/2023 12:15:00 PM 13.15 55.67 0.806 7.9 19.89 9.61
4/30/2023 12:30:00 PM 13.18 55.724 0.813 7.89 20.83 9.55
4/30/2023 12:45:00 PM 13.24 55.832 0.833 7.85 20.36 9.35
4/30/2023 1:00:00 PM 13.33 55.994 0.853 7.83 20.12 9.24
4/30/2023 1:15:00 PM 13.39 56.102 0.842 7.81 18.72 9.16
4/30/2023 1:30:00 PM 13.38 56.084 0.787 7.8 18.19 9.2
4/30/2023 1:45:00 PM 13.31 55.958 0.713 7.79 19.1 9.27
4/30/2023 2:00:00 PM 13.25 55.85 0.648 7.77 20.21 9.29
4/30/2023 2:15:00 PM 13.24 55.832 0.601 7.76 21.31 9.24
4/30/2023 2:30:00 PM 13.27 55.886 0.568 7.73 19.31 9.21
4/30/2023 2:45:00 PM 13.34 56.012 0.548 7.72 18.41 9.22
4/30/2023 3:00:00 PM 13.39 56.102 0.535 7.7 16.62 9.2
4/30/2023 3:15:00 PM 13.43 56.174 0.524 7.69 15.79 9.16
4/30/2023 3:30:00 PM 13.45 56.21 0.513 7.68 15.02 9.15
4/30/2023 3:45:00 PM 13.47 56.246 0.506 7.68 13.7 9.16
4/30/2023 4:00:00 PM 13.5 56.3 0.504 7.68 14.2 9.17
4/30/2023 4:15:00 PM 13.53 56.354 0.507 7.67 14.68 9.17
4/30/2023 4:30:00 PM 13.57 56.426 0.512 7.68 12.47 9.17
4/30/2023 4:45:00 PM 13.61 56.498 0.52 7.69 11.95 9.16
4/30/2023 5:00:00 PM 13.64 56.552 0.53 7.69 11.82 9.16
4/30/2023 5:15:00 PM 13.67 56.606 0.541 7.7 11.45 9.2
4/30/2023 5:30:00 PM 13.69 56.642 0.551 7.7 11.13 9.18
4/30/2023 5:45:00 PM 13.71 56.678 0.562 7.7 11.24 9.17
4/30/2023 6:00:00 PM 13.72 56.696 0.574 7.7 10.11 9.13
4/30/2023 6:15:00 PM 13.73 56.714 0.586 7.71 9.65 9.09
4/30/2023 6:30:00 PM 13.74 56.732 0.598 7.71 9.94 9.07
4/30/2023 6:45:00 PM 13.74 56.732 0.609 7.71 10.33 9
4/30/2023 7:00:00 PM 13.74 56.732 0.619 7.71 9.61 8.92
4/30/2023 7:15:00 PM 13.74 56.732 0.628 7.71 9.77 8.87
4/30/2023 7:30:00 PM 13.73 56.714 0.638 7.7 10.01 8.79
4/30/2023 7:45:00 PM 13.72 56.696 0.646 7.7 10.02 8.73
4/30/2023 8:00:00 PM 13.72 56.696 0.654 7.7 9.71 8.68
4/30/2023 8:15:00 PM 13.71 56.678 0.664 7.7 10.2 8.65
4/30/2023 8:30:00 PM 13.7 56.66 0.673 7.7 9.77 8.63
4/30/2023 8:45:00 PM 13.69 56.642 0.68 7.7 10.28 8.59
4/30/2023 9:00:00 PM 13.68 56.624 0.688 7.7 10.43 8.56
4/30/2023 9:15:00 PM 13.67 56.606 0.695 7.7 10.63 8.53
4/30/2023 9:30:00 PM 13.65 56.57 0.703 7.7 10.78 8.5
4/30/2023 9:45:00 PM 13.64 56.552 0.71 7.7 11.18 8.48
4/30/2023 10:00:00 PM 13.61 56.498 0.719 7.69 12.1 8.47
4/30/2023 10:15:00 PM 13.58 56.444 0.727 7.69 12.7 8.45
4/30/2023 10:30:00 PM 13.55 56.39 0.736 7.69 12.68 8.43
4/30/2023 10:45:00 PM 13.52 56.336 0.745 7.69 12.29 8.4
4/30/2023 11:00:00 PM 13.49 56.282 0.752 7.69 12.6 8.37
4/30/2023 11:15:00 PM 13.47 56.246 0.755 7.69 11.46 8.37
4/30/2023 11:30:00 PM 13.45 56.21 0.752 7.69 10.69 8.36
4/30/2023 11:45:00 PM 13.42 56.156 0.743 7.69 10.3 8.38
5/1/2023 12:00:00 AM 13.39 56.102 0.731 7.68 10.19 8.38
5/1/2023 12:15:00 AM 13.34 56.012 0.719 7.69 9.99 8.4
5/1/2023 12:30:00 AM 13.29 55.922 0.709 7.69 10.05 8.4
5/1/2023 12:45:00 AM 13.26 55.868 0.7 7.68 10.37 8.4
5/1/2023 1:00:00 AM 13.23 55.814 0.69 7.68 9.33 8.37
5/1/2023 1:15:00 AM 13.21 55.778 0.679 7.67 9.5 8.35
5/1/2023 1:30:00 AM 13.19 55.742 0.669 7.67 9.75 8.29
5/1/2023 1:45:00 AM 13.17 55.706 0.661 7.66 9.13 8.31
5/1/2023 2:00:00 AM 13.14 55.652 0.656 7.66 9.38 8.29
5/1/2023 2:15:00 AM 13.11 55.598 0.654 7.65 9.13 8.3
5/1/2023 2:30:00 AM 13.07 55.526 0.654 7.65 8.88 8.29
5/1/2023 2:45:00 AM 13.01 55.418 0.655 7.66 8.96 8.3
5/1/2023 3:00:00 AM 12.96 55.328 0.657 7.66 8.41 8.32
5/1/2023 3:15:00 AM 12.92 55.256 0.661 7.66 8.66 8.32
5/1/2023 3:30:00 AM 12.86 55.148 0.665 7.66 8.59 8.33
5/1/2023 3:45:00 AM 12.82 55.076 0.67 7.66 8.41 8.34
5/1/2023 4:00:00 AM 12.77 54.986 0.674 7.67 8.66 8.37
5/1/2023 4:15:00 AM 12.72 54.896 0.678 7.67 8.68 8.4
5/1/2023 4:30:00 AM 12.66 54.788 0.682 7.67 8.52 8.42
5/1/2023 4:45:00 AM 12.61 54.698 0.686 7.68 8.29 8.45
5/1/2023 5:00:00 AM 12.55 54.59 0.689 7.68 8 8.47
5/1/2023 5:15:00 AM 12.49 54.482 0.691 7.68 8.47 8.5
5/1/2023 5:30:00 AM 12.45 54.41 0.693 7.69 8.62 8.52
5/1/2023 5:45:00 AM 12.4 54.32 0.696 7.69 9 8.54
5/1/2023 6:00:00 AM 12.35 54.23 0.699 7.7 8.01 8.57
5/1/2023 6:15:00 AM 12.3 54.14 0.702 7.7 7.61 8.6
5/1/2023 6:30:00 AM 12.25 54.05 0.706 7.71 7.47 8.64
5/1/2023 6:45:00 AM 12.21 53.978 0.709 7.71 7.78 8.7
5/1/2023 7:00:00 AM 12.17 53.906 0.712 7.72 7.83 8.77
5/1/2023 7:15:00 AM 12.14 53.852 0.715 7.73 7.6 8.84
5/1/2023 7:30:00 AM 12.11 53.798 0.717 7.75 7.04 8.93
5/1/2023 7:45:00 AM 12.09 53.762 0.719 7.76 7.27 9.06
5/1/2023 8:00:00 AM 12.07 53.726 0.721 7.77 6.96 9.16
5/1/2023 8:15:00 AM 12.08 53.744 0.724 7.79 6.64 9.33
5/1/2023 8:30:00 AM 12.1 53.78 0.725 7.81 6.72 9.55
5/1/2023 8:45:00 AM 12.13 53.834 0.727 7.83 6.65 9.75
5/1/2023 9:00:00 AM 12.17 53.906 0.73 7.85 6.94 9.95
5/1/2023 9:15:00 AM 12.25 54.05 0.733 7.88 6.85 10.21
5/1/2023 9:30:00 AM 12.31 54.158 0.735 7.9 6.33 10.44
5/1/2023 9:45:00 AM 12.34 54.212 0.736 7.92 6.55 10.53
5/1/2023 10:00:00 AM 12.36 54.248 0.737 7.94 6.74 10.65
5/1/2023 10:15:00 AM 12.42 54.356 0.738 7.95 5.57 10.82
5/1/2023 10:30:00 AM 12.53 54.554 0.738 7.98 6.01 11.09
5/1/2023 10:45:00 AM 12.6 54.68 0.739 8 5.83 11.14
5/1/2023 11:00:00 AM 12.71 54.878 0.741 8.02 6 11.31
5/1/2023 11:15:00 AM 12.86 55.148 0.743 8.04 5.9 11.52
5/1/2023 11:30:00 AM 12.92 55.256 0.748 8.05 5.73 11.58
5/1/2023 11:45:00 AM 13.11 55.598 0.754 8.08 5.75 11.8
5/1/2023 12:00:00 PM 13.17 55.706 0.762 8.1 5.38 11.84
5/1/2023 12:15:00 PM 13.46 56.228 0.771 8.13 5.37 12.13
5/1/2023 12:30:00 PM 13.69 56.642 0.78 8.19 5.71 12.31
5/1/2023 12:45:00 PM 13.91 57.038 0.788 8.2 5.34 12.42
5/1/2023 1:00:00 PM 14.13 57.434 0.794 8.22 5.49 12.51
5/1/2023 1:15:00 PM 14.27 57.686 0.799 8.24 5.84 12.52
5/1/2023 1:30:00 PM 14.43 57.974 0.802 8.25 5.88 12.55
5/1/2023 1:45:00 PM 14.62 58.316 0.804 8.27 5.42 12.7
5/1/2023 2:00:00 PM 14.7 58.46 0.804 8.28 5.39 12.65
5/1/2023 2:15:00 PM 14.83 58.694 0.804 8.29 5.34 12.69
5/1/2023 2:30:00 PM 15 59 0.804 8.31 4.91 12.76
5/1/2023 2:45:00 PM 15.19 59.342 0.805 8.33 4.97 12.82
5/1/2023 3:00:00 PM 15.34 59.612 0.806 8.33 5.11 12.8
5/1/2023 3:15:00 PM 15.33 59.594 0.808 8.32 5.36 12.49
5/1/2023 3:30:00 PM 15.31 59.558 0.81 8.31 5.55 12.29
5/1/2023 3:45:00 PM 15.32 59.576 0.812 8.3 5.56 12.31
5/1/2023 4:00:00 PM 15.27 59.486 0.815 8.29 5.39 12.08
5/1/2023 4:15:00 PM 15.24 59.432 0.818 8.27 5.31 11.79
5/1/2023 4:30:00 PM 15.26 59.468 0.82 8.26 5.2 11.78
5/1/2023 4:45:00 PM 15.21 59.378 0.824 8.25 5.43 11.59
5/1/2023 5:00:00 PM 15.19 59.342 0.828 8.23 5.28 11.38
5/1/2023 5:15:00 PM 15.22 59.396 0.831 8.23 5.13 11.41
5/1/2023 5:30:00 PM 15.18 59.324 0.834 8.21 5.33 11.24
5/1/2023 5:45:00 PM 15.16 59.288 0.836 8.2 4.87 11.2
5/1/2023 6:00:00 PM 15.11 59.198 0.838 8.2 4.96 11.07
5/1/2023 6:15:00 PM 15.06 59.108 0.84 8.18 4.83 10.88
5/1/2023 6:30:00 PM 15.01 59.018 0.841 8.15 5.22 10.66
5/1/2023 6:45:00 PM 14.96 58.928 0.843 8.14 5.36 10.53
5/1/2023 7:00:00 PM 14.88 58.784 0.844 8.11 5.03 10.36
5/1/2023 7:15:00 PM 14.79 58.622 0.845 8.09 5.11 10.2
5/1/2023 7:30:00 PM 14.72 58.496 0.847 8.07 5.25 10.08
5/1/2023 7:45:00 PM 14.65 58.37 0.848 8.05 4.98 9.89
5/1/2023 8:00:00 PM 14.57 58.226 0.85 8.03 5.3 9.72
5/1/2023 8:15:00 PM 14.5 58.1 0.851 8.01 5.71 9.54
5/1/2023 8:30:00 PM 14.43 57.974 0.852 7.98 5.85 9.38
5/1/2023 8:45:00 PM 14.35 57.83 0.852 7.97 5.88 9.24
5/1/2023 9:00:00 PM 14.25 57.65 0.85 7.95 5.79 9.12
5/1/2023 9:15:00 PM 14.17 57.506 0.849 7.94 6.09 9.06
5/1/2023 9:30:00 PM 14.09 57.362 0.848 7.93 5.9 8.98
5/1/2023 9:45:00 PM 14 57.2 0.847 7.92 5.97 8.91
5/1/2023 10:00:00 PM 13.94 57.092 0.848 7.91 6.12 8.84
5/1/2023 10:15:00 PM 13.86 56.948 0.848 7.89 5.96 8.77
5/1/2023 10:30:00 PM 13.79 56.822 0.847 7.88 6.11 8.71
5/1/2023 10:45:00 PM 13.71 56.678 0.847 7.88 6.48 8.67
5/1/2023 11:00:00 PM 13.63 56.534 0.847 7.86 5.94 8.61
5/1/2023 11:15:00 PM 13.55 56.39 0.848 7.85 6.17 8.57
5/1/2023 11:30:00 PM 13.47 56.246 0.849 7.84 6.12 8.52
5/1/2023 11:45:00 PM 13.39 56.102 0.851 7.83 6.5 8.5
5/2/2023 12:00:00 AM 13.32 55.976 0.853 7.82 6.44 8.47
5/2/2023 12:15:00 AM 13.25 55.85 0.855 7.81 7.53 8.43
5/2/2023 12:30:00 AM 13.18 55.724 0.856 7.8 6.64 8.42
5/2/2023 12:45:00 AM 13.11 55.598 0.858 7.79 7.08 8.41
5/2/2023 1:00:00 AM 13.04 55.472 0.859 7.78 6.64 8.41
5/2/2023 1:15:00 AM 12.97 55.346 0.861 7.78 7.01 8.41
5/2/2023 1:30:00 AM 12.91 55.238 0.862 7.78 6.73 8.41
5/2/2023 1:45:00 AM 12.85 55.13 0.864 7.77 6.44 8.42
5/2/2023 2:00:00 AM 12.79 55.022 0.865 7.77 6.69 8.41
5/2/2023 2:15:00 AM 12.75 54.95 0.864 7.77 6.61 8.42
5/2/2023 2:30:00 AM 12.7 54.86 0.862 7.77 6.51 8.41
5/2/2023 2:45:00 AM 12.66 54.788 0.859 7.77 6.43 8.41
5/2/2023 3:00:00 AM 12.61 54.698 0.855 7.77 6.28 8.42
5/2/2023 3:15:00 AM 12.57 54.626 0.851 7.77 6.49 8.44
5/2/2023 3:30:00 AM 12.51 54.518 0.846 7.77 6.5 8.46
5/2/2023 3:45:00 AM 12.46 54.428 0.84 7.77 6.35 8.48
5/2/2023 4:00:00 AM 12.41 54.338 0.835 7.77 6.26 8.48
5/2/2023 4:15:00 AM 12.36 54.248 0.829 7.77 6.47 8.49
5/2/2023 4:30:00 AM 12.31 54.158 0.824 7.77 6.21 8.49
5/2/2023 4:45:00 AM 12.26 54.068 0.818 7.77 6.38 8.49
5/2/2023 5:00:00 AM 12.21 53.978 0.812 7.77 6.99 8.47
5/2/2023 5:15:00 AM 12.16 53.888 0.806 7.76 6.71 8.46
5/2/2023 5:30:00 AM 12.12 53.816 0.798 7.76 6.63 8.45
5/2/2023 5:45:00 AM 12.08 53.744 0.791 7.75 6.82 8.43
5/2/2023 6:00:00 AM 12.04 53.672 0.783 7.75 7 8.42
5/2/2023 6:15:00 AM 12 53.6 0.775 7.74 6.96 8.42
5/2/2023 6:30:00 AM 11.97 53.546 0.768 7.74 7.12 8.44
5/2/2023 6:45:00 AM 11.93 53.474 0.763 7.74 6.67 8.47
5/2/2023 7:00:00 AM 11.9 53.42 0.76 7.75 6.74 8.56
5/2/2023 7:15:00 AM 11.88 53.384 0.759 7.76 6.61 8.69
5/2/2023 7:30:00 AM 11.85 53.33 0.758 7.77 6.17 8.86
5/2/2023 7:45:00 AM 11.85 53.33 0.758 7.79 6.27 9.09
5/2/2023 8:00:00 AM 11.85 53.33 0.758 7.81 6.56 9.31
5/2/2023 8:15:00 AM 11.85 53.33 0.759 7.84 6.48 9.53
5/2/2023 8:30:00 AM 11.87 53.366 0.761 7.86 6.07 9.75
5/2/2023 8:45:00 AM 11.89 53.402 0.763 7.88 5.84 9.97
5/2/2023 9:00:00 AM 11.94 53.492 0.766 7.91 5.9 10.26
5/2/2023 9:15:00 AM 12 53.6 0.769 7.94 5.86 10.55
5/2/2023 9:30:00 AM 12.06 53.708 0.773 7.97 5.79 10.79
5/2/2023 9:45:00 AM 12.13 53.834 0.777 7.99 5.82 11.01
5/2/2023 10:00:00 AM 12.19 53.942 0.782 8.01 5.27 11.19
5/2/2023 10:15:00 AM 12.28 54.104 0.786 8.04 5.65 11.38
5/2/2023 10:30:00 AM 12.33 54.194 0.789 8.05 5.36 11.45
5/2/2023 10:45:00 AM 12.41 54.338 0.792 8.07 5.5 11.65
5/2/2023 11:00:00 AM 12.51 54.518 0.794 8.1 5.41 11.88
5/2/2023 11:15:00 AM 12.6 54.68 0.797 8.12 5.66 12.09
5/2/2023 11:30:00 AM 12.68 54.824 0.8 8.15 5.67 12.23
5/2/2023 11:45:00 AM 12.77 54.986 0.806 8.17 5.44 12.37
5/2/2023 12:00:00 PM 12.85 55.13 0.813 8.19 5.23 12.46
5/2/2023 12:15:00 PM 12.93 55.274 0.822 8.2 5.26 12.48
5/2/2023 12:30:00 PM 13.01 55.418 0.833 8.21 5.22 12.5
5/2/2023 12:45:00 PM 13.1 55.58 0.846 8.22 5.39 12.54
5/2/2023 1:00:00 PM 13.18 55.724 0.858 8.23 5.2 12.56
5/2/2023 1:15:00 PM 13.28 55.904 0.868 8.25 5.43 12.66
5/2/2023 1:30:00 PM 13.38 56.084 0.875 8.27 4.86 12.67
5/2/2023 1:45:00 PM 13.46 56.228 0.879 8.27 5.05 12.68
5/2/2023 2:00:00 PM 13.51 56.318 0.881 8.27 5 12.62
5/2/2023 2:15:00 PM 13.54 56.372 0.882 8.27 5.3 12.52
5/2/2023 2:30:00 PM 13.55 56.39 0.882 8.26 4.76 12.36
5/2/2023 2:45:00 PM 13.56 56.408 0.882 8.26 5.04 12.3
5/2/2023 3:00:00 PM 13.6 56.48 0.883 8.26 5.24 12.33
5/2/2023 3:15:00 PM 13.67 56.606 0.885 8.27 4.98 12.4
5/2/2023 3:30:00 PM 13.75 56.75 0.889 8.28 4.96 12.49
5/2/2023 3:45:00 PM 13.84 56.912 0.895 8.3 5.13 12.63
5/2/2023 4:00:00 PM 13.89 57.002 0.901 8.3 5.14 12.59
5/2/2023 4:15:00 PM 13.92 57.056 0.908 8.3 4.73 12.49
5/2/2023 4:30:00 PM 13.95 57.11 0.912 8.3 5.31 12.43
5/2/2023 4:45:00 PM 13.93 57.074 0.916 8.28 5.2 12.17
5/2/2023 5:00:00 PM 13.9 57.02 0.918 8.25 5.38 11.87
5/2/2023 5:15:00 PM 13.86 56.948 0.921 8.23 5.12 11.6
5/2/2023 5:30:00 PM 13.82 56.876 0.923 8.21 5.26 11.37
5/2/2023 5:45:00 PM 13.79 56.822 0.924 8.18 4.96 11.18
5/2/2023 6:00:00 PM 13.77 56.786 0.923 8.17 5.17 11.09
5/2/2023 6:15:00 PM 13.74 56.732 0.918 8.16 4.72 11.04
5/2/2023 6:30:00 PM 13.71 56.678 0.911 8.16 5.57 10.98
5/2/2023 6:45:00 PM 13.66 56.588 0.903 8.15 4.97 10.9
5/2/2023 7:00:00 PM 13.6 56.48 0.896 8.14 4.92 10.79
5/2/2023 7:15:00 PM 13.54 56.372 0.891 8.12 5.11 10.66
5/2/2023 7:30:00 PM 13.5 56.3 0.889 8.1 5.13 10.5
5/2/2023 7:45:00 PM 13.45 56.21 0.889 8.09 5.07 10.34
5/2/2023 8:00:00 PM 13.41 56.138 0.891 8.06 5.36 10.16
5/2/2023 8:15:00 PM 13.37 56.066 0.892 8.04 5.26 9.99
5/2/2023 8:30:00 PM 13.32 55.976 0.893 8.03 5.69 9.84
5/2/2023 8:45:00 PM 13.26 55.868 0.893 8.01 5.25 9.7
5/2/2023 9:00:00 PM 13.21 55.778 0.894 7.99 5.54 9.56
5/2/2023 9:15:00 PM 13.14 55.652 0.895 7.97 5.64 9.46
5/2/2023 9:30:00 PM 13.08 55.544 0.897 7.96 5.54 9.36
5/2/2023 9:45:00 PM 13.02 55.436 0.899 7.95 5.62 9.27
5/2/2023 10:00:00 PM 12.97 55.346 0.901 7.94 5.76 9.21
5/2/2023 10:15:00 PM 12.93 55.274 0.904 7.93 5.6 9.15
5/2/2023 10:30:00 PM 12.88 55.184 0.906 7.92 5.98 9.08
5/2/2023 10:45:00 PM 12.84 55.112 0.907 7.91 6 9.04
5/2/2023 11:00:00 PM 12.79 55.022 0.909 7.9 5.56 8.98
5/2/2023 11:15:00 PM 12.74 54.932 0.911 7.89 6.07 8.93
5/2/2023 11:30:00 PM 12.7 54.86 0.914 7.88 6.12 8.87
5/2/2023 11:45:00 PM 12.66 54.788 0.916 7.87 5.99 8.82
5/3/2023 12:00:00 AM 12.62 54.716 0.918 7.87 6.29 8.77
5/3/2023 12:15:00 AM 12.57 54.626 0.92 7.86 6 8.73
5/3/2023 12:30:00 AM 12.53 54.554 0.92 7.85 5.98 8.68
5/3/2023 12:45:00 AM 12.49 54.482 0.921 7.84 5.73 8.65
5/3/2023 1:00:00 AM 12.45 54.41 0.923 7.84 6.54 8.63
5/3/2023 1:15:00 AM 12.42 54.356 0.925 7.83 6.21 8.61
5/3/2023 1:30:00 AM 12.38 54.284 0.926 7.83 6.37 8.59
5/3/2023 1:45:00 AM 12.35 54.23 0.926 7.82 5.8 8.59
5/3/2023 2:00:00 AM 12.32 54.176 0.927 7.82 6.71 8.59
5/3/2023 2:15:00 AM 12.29 54.122 0.927 7.82 5.97 8.58
5/3/2023 2:30:00 AM 12.26 54.068 0.928 7.82 6.22 8.57
5/3/2023 2:45:00 AM 12.23 54.014 0.928 7.82 6.09 8.58
5/3/2023 3:00:00 AM 12.19 53.942 0.928 7.82 5.84 8.58
5/3/2023 3:15:00 AM 12.16 53.888 0.928 7.82 5.85 8.59
5/3/2023 3:30:00 AM 12.13 53.834 0.928 7.81 5.96 8.57
5/3/2023 3:45:00 AM 12.09 53.762 0.928 7.81 6.28 8.6
5/3/2023 4:00:00 AM 12.05 53.69 0.926 7.81 6.22 8.61
5/3/2023 4:15:00 AM 12.01 53.618 0.924 7.81 6.14 8.62
5/3/2023 4:30:00 AM 11.97 53.546 0.921 7.81 6.1 8.62
5/3/2023 4:45:00 AM 11.94 53.492 0.918 7.81 6.31 8.64
5/3/2023 5:00:00 AM 11.9 53.42 0.915 7.81 5.98 8.65
5/3/2023 5:15:00 AM 11.87 53.366 0.912 7.82 5.48 8.67
5/3/2023 5:30:00 AM 11.83 53.294 0.909 7.82 5.82 8.68
5/3/2023 5:45:00 AM 11.8 53.24 0.908 7.82 6.08 8.69
5/3/2023 6:00:00 AM 11.78 53.204 0.91 7.82 5.7 8.71
5/3/2023 6:15:00 AM 11.76 53.168 0.912 7.82 5.74 8.72
5/3/2023 6:30:00 AM 11.74 53.132 0.914 7.83 5.72 8.76
5/3/2023 6:45:00 AM 11.73 53.114 0.913 7.83 5.87 8.84
5/3/2023 7:00:00 AM 11.71 53.078 0.907 7.84 6.15 8.92
5/3/2023 7:15:00 AM 11.69 53.042 0.898 7.85 5.68 9
5/3/2023 7:30:00 AM 11.66 52.988 0.887 7.85 5.74 9.09
5/3/2023 7:45:00 AM 11.64 52.952 0.877 7.86 5.72 9.19
5/3/2023 8:00:00 AM 11.62 52.916 0.867 7.87 5.63 9.29
5/3/2023 8:15:00 AM 11.6 52.88 0.86 7.88 5.29 9.45
5/3/2023 8:30:00 AM 11.61 52.898 0.855 7.9 5.55 9.67
5/3/2023 8:45:00 AM 11.64 52.952 0.853 7.93 5.25 10
5/3/2023 9:00:00 AM 11.66 52.988 0.853 7.95 5.37 10.23
5/3/2023 9:15:00 AM 11.71 53.078 0.856 7.97 5.43 10.45
5/3/2023 9:30:00 AM 11.77 53.186 0.858 7.99 5.55 10.72
5/3/2023 9:45:00 AM 11.84 53.312 0.86 8.02 5.45 11.03
5/3/2023 10:00:00 AM 11.93 53.474 0.862 8.05 5.46 11.27
5/3/2023 10:15:00 AM 12 53.6 0.865 8.07 5.66 11.42
5/3/2023 10:30:00 AM 12.08 53.744 0.868 8.08 5.54 11.56
5/3/2023 10:45:00 AM 12.16 53.888 0.871 8.1 5.99 11.71
5/3/2023 11:00:00 AM 12.21 53.978 0.873 8.11 5.69 11.72
5/3/2023 11:15:00 AM 12.24 54.032 0.874 8.12 5.27 11.7
5/3/2023 11:30:00 AM 12.28 54.104 0.876 8.12 5.38 11.69
5/3/2023 11:45:00 AM 12.33 54.194 0.878 8.13 5.34 11.85
5/3/2023 12:00:00 PM 12.37 54.266 0.882 8.14 5.07 11.89
5/3/2023 12:15:00 PM 12.42 54.356 0.888 8.15 5.24 11.94
5/3/2023 12:30:00 PM 12.52 54.536 0.898 8.17 5.21 12.11
5/3/2023 12:45:00 PM 12.61 54.698 0.91 8.19 5.13 12.19
5/3/2023 1:00:00 PM 12.71 54.878 0.922 8.2 5.05 12.25
5/3/2023 1:15:00 PM 12.88 55.184 0.934 8.23 4.79 12.55
5/3/2023 1:30:00 PM 13.11 55.598 0.944 8.28 5.18 12.81
5/3/2023 1:45:00 PM 13.29 55.922 0.951 8.3 5.42 12.93
5/3/2023 2:00:00 PM 13.46 56.228 0.953 8.31 5.06 12.94
5/3/2023 2:15:00 PM 13.72 56.696 0.953 8.34 5.52 13.16
5/3/2023 2:30:00 PM 13.9 57.02 0.951 8.36 5.55 13.31
5/3/2023 2:45:00 PM 13.93 57.074 0.95 8.36 5.3 13.03
5/3/2023 3:00:00 PM 13.96 57.128 0.948 8.35 5.48 12.85
5/3/2023 3:15:00 PM 14.04 57.272 0.948 8.36 5.1 13.01
5/3/2023 3:30:00 PM 14.11 57.398 0.949 8.37 5.2 13.1
5/3/2023 3:45:00 PM 14.22 57.596 0.952 8.37 5.4 13.14
5/3/2023 4:00:00 PM 14.27 57.686 0.955 8.37 5.43 13.01
5/3/2023 4:15:00 PM 14.27 57.686 0.959 8.35 5.74 12.73
5/3/2023 4:30:00 PM 14.33 57.794 0.962 8.35 5.32 12.62
5/3/2023 4:45:00 PM 14.34 57.812 0.963 8.35 5.17 12.6
5/3/2023 5:00:00 PM 14.31 57.758 0.962 8.33 5.01 12.44
5/3/2023 5:15:00 PM 14.26 57.668 0.957 8.32 5.25 12.33
5/3/2023 5:30:00 PM 14.24 57.632 0.955 8.32 5.32 12.27
5/3/2023 5:45:00 PM 14.19 57.542 0.949 8.32 5.15 12.19
5/3/2023 6:00:00 PM 14.15 57.47 0.942 8.3 5.39 12.02
5/3/2023 6:15:00 PM 14.12 57.416 0.937 8.29 5.36 11.87
5/3/2023 6:30:00 PM 14.12 57.416 0.933 8.28 5.21 11.73
5/3/2023 6:45:00 PM 14.1 57.38 0.93 8.26 4.91 11.56
5/3/2023 7:00:00 PM 14.07 57.326 0.929 8.25 5.36 11.39
5/3/2023 7:15:00 PM 14.02 57.236 0.929 8.23 5.07 11.21
5/3/2023 7:30:00 PM 13.98 57.164 0.93 8.21 5.16 11.04
5/3/2023 7:45:00 PM 13.94 57.092 0.932 8.19 5.11 10.86
5/3/2023 8:00:00 PM 13.9 57.02 0.934 8.16 5.23 10.64
5/3/2023 8:15:00 PM 13.85 56.93 0.935 8.14 5.99 10.41
5/3/2023 8:30:00 PM 13.8 56.84 0.935 8.11 5.46 10.21
5/3/2023 8:45:00 PM 13.73 56.714 0.935 8.09 5.79 10.02
5/3/2023 9:00:00 PM 13.66 56.588 0.934 8.07 5.74 9.87
5/3/2023 9:15:00 PM 13.58 56.444 0.933 8.05 6.41 9.74
5/3/2023 9:30:00 PM 13.49 56.282 0.933 8.04 5.95 9.65
5/3/2023 9:45:00 PM 13.4 56.12 0.933 8.02 5.86 9.55
5/3/2023 10:00:00 PM 13.32 55.976 0.934 8.01 5.87 9.47
5/3/2023 10:15:00 PM 13.24 55.832 0.936 8 6.32 9.39
5/3/2023 10:30:00 PM 13.16 55.688 0.938 7.98 6.8 9.31
5/3/2023 10:45:00 PM 13.09 55.562 0.94 7.97 6.84 9.22
5/3/2023 11:00:00 PM 13.02 55.436 0.942 7.96 6.6 9.16
5/3/2023 11:15:00 PM 12.95 55.31 0.945 7.95 6 9.09
5/3/2023 11:30:00 PM 12.87 55.166 0.948 7.93 6.16 9.02
5/3/2023 11:45:00 PM 12.8 55.04 0.952 7.92 6.7 8.95
5/4/2023 12:00:00 AM 12.73 54.914 0.955 7.91 6.83 8.88
5/4/2023 12:15:00 AM 12.66 54.788 0.958 7.89 6.02 8.83
5/4/2023 12:30:00 AM 12.59 54.662 0.961 7.88 6.2 8.77
5/4/2023 12:45:00 AM 12.52 54.536 0.964 7.87 7.3 8.74
5/4/2023 1:00:00 AM 12.45 54.41 0.967 7.86 6.09 8.69
5/4/2023 1:15:00 AM 12.39 54.302 0.97 7.86 6.41 8.68
5/4/2023 1:30:00 AM 12.32 54.176 0.971 7.85 6.07 8.66
5/4/2023 1:45:00 AM 12.25 54.05 0.973 7.84 5.98 8.65
5/4/2023 2:00:00 AM 12.19 53.942 0.974 7.84 6.18 8.64
5/4/2023 2:15:00 AM 12.12 53.816 0.974 7.83 6.73 8.64
5/4/2023 2:30:00 AM 12.05 53.69 0.974 7.83 6.11 8.64
5/4/2023 2:45:00 AM 11.98 53.564 0.974 7.83 6.75 8.65
5/4/2023 3:00:00 AM 11.92 53.456 0.974 7.82 6.35 8.66
5/4/2023 3:15:00 AM 11.86 53.348 0.973 7.82 6.19 8.67
5/4/2023 3:30:00 AM 11.8 53.24 0.972 7.82 6.62 8.68
5/4/2023 3:45:00 AM 11.73 53.114 0.969 7.82 6.89 8.69
5/4/2023 4:00:00 AM 11.67 53.006 0.966 7.82 7.1 8.71
5/4/2023 4:15:00 AM 11.61 52.898 0.962 7.82 6.36 8.71
5/4/2023 4:30:00 AM 11.54 52.772 0.958 7.82 7.14 8.75
5/4/2023 4:45:00 AM 11.48 52.664 0.952 7.83 7.87 8.77
5/4/2023 5:00:00 AM 11.42 52.556 0.946 7.83 7.7 8.8
5/4/2023 5:15:00 AM 11.36 52.448 0.94 7.83 6.88 8.82
5/4/2023 5:30:00 AM 11.29 52.322 0.933 7.83 7.41 8.85
5/4/2023 5:45:00 AM 11.23 52.214 0.925 7.83 7.46 8.86
5/4/2023 6:00:00 AM 11.16 52.088 0.918 7.83 6.77 8.9
5/4/2023 6:15:00 AM 11.1 51.98 0.909 7.83 6.38 8.96
5/4/2023 6:30:00 AM 11.03 51.854 0.9 7.84 6.62 9.02
5/4/2023 6:45:00 AM 10.97 51.746 0.891 7.84 6.43 9.09
5/4/2023 7:00:00 AM 10.92 51.656 0.883 7.85 6.19 9.19
5/4/2023 7:15:00 AM 10.88 51.584 0.876 7.86 6.04 9.3
5/4/2023 7:30:00 AM 10.85 51.53 0.869 7.86 6.6 9.42
5/4/2023 7:45:00 AM 10.84 51.512 0.864 7.88 6 9.55
5/4/2023 8:00:00 AM 10.84 51.512 0.859 7.89 6.11 9.77
5/4/2023 8:15:00 AM 10.86 51.548 0.855 7.91 6.09 9.96
5/4/2023 8:30:00 AM 10.92 51.656 0.851 7.94 6.15 10.31
5/4/2023 8:45:00 AM 11 51.8 0.847 7.97 6.25 10.63
5/4/2023 9:00:00 AM 11.07 51.926 0.844 8 6.04 10.83
5/4/2023 9:15:00 AM 11.16 52.088 0.842 8.03 6.34 11.07
5/4/2023 9:30:00 AM 11.28 52.304 0.841 8.06 6.57 11.32
5/4/2023 9:45:00 AM 11.44 52.592 0.842 8.09 5.9 11.57
5/4/2023 10:00:00 AM 11.58 52.844 0.844 8.11 5.88 11.78
5/4/2023 10:15:00 AM 11.69 53.042 0.846 8.13 6.08 11.95
5/4/2023 10:30:00 AM 11.87 53.366 0.847 8.16 6.7 12.2
5/4/2023 10:45:00 AM 12.01 53.618 0.848 8.18 6.51 12.36
5/4/2023 11:00:00 AM 12.21 53.978 0.847 8.2 6.2 12.57
5/4/2023 11:15:00 AM 12.36 54.248 0.845 8.22 5.93 12.71
5/4/2023 11:30:00 AM 12.45 54.41 0.844 8.23 5.95 12.78
5/4/2023 11:45:00 AM 12.58 54.644 0.843 8.25 5.49 12.87
5/4/2023 12:00:00 PM 12.71 54.878 0.845 8.27 5.55 12.95
5/4/2023 12:15:00 PM 12.81 55.058 0.849 8.28 5.4 13
5/4/2023 12:30:00 PM 12.92 55.256 0.857 8.29 7.8 13.03
5/4/2023 12:45:00 PM 13.1 55.58 0.867 8.31 5.39 13.18
5/4/2023 1:00:00 PM 13.47 56.246 0.878 8.34 5.62 13.41
5/4/2023 1:15:00 PM 13.66 56.588 0.889 8.35 5.51 13.45
5/4/2023 1:30:00 PM 13.85 56.93 0.9 8.37 5.06 13.48
5/4/2023 1:45:00 PM 14.07 57.326 0.91 8.39 5.53 13.47
5/4/2023 2:00:00 PM 14.15 57.47 0.919 8.37 5.58 13.15
5/4/2023 2:15:00 PM 14.26 57.668 0.927 8.36 6.06 13
5/4/2023 2:30:00 PM 14.39 57.902 0.934 8.37 5.38 13.11
5/4/2023 2:45:00 PM 14.67 58.406 0.941 8.39 5.84 13.26
5/4/2023 3:00:00 PM 14.87 58.766 0.944 8.4 5.27 13.35
5/4/2023 3:15:00 PM 15.01 59.018 0.945 8.41 5.74 13.29
5/4/2023 3:30:00 PM 15.21 59.378 0.942 8.42 5.91 13.37
5/4/2023 3:45:00 PM 15.32 59.576 0.938 8.43 5.3 13.32
5/4/2023 4:00:00 PM 15.33 59.594 0.936 8.42 5.19 13.07
5/4/2023 4:15:00 PM 15.32 59.576 0.936 8.4 5.37 12.74
5/4/2023 4:30:00 PM 15.31 59.558 0.938 8.38 5.41 12.53
5/4/2023 4:45:00 PM 15.31 59.558 0.943 8.37 5.55 12.45
5/4/2023 5:00:00 PM 15.33 59.594 0.949 8.36 5.01 12.34
5/4/2023 5:15:00 PM 15.34 59.612 0.957 8.34 4.92 12.17
5/4/2023 5:30:00 PM 15.37 59.666 0.963 8.32 5.16 11.97
5/4/2023 5:45:00 PM 15.41 59.738 0.967 8.32 5.06 11.86
5/4/2023 6:00:00 PM 15.42 59.756 0.967 8.31 5.2 11.78
5/4/2023 6:15:00 PM 15.4 59.72 0.963 8.3 5.43 11.61
5/4/2023 6:30:00 PM 15.36 59.648 0.957 8.28 5.51 11.47
5/4/2023 6:45:00 PM 15.28 59.504 0.949 8.26 5.25 11.23
5/4/2023 7:00:00 PM 15.18 59.324 0.942 8.23 4.85 10.96
5/4/2023 7:15:00 PM 15.08 59.144 0.936 8.21 5.37 10.73
5/4/2023 7:30:00 PM 15 59 0.932 8.18 5.26 10.5
5/4/2023 7:45:00 PM 14.92 58.856 0.929 8.15 5.41 10.26
5/4/2023 8:00:00 PM 14.86 58.748 0.927 8.12 5.08 10.03
5/4/2023 8:15:00 PM 14.81 58.658 0.925 8.1 5.72 9.84
5/4/2023 8:30:00 PM 14.77 58.586 0.925 8.08 5.93 9.67
5/4/2023 8:45:00 PM 14.73 58.514 0.925 8.06 5.79 9.54
5/4/2023 9:00:00 PM 14.7 58.46 0.926 8.04 6.02 9.41
5/4/2023 9:15:00 PM 14.66 58.388 0.927 8.03 6.02 9.33
5/4/2023 9:30:00 PM 14.62 58.316 0.928 8.02 6.04 9.21
5/4/2023 9:45:00 PM 14.57 58.226 0.929 8 5.85 9.15
5/4/2023 10:00:00 PM 14.51 58.118 0.93 7.99 5.54 9.07
5/4/2023 10:15:00 PM 14.44 57.992 0.932 7.98 6.15 9
5/4/2023 10:30:00 PM 14.37 57.866 0.934 7.96 6.19 8.91
5/4/2023 10:45:00 PM 14.3 57.74 0.936 7.95 5.85 8.82
5/4/2023 11:00:00 PM 14.22 57.596 0.939 7.93 6.26 8.75
5/4/2023 11:15:00 PM 14.14 57.452 0.943 7.92 6.06 8.66
5/4/2023 11:30:00 PM 14.07 57.326 0.948 7.91 6.82 8.59
5/4/2023 11:45:00 PM 14 57.2 0.953 7.9 6.31 8.52
5/5/2023 12:00:00 AM 13.93 57.074 0.959 7.89 6.29 8.45
5/5/2023 12:15:00 AM 13.87 56.966 0.964 7.88 6.03 8.4
5/5/2023 12:30:00 AM 13.82 56.876 0.969 7.87 6.09 8.36
5/5/2023 12:45:00 AM 13.77 56.786 0.974 7.86 6.19 8.3
5/5/2023 1:00:00 AM 13.71 56.678 0.979 7.85 6.15 8.28
5/5/2023 1:15:00 AM 13.65 56.57 0.982 7.85 6.39 8.28
5/5/2023 1:30:00 AM 13.58 56.444 0.985 7.85 6.15 8.28
5/5/2023 1:45:00 AM 13.5 56.3 0.987 7.85 6.12 8.28
5/5/2023 2:00:00 AM 13.43 56.174 0.99 7.84 6.01 8.28
5/5/2023 2:15:00 AM 13.36 56.048 0.993 7.84 5.62 8.3
5/5/2023 2:30:00 AM 13.29 55.922 0.996 7.84 5.76 8.3
5/5/2023 2:45:00 AM 13.22 55.796 0.998 7.84 6.13 8.31
5/5/2023 3:00:00 AM 13.15 55.67 1 7.84 6.24 8.33
5/5/2023 3:15:00 AM 13.08 55.544 1.001 7.83 6.42 8.34
5/5/2023 3:30:00 AM 13.02 55.436 1.002 7.83 6.68 8.36
5/5/2023 3:45:00 AM 12.95 55.31 1.002 7.83 6 8.37
5/5/2023 4:00:00 AM 12.9 55.22 1.002 7.82 5.59 8.39
5/5/2023 4:15:00 AM 12.84 55.112 1 7.82 6.01 8.39
5/5/2023 4:30:00 AM 12.78 55.004 0.997 7.82 6.5 8.41
5/5/2023 4:45:00 AM 12.73 54.914 0.993 7.82 5.78 8.43
5/5/2023 5:00:00 AM 12.67 54.806 0.988 7.82 6.04 8.47
5/5/2023 5:15:00 AM 12.62 54.716 0.983 7.82 5.99 8.49
5/5/2023 5:30:00 AM 12.55 54.59 0.977 7.82 6 8.52
5/5/2023 5:45:00 AM 12.48 54.464 0.97 7.82 6.02 8.55
5/5/2023 6:00:00 AM 12.41 54.338 0.963 7.82 6.29 8.58
5/5/2023 6:15:00 AM 12.33 54.194 0.956 7.82 5.97 8.61
5/5/2023 6:30:00 AM 12.26 54.068 0.948 7.82 5.99 8.68
5/5/2023 6:45:00 AM 12.19 53.942 0.939 7.83 5.64 8.76
5/5/2023 7:00:00 AM 12.12 53.816 0.931 7.83 5.86 8.84
5/5/2023 7:15:00 AM 12.06 53.708 0.923 7.84 5.81 8.95
5/5/2023 7:30:00 AM 12.03 53.654 0.915 7.84 5.59 9.11
5/5/2023 7:45:00 AM 12.01 53.618 0.908 7.86 5.69 9.29
5/5/2023 8:00:00 AM 12.01 53.618 0.902 7.88 5.94 9.51
5/5/2023 8:15:00 AM 12.03 53.654 0.897 7.9 5.85 9.86
5/5/2023 8:30:00 AM 12.1 53.78 0.891 7.93 5.45 10.27
5/5/2023 8:45:00 AM 12.16 53.888 0.886 7.97 5.3 10.58
5/5/2023 9:00:00 AM 12.22 53.996 0.882 8 5.22 10.85
5/5/2023 9:15:00 AM 12.27 54.086 0.879 8.02 5.43 11.07
5/5/2023 9:30:00 AM 12.32 54.176 0.878 8.04 5.28 11.24
5/5/2023 9:45:00 AM 12.41 54.338 0.878 8.07 5.77 11.44
5/5/2023 10:00:00 AM 12.55 54.59 0.88 8.09 5.38 11.71
5/5/2023 10:15:00 AM 12.71 54.878 0.881 8.12 5.4 12
5/5/2023 10:30:00 AM 12.91 55.238 0.883 8.15 5.76 12.2
5/5/2023 10:45:00 AM 13.11 55.598 0.884 8.19 5.97 12.53
5/5/2023 11:00:00 AM 13.31 55.958 0.884 8.22 5.27 12.79
5/5/2023 11:15:00 AM 13.47 56.246 0.884 8.24 5.34 12.93
5/5/2023 11:30:00 AM 13.44 56.192 0.885 8.24 5.35 12.7
5/5/2023 11:45:00 AM 13.56 56.408 0.885 8.24 5.54 12.7
5/5/2023 12:00:00 PM 13.78 56.804 0.885 8.27 5.31 13.01
5/5/2023 12:15:00 PM 13.93 57.074 0.886 8.29 5.21 13.1
5/5/2023 12:30:00 PM 14.2 57.56 0.89 8.31 4.78 13.31
5/5/2023 12:45:00 PM 14.38 57.884 0.896 8.34 5.26 13.43
5/5/2023 1:00:00 PM 14.66 58.388 0.906 8.38 4.87 13.64
5/5/2023 1:15:00 PM 14.73 58.514 0.918 8.37 5.09 13.44
5/5/2023 1:30:00 PM 14.82 58.676 0.932 8.37 5.04 13.25
5/5/2023 1:45:00 PM 14.94 58.892 0.947 8.38 4.97 13.15
5/5/2023 2:00:00 PM 15.13 59.234 0.962 8.39 5.2 13.26
5/5/2023 2:15:00 PM 15.22 59.396 0.975 8.38 5.5 13.11
5/5/2023 2:30:00 PM 15.35 59.63 0.984 8.39 4.95 13.05
5/5/2023 2:45:00 PM 15.46 59.828 0.988 8.39 5.03 13.08
5/5/2023 3:00:00 PM 15.54 59.972 0.987 8.4 4.97 13.06
5/5/2023 3:15:00 PM 15.67 60.206 0.984 8.41 4.96 13.12
5/5/2023 3:30:00 PM 15.79 60.422 0.979 8.42 5.85 13.21
5/5/2023 3:45:00 PM 15.87 60.566 0.975 8.42 5.57 13.18
5/5/2023 4:00:00 PM 15.96 60.728 0.973 8.43 5.21 13.15
5/5/2023 4:15:00 PM 16.04 60.872 0.972 8.43 4.98 13.11
5/5/2023 4:30:00 PM 16.15 61.07 0.971 8.44 5.57 13.09
5/5/2023 4:45:00 PM 16.25 61.25 0.971 8.44 5.74 13.03
5/5/2023 5:00:00 PM 16.34 61.412 0.971 8.43 5.2 12.94
5/5/2023 5:15:00 PM 16.39 61.502 0.972 8.42 5.01 12.74
5/5/2023 5:30:00 PM 16.41 61.538 0.972 8.41 5 12.45
5/5/2023 5:45:00 PM 16.43 61.574 0.972 8.39 5.09 12.2
5/5/2023 6:00:00 PM 16.43 61.574 0.972 8.37 5.02 11.97
5/5/2023 6:15:00 PM 16.41 61.538 0.972 8.35 5.29 11.71
5/5/2023 6:30:00 PM 16.36 61.448 0.973 8.32 5.23 11.46
5/5/2023 6:45:00 PM 16.28 61.304 0.976 8.29 5.32 11.18
5/5/2023 7:00:00 PM 16.2 61.16 0.981 8.26 5.02 10.96
5/5/2023 7:15:00 PM 16.1 60.98 0.988 8.23 5.06 10.7
5/5/2023 7:30:00 PM 16 60.8 0.995 8.2 5 10.44
5/5/2023 7:45:00 PM 15.9 60.62 1.001 8.17 5 10.19
5/5/2023 8:00:00 PM 15.81 60.458 1.004 8.14 5.36 9.96
5/5/2023 8:15:00 PM 15.72 60.296 1.004 8.11 5.26 9.74
5/5/2023 8:30:00 PM 15.63 60.134 1 8.09 5.11 9.55
5/5/2023 8:45:00 PM 15.54 59.972 0.996 8.07 5.7 9.4
5/5/2023 9:00:00 PM 15.45 59.81 0.992 8.05 5.66 9.28
5/5/2023 9:15:00 PM 15.36 59.648 0.989 8.04 5.8 9.19
5/5/2023 9:30:00 PM 15.28 59.504 0.987 8.02 5.8 9.1
5/5/2023 9:45:00 PM 15.19 59.342 0.986 8.01 5.8 9.01
5/5/2023 10:00:00 PM 15.1 59.18 0.987 8 5.37 8.95
5/5/2023 10:15:00 PM 15 59 0.988 7.99 6.09 8.89
5/5/2023 10:30:00 PM 14.89 58.802 0.99 7.97 5.63 8.82
5/5/2023 10:45:00 PM 14.78 58.604 0.994 7.96 6.24 8.73
5/5/2023 11:00:00 PM 14.66 58.388 0.998 7.95 5.94 8.68
5/5/2023 11:15:00 PM 14.53 58.154 1.002 7.93 5.74 8.6
5/5/2023 11:30:00 PM 14.42 57.956 1.008 7.92 5.82 8.55
5/5/2023 11:45:00 PM 14.3 57.74 1.014 7.91 5.69 8.5
5/6/2023 12:00:00 AM 14.18 57.524 1.021 7.9 6.19 8.44
5/6/2023 12:15:00 AM 14.08 57.344 1.027 7.89 6.38 8.39
5/6/2023 12:30:00 AM 13.97 57.146 1.03 7.88 6.48 8.35
5/6/2023 12:45:00 AM 13.87 56.966 1.033 7.87 5.74 8.33
5/6/2023 1:00:00 AM 13.77 56.786 1.035 7.85 6.01 8.31
5/6/2023 1:15:00 AM 13.68 56.624 1.037 7.84 5.67 8.27
5/6/2023 1:30:00 AM 13.59 56.462 1.039 7.84 6.14 8.26
5/6/2023 1:45:00 AM 13.51 56.318 1.041 7.83 5.92 8.27
5/6/2023 2:00:00 AM 13.42 56.156 1.042 7.82 6.88 8.25
5/6/2023 2:15:00 AM 13.34 56.012 1.043 7.82 6.17 8.27
5/6/2023 2:30:00 AM 13.25 55.85 1.042 7.81 5.91 8.28
5/6/2023 2:45:00 AM 13.17 55.706 1.041 7.81 6.68 8.29
5/6/2023 3:00:00 AM 13.08 55.544 1.041 7.8 6.26 8.3
5/6/2023 3:15:00 AM 13 55.4 1.041 7.8 6.27 8.32
5/6/2023 3:30:00 AM 12.92 55.256 1.042 7.8 6.13 8.35
5/6/2023 3:45:00 AM 12.84 55.112 1.042 7.79 5.86 8.37
5/6/2023 4:00:00 AM 12.76 54.968 1.041 7.79 5.77 8.39
5/6/2023 4:15:00 AM 12.68 54.824 1.039 7.79 5.79 8.43
5/6/2023 4:30:00 AM 12.6 54.68 1.036 7.79 5.89 8.45
5/6/2023 4:45:00 AM 12.52 54.536 1.033 7.79 6.04 8.49
5/6/2023 5:00:00 AM 12.44 54.392 1.03 7.8 5.81 8.52
5/6/2023 5:15:00 AM 12.37 54.266 1.026 7.8 5.77 8.55
5/6/2023 5:30:00 AM 12.29 54.122 1.023 7.8 5.84 8.58
5/6/2023 5:45:00 AM 12.22 53.996 1.019 7.8 5.83 8.6
5/6/2023 6:00:00 AM 12.14 53.852 1.015 7.81 5.82 8.64
5/6/2023 6:15:00 AM 12.07 53.726 1.01 7.81 5.93 8.69
5/6/2023 6:30:00 AM 12.01 53.618 1.004 7.81 5.75 8.76
5/6/2023 6:45:00 AM 11.94 53.492 0.997 7.82 5.71 8.85
5/6/2023 7:00:00 AM 11.89 53.402 0.989 7.83 5.67 8.96
5/6/2023 7:15:00 AM 11.84 53.312 0.98 7.84 5.78 9.09
5/6/2023 7:30:00 AM 11.8 53.24 0.972 7.85 5.71 9.24
5/6/2023 7:45:00 AM 11.78 53.204 0.963 7.86 5.92 9.38
5/6/2023 8:00:00 AM 11.76 53.168 0.956 7.88 5.71 9.57
5/6/2023 8:15:00 AM 11.77 53.186 0.949 7.89 5.63 9.76
5/6/2023 8:30:00 AM 11.8 53.24 0.943 7.92 5.54 10.04
5/6/2023 8:45:00 AM 11.87 53.366 0.937 7.95 6.02 10.31
5/6/2023 9:00:00 AM 11.95 53.51 0.932 7.98 5.33 10.61
5/6/2023 9:15:00 AM 12.04 53.672 0.927 8.01 5.32 10.88
5/6/2023 9:30:00 AM 12.15 53.87 0.922 8.04 5.26 11.15
5/6/2023 9:45:00 AM 12.28 54.104 0.919 8.06 5.07 11.41
5/6/2023 10:00:00 AM 12.42 54.356 0.917 8.09 6.86 11.66
5/6/2023 10:15:00 AM 12.59 54.662 0.916 8.12 5.18 11.9
5/6/2023 10:30:00 AM 12.76 54.968 0.916 8.15 5.18 12.16
5/6/2023 10:45:00 AM 12.95 55.31 0.917 8.18 5.56 12.38
5/6/2023 11:00:00 AM 13.14 55.652 0.918 8.21 5.62 12.58
5/6/2023 11:15:00 AM 13.34 56.012 0.918 8.23 5.31 12.76
5/6/2023 11:30:00 AM 13.56 56.408 0.918 8.26 5.52 12.95
5/6/2023 11:45:00 AM 13.78 56.804 0.916 8.28 5.48 13.12
5/6/2023 12:00:00 PM 14.03 57.254 0.914 8.31 5.82 13.29
5/6/2023 12:15:00 PM 14.29 57.722 0.912 8.33 5.63 13.44
5/6/2023 12:30:00 PM 14.6 58.28 0.912 8.36 5.46 13.62
5/6/2023 12:45:00 PM 14.91 58.838 0.914 8.4 5.74 13.75
5/6/2023 1:00:00 PM 15.19 59.342 0.92 8.42 5.99 13.8
5/6/2023 1:15:00 PM 15.52 59.936 0.93 8.44 6.08 13.92
5/6/2023 1:30:00 PM 15.82 60.476 0.939 8.46 5.14 13.98
5/6/2023 1:45:00 PM 16.12 61.016 0.948 8.48 5.25 14.05
5/6/2023 2:00:00 PM 16.4 61.52 0.957 8.49 5.56 14.06
5/6/2023 2:15:00 PM 16.67 62.006 0.965 8.5 5.21 14.04
5/6/2023 2:30:00 PM 16.93 62.474 0.974 8.51 6.14 14.02
5/6/2023 2:45:00 PM 17.14 62.852 0.985 8.51 7 13.95
5/6/2023 3:00:00 PM 17.31 63.158 0.998 8.51 5.5 13.86
5/6/2023 3:15:00 PM 17.47 63.446 1.012 8.51 5.48 13.69
5/6/2023 3:30:00 PM 17.63 63.734 1.025 8.5 5.62 13.59
5/6/2023 3:45:00 PM 17.76 63.968 1.037 8.5 5.55 13.44
5/6/2023 4:00:00 PM 17.86 64.148 1.044 8.49 5.13 13.28
5/6/2023 4:15:00 PM 17.96 64.328 1.048 8.49 4.86 13.11
5/6/2023 4:30:00 PM 18.03 64.454 1.05 8.48 6.09 12.94
5/6/2023 4:45:00 PM 18.08 64.544 1.049 8.47 5.23 12.74
5/6/2023 5:00:00 PM 18.1 64.58 1.049 8.45 5.16 12.5
5/6/2023 5:15:00 PM 18.1 64.58 1.049 8.43 5.23 12.27
5/6/2023 5:30:00 PM 18.08 64.544 1.048 8.41 5.09 11.99
5/6/2023 5:45:00 PM 18.06 64.508 1.048 8.39 4.76 11.73
5/6/2023 6:00:00 PM 18.02 64.436 1.047 8.36 5.24 11.47
5/6/2023 6:15:00 PM 17.97 64.346 1.047 8.34 5.82 11.23
5/6/2023 6:30:00 PM 17.9 64.22 1.046 8.32 5.58 11.01
5/6/2023 6:45:00 PM 17.85 64.13 0.988 8.29 5.72 10.77
5/6/2023 7:00:00 PM 17.77 63.986 1.044 8.26 4.91 10.52
5/6/2023 7:15:00 PM 17.7 63.86 1.044 8.24 5.14 10.25
5/6/2023 7:30:00 PM 17.62 63.716 1.043 8.21 5.07 10.01
5/6/2023 7:45:00 PM 17.53 63.554 1.042 8.18 6.92 9.75
5/6/2023 8:00:00 PM 17.43 63.374 1.043 8.15 5.17 9.5
5/6/2023 8:15:00 PM 17.33 63.194 1.045 8.12 4.98 9.28
5/6/2023 8:30:00 PM 17.22 62.996 1.046 8.1 5.37 9.1
5/6/2023 8:45:00 PM 17.11 62.798 1.047 8.08 5.4 8.94
5/6/2023 9:00:00 PM 17 62.6 1.048 8.06 5.6 8.8
5/6/2023 9:15:00 PM 16.89 62.402 1.048 8.04 6.37 8.69
5/6/2023 9:30:00 PM 16.77 62.186 1.05 8.03 6.06 8.59
5/6/2023 9:45:00 PM 16.64 61.952 1.052 8.01 6.22 8.52
5/6/2023 10:00:00 PM 16.52 61.736 1.053 8 6.18 8.45
5/6/2023 10:15:00 PM 16.39 61.502 1.055 7.99 5.75 8.37
5/6/2023 10:30:00 PM 16.25 61.25 1.057 7.97 5.86 8.31
5/6/2023 10:45:00 PM 16.11 60.998 1.059 7.96 6.19 8.25
5/6/2023 11:00:00 PM 15.97 60.746 1.062 7.95 6.59 8.2
5/6/2023 11:15:00 PM 15.82 60.476 1.065 7.94 6.06 8.16
5/6/2023 11:30:00 PM 15.68 60.224 1.067 7.93 6.53 8.11
5/6/2023 11:45:00 PM 15.53 59.954 1.07 7.91 6.47 8.06
5/7/2023 12:00:00 AM 15.39 59.702 1.071 7.91 6.39 8.03
5/7/2023 12:15:00 AM 15.25 59.45 1.073 7.89 6.26 7.98
5/7/2023 12:30:00 AM 15.12 59.216 1.073 7.89 7.28 7.97
5/7/2023 12:45:00 AM 14.98 58.964 1.073 7.87 7.03 7.95
5/7/2023 1:00:00 AM 14.85 58.73 1.072 7.87 7.08 7.94
5/7/2023 1:15:00 AM 14.73 58.514 1.072 7.86 6.85 7.95
5/7/2023 1:30:00 AM 14.61 58.298 1.071 7.85 6.35 7.95
5/7/2023 1:45:00 AM 14.5 58.1 1.07 7.84 7.32 7.95
5/7/2023 2:00:00 AM 14.38 57.884 1.069 7.83 6.36 7.97
5/7/2023 2:15:00 AM 14.27 57.686 1.068 7.82 6.58 7.98
5/7/2023 2:30:00 AM 14.16 57.488 1.067 7.81 6.91 8
5/7/2023 2:45:00 AM 14.05 57.29 1.066 7.8 7.55 8
5/7/2023 3:00:00 AM 13.95 57.11 1.064 7.8 6.34 8.02
5/7/2023 3:15:00 AM 13.84 56.912 1.062 7.8 6.46 8.05
5/7/2023 3:30:00 AM 13.74 56.732 1.06 7.79 6.24 8.09
5/7/2023 3:45:00 AM 13.64 56.552 1.058 7.79 6.23 8.11
5/7/2023 4:00:00 AM 13.55 56.39 1.056 7.79 6.14 8.14
5/7/2023 4:15:00 AM 13.45 56.21 1.053 7.79 6.44 8.17
5/7/2023 4:30:00 AM 13.36 56.048 1.05 7.79 5.95 8.17
5/7/2023 4:45:00 AM 13.27 55.886 1.046 7.79 6.46 8.23
5/7/2023 5:00:00 AM 13.18 55.724 1.042 7.79 6.47 8.25
5/7/2023 5:15:00 AM 13.09 55.562 1.038 7.79 6.36 8.29
5/7/2023 5:30:00 AM 13 55.4 1.033 7.79 6.03 8.31
5/7/2023 5:45:00 AM 12.92 55.256 1.028 7.79 5.78 8.34
5/7/2023 6:00:00 AM 12.84 55.112 1.023 7.79 6.78 8.37
5/7/2023 6:15:00 AM 12.76 54.968 1.017 7.79 6.05 8.41
5/7/2023 6:30:00 AM 12.68 54.824 1.011 7.8 6.19 8.48
5/7/2023 6:45:00 AM 12.62 54.716 1.004 7.81 5.99 8.57
5/7/2023 7:00:00 AM 12.58 54.644 0.997 7.82 5.98 8.73
5/7/2023 7:15:00 AM 12.56 54.608 0.989 7.83 5.87 8.97
5/7/2023 7:30:00 AM 12.55 54.59 0.979 7.85 5.74 9.23
5/7/2023 7:45:00 AM 12.55 54.59 0.97 7.87 6.23 9.45
5/7/2023 8:00:00 AM 12.54 54.572 0.961 7.89 5.94 9.65
5/7/2023 8:15:00 AM 12.55 54.59 0.952 7.91 5.7 9.83
5/7/2023 8:30:00 AM 12.59 54.662 0.943 7.95 5.7 10.16
5/7/2023 8:45:00 AM 12.65 54.77 0.936 7.98 5.56 10.51
5/7/2023 9:00:00 AM 12.7 54.86 0.929 8.01 5.27 10.81
5/7/2023 9:15:00 AM 12.78 55.004 0.923 8.04 5.46 11.11
5/7/2023 9:30:00 AM 12.91 55.238 0.918 8.08 5.31 11.47
5/7/2023 9:45:00 AM 13.01 55.418 0.913 8.11 5.19 11.76
5/7/2023 10:00:00 AM 13.1 55.58 0.91 8.14 5.23 11.93
5/7/2023 10:15:00 AM 13.25 55.85 0.908 8.16 5.75 12.13
5/7/2023 10:30:00 AM 13.4 56.12 0.908 8.19 5.99 12.38
5/7/2023 10:45:00 AM 13.52 56.336 0.91 8.22 6.2 12.64
5/7/2023 11:00:00 AM 13.7 56.66 0.913 8.25 5.74 12.87
5/7/2023 11:15:00 AM 13.92 57.056 0.916 8.28 5.85 13.03
5/7/2023 11:30:00 AM 14.08 57.344 0.918 8.3 6.13 13.2
5/7/2023 11:45:00 AM 14.25 57.65 0.917 8.32 5.98 13.35
5/7/2023 12:00:00 PM 14.52 58.136 0.913 8.35 5.28 13.55
5/7/2023 12:15:00 PM 14.75 58.55 0.909 8.37 5.55 13.68
5/7/2023 12:30:00 PM 14.95 58.91 0.905 8.4 5.75 13.76
5/7/2023 12:45:00 PM 15.13 59.234 0.901 8.42 6.16 13.83
5/7/2023 1:00:00 PM 15.37 59.666 0.899 8.45 5.62 13.98
5/7/2023 1:15:00 PM 15.58 60.044 0.898 8.47 5.73 14.05
5/7/2023 1:30:00 PM 15.67 60.206 0.902 8.47 4.99 13.87
5/7/2023 1:45:00 PM 15.76 60.368 0.908 8.46 5.44 13.55
5/7/2023 2:00:00 PM 15.86 60.548 0.917 8.45 5.58 13.31
5/7/2023 2:15:00 PM 15.96 60.728 0.929 8.44 5.15 13.11
5/7/2023 2:30:00 PM 16.06 60.908 0.943 8.43 5.6 12.99
5/7/2023 2:45:00 PM 16.17 61.106 0.957 8.42 5.91 12.93
5/7/2023 3:00:00 PM 16.26 61.268 0.972 8.41 5.3 12.75
5/7/2023 3:15:00 PM 16.38 61.484 0.985 8.41 5.5 12.66
5/7/2023 3:30:00 PM 16.49 61.682 0.995 8.4 5.62 12.54
5/7/2023 3:45:00 PM 16.58 61.844 1.005 8.39 5.32 12.29
5/7/2023 4:00:00 PM 16.68 62.024 1.012 8.38 5.67 12.16
5/7/2023 4:15:00 PM 16.76 62.168 1.017 8.37 5.46 12.01
5/7/2023 4:30:00 PM 16.83 62.294 1.02 8.35 5.47 11.82
5/7/2023 4:45:00 PM 16.88 62.384 1.023 8.34 5.32 11.67
5/7/2023 5:00:00 PM 16.91 62.438 1.026 8.33 5.41 11.44
5/7/2023 5:15:00 PM 16.94 62.492 1.028 8.31 5.93 11.24
5/7/2023 5:30:00 PM 16.94 62.492 1.031 8.29 5.59 10.97
5/7/2023 5:45:00 PM 16.94 62.492 1.033 8.26 6.21 10.71
5/7/2023 6:00:00 PM 16.93 62.474 1.035 8.24 6.17 10.44
5/7/2023 6:15:00 PM 16.9 62.42 1.037 8.21 5.51 10.22
5/7/2023 6:30:00 PM 16.87 62.366 1.039 8.19 6.78 10.01
5/7/2023 6:45:00 PM 16.82 62.276 1.04 8.16 5.52 9.83
5/7/2023 7:00:00 PM 16.78 62.204 1.041 8.14 4.97 9.72
5/7/2023 7:15:00 PM 16.73 62.114 1.04 8.12 5.33 9.57
5/7/2023 7:30:00 PM 16.67 62.006 1.039 8.1 5.95 9.42
5/7/2023 7:45:00 PM 16.62 61.916 1.038 8.09 5.93 9.31
5/7/2023 8:00:00 PM 16.57 61.826 1.038 8.07 5.64 9.15
5/7/2023 8:15:00 PM 16.51 61.718 1.038 8.05 5.95 9
5/7/2023 8:30:00 PM 16.45 61.61 1.039 8.03 5.54 8.83
5/7/2023 8:45:00 PM 16.4 61.52 1.04 8.01 6.25 8.7
5/7/2023 9:00:00 PM 16.34 61.412 1.04 8 7.18 8.56
5/7/2023 9:15:00 PM 16.28 61.304 1.04 7.98 6.01 8.46
5/7/2023 9:30:00 PM 16.23 61.214 1.041 7.97 6.08 8.35
5/7/2023 9:45:00 PM 16.17 61.106 1.042 7.96 5.88 8.25
5/7/2023 10:00:00 PM 16.12 61.016 1.043 7.94 6.24 8.16
5/7/2023 10:15:00 PM 16.06 60.908 1.045 7.93 6.32 8.09
5/7/2023 10:30:00 PM 16 60.8 1.047 7.92 6.37 8.04
5/7/2023 10:45:00 PM 15.94 60.692 1.049 7.91 6.74 7.98
5/7/2023 11:00:00 PM 15.87 60.566 1.052 7.9 6.19 7.93
5/7/2023 11:15:00 PM 15.8 60.44 1.055 7.9 6.42 7.89
5/7/2023 11:30:00 PM 15.73 60.314 1.059 7.89 6.85 7.86
5/7/2023 11:45:00 PM 15.66 60.188 1.062 7.88 6.82 7.84
5/8/2023 12:00:00 AM 15.58 60.044 1.065 7.88 8.14 7.82
5/8/2023 12:15:00 AM 15.51 59.918 1.068 7.87 6.23 7.8
5/8/2023 12:30:00 AM 15.44 59.792 1.07 7.87 6.36 7.79
5/8/2023 12:45:00 AM 15.36 59.648 1.071 7.86 7.12 7.78
5/8/2023 1:00:00 AM 15.29 59.522 1.073 7.86 6.1 7.74
5/8/2023 1:15:00 AM 15.22 59.396 1.074 7.85 6.37 7.75
5/8/2023 1:30:00 AM 15.15 59.27 1.076 7.85 5.77 7.75
5/8/2023 1:45:00 AM 15.08 59.144 1.077 7.85 6.89 7.73
5/8/2023 2:00:00 AM 15.01 59.018 1.078 7.85 6.06 7.74
5/8/2023 2:15:00 AM 14.96 58.928 1.08 7.84 6.42 7.74
5/8/2023 2:30:00 AM 14.89 58.802 1.081 7.84 6.76 7.74
5/8/2023 2:45:00 AM 14.83 58.694 1.082 7.84 6.86 7.73
5/8/2023 3:00:00 AM 14.78 58.604 1.082 7.83 6.09 7.74
5/8/2023 3:15:00 AM 14.72 58.496 1.081 7.83 6.26 7.76
5/8/2023 3:30:00 AM 14.66 58.388 1.08 7.83 6.41 7.75
5/8/2023 3:45:00 AM 14.6 58.28 1.079 7.83 6.1 7.77
5/8/2023 4:00:00 AM 14.54 58.172 1.077 7.83 6.14 7.78
5/8/2023 4:15:00 AM 14.48 58.064 1.075 7.83 9.73 7.79
5/8/2023 4:30:00 AM 14.42 57.956 1.072 7.82 6.26 7.81
5/8/2023 4:45:00 AM 14.37 57.866 1.069 7.82 6.57 7.82
5/8/2023 5:00:00 AM 14.31 57.758 1.065 7.82 6.86 7.83
5/8/2023 5:15:00 AM 14.26 57.668 1.059 7.82 6.36 7.86
5/8/2023 5:30:00 AM 14.2 57.56 1.053 7.82 6.53 7.87
5/8/2023 5:45:00 AM 14.15 57.47 1.045 7.82 5.92 7.9
5/8/2023 6:00:00 AM 14.1 57.38 1.037 7.82 6.71 7.91
5/8/2023 6:15:00 AM 14.04 57.272 1.028 7.82 6.23 7.96
5/8/2023 6:30:00 AM 14 57.2 1.019 7.83 5.9 8.02
5/8/2023 6:45:00 AM 13.95 57.11 1.01 7.83 6 8.14
5/8/2023 7:00:00 AM 13.91 57.038 0.999 7.84 6.41 8.27
5/8/2023 7:15:00 AM 13.88 56.984 0.989 7.85 5.98 8.44
5/8/2023 7:30:00 AM 13.87 56.966 0.978 7.87 6.14 8.65
5/8/2023 7:45:00 AM 13.86 56.948 0.968 7.88 5.93 8.91
5/8/2023 8:00:00 AM 13.86 56.948 0.958 7.9 5.77 9.14
5/8/2023 8:15:00 AM 13.87 56.966 0.949 7.92 5.85 9.36
5/8/2023 8:30:00 AM 13.9 57.02 0.94 7.95 5.92 9.63
5/8/2023 8:45:00 AM 13.97 57.146 0.933 7.98 5.52 10.03
5/8/2023 9:00:00 AM 14.02 57.236 0.926 8.01 5.31 10.27
5/8/2023 9:15:00 AM 14.06 57.308 0.919 8.03 5.33 10.48
5/8/2023 9:30:00 AM 14.08 57.344 0.914 8.04 5.68 10.52
5/8/2023 9:45:00 AM 14.1 57.38 0.91 8.05 5.68 10.57
5/8/2023 10:00:00 AM 14.18 57.524 0.907 8.07 5.48 10.89
5/8/2023 10:15:00 AM 14.29 57.722 0.906 8.1 5.55 11.23
5/8/2023 10:30:00 AM 14.39 57.902 0.906 8.12 5.59 11.46
5/8/2023 10:45:00 AM 14.51 58.118 0.907 8.15 6.04 11.68
5/8/2023 11:00:00 AM 14.6 58.28 0.91 8.17 5.85 11.78
5/8/2023 11:15:00 AM 14.73 58.514 0.912 8.2 5.86 12.03
5/8/2023 11:30:00 AM 14.89 58.802 0.913 8.23 5.94 12.33
5/8/2023 11:45:00 AM 14.99 58.982 0.914 8.24 5.85 12.43
5/8/2023 12:00:00 PM 15.12 59.216 0.914 8.26 5.47 12.52
5/8/2023 12:15:00 PM 15.35 59.63 0.913 8.29 5.28 12.77
5/8/2023 12:30:00 PM 15.57 60.026 0.914 8.32 5.96 13
5/8/2023 12:45:00 PM 15.78 60.404 0.916 8.34 4.89 13.11
5/8/2023 1:00:00 PM 16 60.8 0.922 8.37 5.79 13.21
5/8/2023 1:15:00 PM 16.32 61.376 0.931 8.4 5.43 13.44
5/8/2023 1:30:00 PM 16.53 61.754 0.943 8.41 5.36 13.51
5/8/2023 1:45:00 PM 16.71 62.078 0.956 8.43 5.45 13.5
5/8/2023 2:00:00 PM 16.9 62.42 0.969 8.44 5.38 13.47
5/8/2023 2:15:00 PM 17.07 62.726 0.982 8.44 5.19 13.4
5/8/2023 2:30:00 PM 17.25 63.05 0.993 8.45 5.34 13.32
5/8/2023 2:45:00 PM 17.47 63.446 1.001 8.47 5.92 13.36
5/8/2023 3:00:00 PM 17.72 63.896 1.006 8.49 5.81 13.49
5/8/2023 3:15:00 PM 17.83 64.094 1.01 8.49 5.43 13.33
5/8/2023 3:30:00 PM 17.94 64.292 1.011 8.48 5.69 13.19
5/8/2023 3:45:00 PM 18 64.4 1.012 8.48 5.16 12.97
5/8/2023 4:00:00 PM 18.14 64.652 1.011 8.48 4.94 12.93
5/8/2023 4:15:00 PM 18.21 64.778 1.01 8.48 5.96 12.81
5/8/2023 4:30:00 PM 18.27 64.886 1.008 8.47 5.04 12.67
5/8/2023 4:45:00 PM 18.33 64.994 1.006 8.46 5.67 12.51
5/8/2023 5:00:00 PM 18.36 65.048 1.003 8.45 5.2 12.35
5/8/2023 5:15:00 PM 18.37 65.066 1.001 8.44 5.09 12.17
5/8/2023 5:30:00 PM 18.37 65.066 0.999 8.43 5.64 11.95
5/8/2023 5:45:00 PM 18.35 65.03 0.998 8.41 5.11 11.72
5/8/2023 6:00:00 PM 18.32 64.976 0.997 8.39 5.23 11.48
5/8/2023 6:15:00 PM 18.28 64.904 0.997 8.37 5.21 11.22
5/8/2023 6:30:00 PM 18.22 64.796 0.996 8.34 5.33 10.95
5/8/2023 6:45:00 PM 18.16 64.688 0.995 8.31 5.22 10.69
5/8/2023 7:00:00 PM 18.11 64.598 0.994 8.29 5.31 10.45
5/8/2023 7:15:00 PM 18.06 64.508 0.993 8.26 5.21 10.23
5/8/2023 7:30:00 PM 18.02 64.436 0.993 8.23 5.52 9.99
5/8/2023 7:45:00 PM 17.99 64.382 0.993 8.2 5.08 9.74
5/8/2023 8:00:00 PM 17.95 64.31 0.993 8.18 4.85 9.46
5/8/2023 8:15:00 PM 17.9 64.22 0.994 8.15 4.87 9.23
5/8/2023 8:30:00 PM 17.84 64.112 0.994 8.12 5.07 9
5/8/2023 8:45:00 PM 17.77 63.986 0.994 8.1 5.83 8.81
5/8/2023 9:00:00 PM 17.69 63.842 0.994 8.08 6.04 8.65
5/8/2023 9:15:00 PM 17.61 63.698 0.994 8.06 5.77 8.5
5/8/2023 9:30:00 PM 17.52 63.536 0.994 8.04 6.52 8.39
5/8/2023 9:45:00 PM 17.43 63.374 0.995 8.03 6.18 8.29
5/8/2023 10:00:00 PM 17.33 63.194 0.996 8.01 6.25 8.2
5/8/2023 10:15:00 PM 17.23 63.014 0.997 8 6.32 8.15
5/8/2023 10:30:00 PM 17.12 62.816 0.999 7.98 7.07 8.07
5/8/2023 10:45:00 PM 17.01 62.618 1.001 7.97 6.85 7.99
5/8/2023 11:00:00 PM 16.89 62.402 1.003 7.96 6.68 7.94
5/8/2023 11:15:00 PM 16.77 62.186 1.006 7.95 6.58 7.89
5/8/2023 11:30:00 PM 16.65 61.97 1.009 7.93 7.03 7.83
5/8/2023 11:45:00 PM 16.54 61.772 1.012 7.92 6.77 7.78
5/9/2023 12:00:00 AM 16.43 61.574 1.016 7.91 6.69 7.72
5/9/2023 12:15:00 AM 16.32 61.376 1.019 7.9 6.81 7.66
5/9/2023 12:30:00 AM 16.22 61.196 1.022 7.89 8.07 7.63
5/9/2023 12:45:00 AM 16.11 60.998 1.024 7.88 6.54 7.6
5/9/2023 1:00:00 AM 16.01 60.818 1.025 7.87 6.72 7.56
5/9/2023 1:15:00 AM 15.91 60.638 1.027 7.86 6.75 7.54
5/9/2023 1:30:00 AM 15.82 60.476 1.029 7.85 6.7 7.52
5/9/2023 1:45:00 AM 15.73 60.314 1.031 7.85 6.93 7.5
5/9/2023 2:00:00 AM 15.65 60.17 1.033 7.84 7.1 7.5
5/9/2023 2:15:00 AM 15.57 60.026 1.034 7.83 6.33 7.47
5/9/2023 2:30:00 AM 15.5 59.9 1.036 7.82 6.44 7.47
5/9/2023 2:45:00 AM 15.44 59.792 1.037 7.82 6.63 7.47
5/9/2023 3:00:00 AM 15.37 59.666 1.038 7.81 7.05 7.49
5/9/2023 3:15:00 AM 15.3 59.54 1.04 7.81 6.52 7.48
5/9/2023 3:30:00 AM 15.24 59.432 1.041 7.81 6.47 7.5
5/9/2023 3:45:00 AM 15.18 59.324 1.043 7.8 7.29 7.47
5/9/2023 4:00:00 AM 15.12 59.216 1.045 7.8 6.66 7.47
5/9/2023 4:15:00 AM 15.06 59.108 1.047 7.79 6.61 7.48
5/9/2023 4:30:00 AM 15.01 59.018 1.049 7.79 6.19 7.52
5/9/2023 4:45:00 AM 14.95 58.91 1.049 7.79 6.19 7.53
5/9/2023 5:00:00 AM 14.9 58.82 1.049 7.79 5.97 7.53
5/9/2023 5:15:00 AM 14.85 58.73 1.048 7.79 6.62 7.54
5/9/2023 5:30:00 AM 14.79 58.622 1.045 7.79 6.33 7.56
5/9/2023 5:45:00 AM 14.74 58.532 1.042 7.79 6.26 7.58
5/9/2023 6:00:00 AM 14.68 58.424 1.037 7.79 6.15 7.6
5/9/2023 6:15:00 AM 14.62 58.316 1.032 7.79 6.18 7.62
5/9/2023 6:30:00 AM 14.56 58.208 1.027 7.8 5.92 7.71
5/9/2023 6:45:00 AM 14.51 58.118 1.02 7.8 5.9 7.78
5/9/2023 7:00:00 AM 14.45 58.01 1.014 7.81 5.74 7.91
5/9/2023 7:15:00 AM 14.41 57.938 1.006 7.82 6.28 8.07
5/9/2023 7:30:00 AM 14.37 57.866 0.998 7.83 5.64 8.21
5/9/2023 7:45:00 AM 14.34 57.812 0.989 7.85 5.94 8.41
5/9/2023 8:00:00 AM 14.33 57.794 0.98 7.87 5.94 8.74
5/9/2023 8:15:00 AM 14.33 57.794 0.971 7.9 5.74 9.12
5/9/2023 8:30:00 AM 14.34 57.812 0.963 7.93 6.04 9.47
5/9/2023 8:45:00 AM 14.33 57.794 0.956 7.95 6.09 9.7
5/9/2023 9:00:00 AM 14.33 57.794 0.949 7.98 5.39 9.96
5/9/2023 9:15:00 AM 14.34 57.812 0.943 8.01 5.34 10.29
5/9/2023 9:30:00 AM 14.34 57.812 0.938 8.04 5.56 10.53
5/9/2023 9:45:00 AM 14.32 57.776 0.933 8.05 5.63 10.65
5/9/2023 10:00:00 AM 14.31 57.758 0.93 8.06 5.65 10.75
5/9/2023 10:15:00 AM 14.31 57.758 0.928 8.08 5.73 10.88
5/9/2023 10:30:00 AM 14.37 57.866 0.928 8.11 5.79 11.22
5/9/2023 10:45:00 AM 14.44 57.992 0.928 8.14 5.56 11.58
5/9/2023 11:00:00 AM 14.47 58.046 0.93 8.15 5.69 11.67
5/9/2023 11:15:00 AM 14.51 58.118 0.932 8.17 5.57 11.74
5/9/2023 11:30:00 AM 14.61 58.298 0.933 8.19 5.63 11.98
5/9/2023 11:45:00 AM 14.67 58.406 0.933 8.22 5.44 12.2
5/9/2023 12:00:00 PM 14.72 58.496 0.932 8.24 5.51 12.33
5/9/2023 12:15:00 PM 14.78 58.604 0.931 8.26 5.18 12.49
5/9/2023 12:30:00 PM 14.83 58.694 0.931 8.27 5.41 12.5
5/9/2023 12:45:00 PM 14.89 58.802 0.932 8.28 5.68 12.56
5/9/2023 1:00:00 PM 14.95 58.91 0.936 8.3 5.53 12.71
5/9/2023 1:15:00 PM 15.04 59.072 0.944 8.32 5 12.85
5/9/2023 1:30:00 PM 15.16 59.288 0.956 8.34 5.41 13.04
5/9/2023 1:45:00 PM 15.32 59.576 0.969 8.36 5.1 13.26
5/9/2023 2:00:00 PM 15.57 60.026 0.984 8.39 5.21 13.5
5/9/2023 2:15:00 PM 15.84 60.512 0.997 8.41 5.15 13.72
5/9/2023 2:30:00 PM 16.07 60.926 1.01 8.44 4.86 13.83
5/9/2023 2:45:00 PM 16.3 61.34 1.022 8.46 5.02 13.89
5/9/2023 3:00:00 PM 16.5 61.7 1.034 8.47 5.27 13.89
5/9/2023 3:15:00 PM 16.68 62.024 1.046 8.49 5.03 13.86
5/9/2023 3:30:00 PM 16.83 62.294 1.056 8.49 5.35 13.8
5/9/2023 3:45:00 PM 16.94 62.492 1.064 8.5 5.18 13.74
5/9/2023 4:00:00 PM 17.03 62.654 1.071 8.5 5.21 13.64
5/9/2023 4:15:00 PM 17.1 62.78 1.075 8.5 5.22 13.52
5/9/2023 4:30:00 PM 17.16 62.888 1.078 8.5 5.39 13.35
5/9/2023 4:45:00 PM 17.2 62.96 1.08 8.5 5.46 13.17
5/9/2023 5:00:00 PM 17.21 62.978 1.081 8.48 5.39 12.95
5/9/2023 5:15:00 PM 17.2 62.96 1.082 8.46 5.51 12.71
5/9/2023 5:30:00 PM 17.19 62.942 1.082 8.44 5.51 12.45
5/9/2023 5:45:00 PM 17.18 62.924 1.081 8.42 5.41 12.19
5/9/2023 6:00:00 PM 17.16 62.888 1.079 8.4 5.62 11.92
5/9/2023 6:15:00 PM 17.13 62.834 1.077 8.38 5.18 11.68
5/9/2023 6:30:00 PM 17.08 62.744 1.073 8.36 5.27 11.43
5/9/2023 6:45:00 PM 17.04 62.672 1.067 8.33 5.8 11.17
5/9/2023 7:00:00 PM 16.99 62.582 1.062 8.31 5.27 10.96
5/9/2023 7:15:00 PM 16.95 62.51 1.056 8.29 5.22 10.72
5/9/2023 7:30:00 PM 16.89 62.402 1.051 8.26 5.71 10.46
5/9/2023 7:45:00 PM 16.85 62.33 1.047 8.23 5.46 10.2
5/9/2023 8:00:00 PM 16.81 62.258 1.044 8.2 4.64 9.94
5/9/2023 8:15:00 PM 16.75 62.15 1.042 8.17 5.08 9.68
5/9/2023 8:30:00 PM 16.69 62.042 1.041 8.15 5.3 9.42
5/9/2023 8:45:00 PM 16.63 61.934 1.041 8.12 5.85 9.24
5/9/2023 9:00:00 PM 16.56 61.808 1.042 8.1 6.13 9.06
5/9/2023 9:15:00 PM 16.48 61.664 1.043 8.08 6.25 8.93
5/9/2023 9:30:00 PM 16.41 61.538 1.045 8.06 6.53 8.8
5/9/2023 9:45:00 PM 16.33 61.394 1.047 8.04 6.72 8.68
5/9/2023 10:00:00 PM 16.24 61.232 1.048 8.03 6.46 8.61
5/9/2023 10:15:00 PM 16.15 61.07 1.049 8.02 6.95 8.54
5/9/2023 10:30:00 PM 16.05 60.89 1.049 8 6.88 8.47
5/9/2023 10:45:00 PM 15.94 60.692 1.05 7.99 7.24 8.4
5/9/2023 11:00:00 PM 15.84 60.512 1.051 7.98 6.86 8.32
5/9/2023 11:15:00 PM 15.72 60.296 1.053 7.96 6.44 8.28
5/9/2023 11:30:00 PM 15.6 60.08 1.057 7.95 6.6 8.22
5/9/2023 11:45:00 PM 15.49 59.882 1.061 7.94 6.99 8.15
5/10/2023 12:00:00 AM 15.37 59.666 1.066 7.93 6.94 8.11
5/10/2023 12:15:00 AM 15.25 59.45 1.071 7.92 6.69 8.05
5/10/2023 12:30:00 AM 15.13 59.234 1.076 7.9 6.25 8.01
5/10/2023 12:45:00 AM 15.02 59.036 1.081 7.89 6.64 7.97
5/10/2023 1:00:00 AM 14.92 58.856 1.087 7.88 6.25 7.94
5/10/2023 1:15:00 AM 14.82 58.676 1.092 7.87 6.46 7.91
5/10/2023 1:30:00 AM 14.72 58.496 1.098 7.86 6.3 7.89
5/10/2023 1:45:00 AM 14.62 58.316 1.103 7.85 6.2 7.86
5/10/2023 2:00:00 AM 14.53 58.154 1.107 7.84 6.1 7.85
5/10/2023 2:15:00 AM 14.44 57.992 1.111 7.83 6.15 7.84
5/10/2023 2:30:00 AM 14.35 57.83 1.114 7.83 5.88 7.85
5/10/2023 2:45:00 AM 14.27 57.686 1.116 7.82 6.67 7.85
5/10/2023 3:00:00 AM 14.18 57.524 1.119 7.82 6.2 7.85
5/10/2023 3:15:00 AM 14.1 57.38 1.122 7.81 6.23 7.86
5/10/2023 3:30:00 AM 14.01 57.218 1.124 7.81 6.63 7.87
5/10/2023 3:45:00 AM 13.92 57.056 1.125 7.81 7.2 7.88
5/10/2023 4:00:00 AM 13.83 56.894 1.126 7.81 6.83 7.88
5/10/2023 4:15:00 AM 13.75 56.75 1.126 7.81 6.37 7.9
5/10/2023 4:30:00 AM 13.66 56.588 1.127 7.81 6.37 7.91
5/10/2023 4:45:00 AM 13.57 56.426 1.127 7.81 6.69 7.94
5/10/2023 5:00:00 AM 13.48 56.264 1.126 7.81 6.66 7.97
5/10/2023 5:15:00 AM 13.4 56.12 1.124 7.81 6.77 7.99
5/10/2023 5:30:00 AM 13.31 55.958 1.122 7.81 6.69 8.02
5/10/2023 5:45:00 AM 13.23 55.814 1.119 7.81 6.39 8.04
5/10/2023 6:00:00 AM 13.15 55.67 1.115 7.81 6.29 8.08
5/10/2023 6:15:00 AM 13.06 55.508 1.111 7.81 6.24 8.12
5/10/2023 6:30:00 AM 12.98 55.364 1.104 7.82 6.07 8.2
5/10/2023 6:45:00 AM 12.91 55.238 1.097 7.82 5.96 8.29
5/10/2023 7:00:00 AM 12.85 55.13 1.089 7.83 6.11 8.43
5/10/2023 7:15:00 AM 12.79 55.022 1.079 7.84 5.97 8.6
5/10/2023 7:30:00 AM 12.74 54.932 1.068 7.85 6.26 8.8
5/10/2023 7:45:00 AM 12.71 54.878 1.058 7.87 6.12 9.03
5/10/2023 8:00:00 AM 12.68 54.824 1.047 7.89 5.66 9.27
5/10/2023 8:15:00 AM 12.68 54.824 1.037 7.91 5.62 9.55
5/10/2023 8:30:00 AM 12.69 54.842 1.026 7.94 5.45 9.84
5/10/2023 8:45:00 AM 12.72 54.896 1.017 7.97 5.51 10.17
5/10/2023 9:00:00 AM 12.77 54.986 1.009 8 5.63 10.48
5/10/2023 9:15:00 AM 12.83 55.094 1 8.03 5.74 10.78
5/10/2023 9:30:00 AM 12.9 55.22 0.993 8.06 5.42 11.08
5/10/2023 9:45:00 AM 12.99 55.382 0.985 8.09 5.49 11.35
5/10/2023 10:00:00 AM 13.1 55.58 0.979 8.12 5.6 11.62
5/10/2023 10:15:00 AM 13.23 55.814 0.975 8.15 6.14 11.88
5/10/2023 10:30:00 AM 13.37 56.066 0.972 8.18 5.7 12.14
5/10/2023 10:45:00 AM 13.53 56.354 0.971 8.21 5.98 12.38
5/10/2023 11:00:00 AM 13.7 56.66 0.973 8.23 6.6 12.61
5/10/2023 11:15:00 AM 13.88 56.984 0.976 8.26 5.25 12.82
5/10/2023 11:30:00 AM 14.07 57.326 0.979 8.28 5.38 13.02
5/10/2023 11:45:00 AM 14.28 57.704 0.981 8.31 5.48 13.21
5/10/2023 12:00:00 PM 14.5 58.1 0.982 8.34 5.42 13.41
5/10/2023 12:15:00 PM 14.75 58.55 0.982 8.36 5.03 13.61
5/10/2023 12:30:00 PM 15.01 59.018 0.98 8.39 5.35 13.78
5/10/2023 12:45:00 PM 15.28 59.504 0.979 8.42 5.21 13.97
5/10/2023 1:00:00 PM 15.56 60.008 0.98 8.45 5.17 14.12
5/10/2023 1:15:00 PM 15.83 60.494 0.982 8.48 5.31 14.25
5/10/2023 1:30:00 PM 16.12 61.016 0.987 8.5 5.61 14.37
5/10/2023 1:45:00 PM 16.39 61.502 0.994 8.53 5.12 14.45
5/10/2023 2:00:00 PM 16.66 61.988 1.006 8.55 5.05 14.48
5/10/2023 2:15:00 PM 16.92 62.456 1.02 8.56 5.2 14.51
5/10/2023 2:30:00 PM 17.18 62.924 1.035 8.57 5.37 14.47
5/10/2023 2:45:00 PM 17.41 63.338 1.049 8.57 5.12 14.4
5/10/2023 3:00:00 PM 17.62 63.716 1.062 8.57 5.2 14.3
5/10/2023 3:15:00 PM 17.79 64.022 1.071 8.57 5.19 14.15
5/10/2023 3:30:00 PM 17.95 64.31 1.077 8.57 5.38 14.03
5/10/2023 3:45:00 PM 18.07 64.526 1.081 8.56 5.51 13.85
5/10/2023 4:00:00 PM 18.16 64.688 1.082 8.55 6.16 13.68
5/10/2023 4:15:00 PM 18.24 64.832 1.082 8.54 6.05 13.5
5/10/2023 4:30:00 PM 18.3 64.94 1.082 8.53 5.61 13.31
5/10/2023 4:45:00 PM 18.35 65.03 1.081 8.52 5.52 13.11
5/10/2023 5:00:00 PM 18.37 65.066 1.08 8.5 5.82 12.86
5/10/2023 5:15:00 PM 18.38 65.084 1.079 8.49 5.49 12.62
5/10/2023 5:30:00 PM 18.37 65.066 1.078 8.47 5.28 12.36
5/10/2023 5:45:00 PM 18.35 65.03 1.077 8.45 5.77 12.09
5/10/2023 6:00:00 PM 18.33 64.994 1.077 8.42 5.65 11.82
5/10/2023 6:15:00 PM 18.28 64.904 1.079 8.4 5.41 11.54
5/10/2023 6:30:00 PM 18.22 64.796 1.083 8.37 5.23 11.25
5/10/2023 6:45:00 PM 18.16 64.688 1.088 8.34 5.08 10.96
5/10/2023 7:00:00 PM 18.11 64.598 1.093 8.31 5.38 10.69
5/10/2023 7:15:00 PM 18.05 64.49 1.098 8.28 5.37 10.42
5/10/2023 7:30:00 PM 17.97 64.346 1.103 8.25 5.19 10.16
5/10/2023 7:45:00 PM 17.9 64.22 1.108 8.22 5.22 9.88
5/10/2023 8:00:00 PM 17.82 64.076 1.111 8.18 6.23 9.6
5/10/2023 8:15:00 PM 17.73 63.914 1.112 8.16 5.99 9.34
5/10/2023 8:30:00 PM 17.63 63.734 1.111 8.13 6.34 9.11
5/10/2023 8:45:00 PM 17.52 63.536 1.107 8.1 6.11 8.91
5/10/2023 9:00:00 PM 17.41 63.338 1.101 8.08 6.33 8.74
5/10/2023 9:15:00 PM 17.3 63.14 1.094 8.06 6.15 8.59
5/10/2023 9:30:00 PM 17.18 62.924 1.087 8.05 6.1 8.48
5/10/2023 9:45:00 PM 17.06 62.708 1.081 8.03 6.94 8.39
5/10/2023 10:00:00 PM 16.93 62.474 1.077 8.02 5.85 8.31
5/10/2023 10:15:00 PM 16.81 62.258 1.075 8 6.21 8.24
5/10/2023 10:30:00 PM 16.68 62.024 1.075 7.99 6.41 8.18
5/10/2023 10:45:00 PM 16.55 61.79 1.076 7.98 6.45 8.11
5/10/2023 11:00:00 PM 16.43 61.574 1.078 7.96 6.66 8.04
5/10/2023 11:15:00 PM 16.3 61.34 1.08 7.95 6.94 7.99
5/10/2023 11:30:00 PM 16.17 61.106 1.084 7.94 6.8 7.93
5/10/2023 11:45:00 PM 16.04 60.872 1.087 7.93 6.48 7.88
5/11/2023 12:00:00 AM 15.91 60.638 1.09 7.92 6.57 7.84
5/11/2023 12:15:00 AM 15.78 60.404 1.093 7.91 6.26 7.8
5/11/2023 12:30:00 AM 15.65 60.17 1.096 7.9 7.09 7.76
5/11/2023 12:45:00 AM 15.52 59.936 1.098 7.89 6.35 7.74
5/11/2023 1:00:00 AM 15.4 59.72 1.101 7.88 6.22 7.72
5/11/2023 1:15:00 AM 15.27 59.486 1.105 7.88 6.17 7.69
5/11/2023 1:30:00 AM 15.16 59.288 1.109 7.87 6.1 7.69
5/11/2023 1:45:00 AM 15.05 59.09 1.113 7.85 7.06 7.67
5/11/2023 2:00:00 AM 14.95 58.91 1.117 7.84 7.21 7.67
5/11/2023 2:15:00 AM 14.85 58.73 1.119 7.83 7.29 7.68
5/11/2023 2:30:00 AM 14.74 58.532 1.121 7.83 7.32 7.68
5/11/2023 2:45:00 AM 14.64 58.352 1.122 7.82 7.31 7.68
5/11/2023 3:00:00 AM 14.54 58.172 1.125 7.82 6.73 7.7
5/11/2023 3:15:00 AM 14.44 57.992 1.127 7.81 6.83 7.72
5/11/2023 3:30:00 AM 14.35 57.83 1.13 7.81 7.61 7.73
5/11/2023 3:45:00 AM 14.26 57.668 1.132 7.81 7.53 7.73
5/11/2023 4:00:00 AM 14.17 57.506 1.133 7.8 7.06 7.77
5/11/2023 4:15:00 AM 14.08 57.344 1.134 7.8 7.1 7.79
5/11/2023 4:30:00 AM 13.99 57.182 1.135 7.8 7 7.8
5/11/2023 4:45:00 AM 13.9 57.02 1.135 7.8 6.92 7.82
5/11/2023 5:00:00 AM 13.81 56.858 1.135 7.8 6.79 7.84
5/11/2023 5:15:00 AM 13.72 56.696 1.134 7.8 6.74 7.87
5/11/2023 5:30:00 AM 13.64 56.552 1.132 7.8 6.89 7.9
5/11/2023 5:45:00 AM 13.56 56.408 1.129 7.8 6.37 7.92
5/11/2023 6:00:00 AM 13.48 56.264 1.124 7.81 6.5 7.97
5/11/2023 6:15:00 AM 13.4 56.12 1.117 7.81 6.61 8.02
5/11/2023 6:30:00 AM 13.32 55.976 1.108 7.81 6.25 8.11
5/11/2023 6:45:00 AM 13.25 55.85 1.099 7.82 6.86 8.23
5/11/2023 7:00:00 AM 13.18 55.724 1.089 7.83 6.78 8.37
5/11/2023 7:15:00 AM 13.13 55.634 1.078 7.84 6 8.52
5/11/2023 7:30:00 AM 13.08 55.544 1.066 7.85 6.14 8.71
5/11/2023 7:45:00 AM 13.04 55.472 1.054 7.87 6.49 8.91
5/11/2023 8:00:00 AM 13.01 55.418 1.042 7.89 6.02 9.15
5/11/2023 8:15:00 AM 12.99 55.382 1.03 7.9 7.39 9.4
5/11/2023 8:30:00 AM 13 55.4 1.019 7.93 6.22 9.68
5/11/2023 8:45:00 AM 13.03 55.454 1.008 7.96 5.55 10
5/11/2023 9:00:00 AM 13.07 55.526 0.999 7.98 5.43 10.32
5/11/2023 9:15:00 AM 13.14 55.652 0.99 8.02 6.05 10.65
5/11/2023 9:30:00 AM 13.22 55.796 0.982 8.05 5.71 10.96
5/11/2023 9:45:00 AM 13.32 55.976 0.975 8.08 5.68 11.27
5/11/2023 10:00:00 AM 13.44 56.192 0.969 8.12 6.14 11.56
5/11/2023 10:15:00 AM 13.58 56.444 0.965 8.15 6.3 11.85
5/11/2023 10:30:00 AM 13.72 56.696 0.963 8.18 6.04 12.11
5/11/2023 10:45:00 AM 13.89 57.002 0.963 8.21 6.46 12.37
5/11/2023 11:00:00 AM 14.06 57.308 0.964 8.24 6.05 12.6
5/11/2023 11:15:00 AM 14.24 57.632 0.967 8.26 6.17 12.81
5/11/2023 11:30:00 AM 14.43 57.974 0.969 8.29 5.57 13.01
5/11/2023 11:45:00 AM 14.64 58.352 0.97 8.32 5.38 13.2
5/11/2023 12:00:00 PM 14.87 58.766 0.971 8.34 5.48 13.4
5/11/2023 12:15:00 PM 15.12 59.216 0.972 8.37 5.57 13.59
5/11/2023 12:30:00 PM 15.38 59.684 0.973 8.4 4.7 13.76
5/11/2023 12:45:00 PM 15.66 60.188 0.977 8.42 5.17 13.92
5/11/2023 1:00:00 PM 15.94 60.692 0.983 8.44 5.36 14.05
5/11/2023 1:15:00 PM 16.23 61.214 0.992 8.48 5 14.18
5/11/2023 1:30:00 PM 16.52 61.736 1.004 8.5 5.19 14.28
5/11/2023 1:45:00 PM 16.81 62.258 1.019 8.52 5.17 14.36
5/11/2023 2:00:00 PM 17.13 62.834 1.036 8.53 5.38 14.41
5/11/2023 2:15:00 PM 17.42 63.356 1.052 8.54 5.32 14.42
5/11/2023 2:30:00 PM 17.69 63.842 1.065 8.55 5.76 14.39
5/11/2023 2:45:00 PM 17.93 64.274 1.076 8.56 6.19 14.34
5/11/2023 3:00:00 PM 18.15 64.67 1.083 8.57 5.4 14.25
5/11/2023 3:15:00 PM 18.34 65.012 1.086 8.57 5.25 14.13
5/11/2023 3:30:00 PM 18.51 65.318 1.087 8.57 5.25 14.04
5/11/2023 3:45:00 PM 18.65 65.57 1.089 8.57 5.35 13.93
5/11/2023 4:00:00 PM 18.77 65.786 1.093 8.56 5.71 13.72
5/11/2023 4:15:00 PM 18.87 65.966 1.098 8.56 5.31 13.52
5/11/2023 4:30:00 PM 18.95 66.11 1.103 8.55 5.52 13.29
5/11/2023 4:45:00 PM 19.02 66.236 1.107 8.53 5.56 13.08
5/11/2023 5:00:00 PM 19.06 66.308 1.111 8.52 5.76 12.79
5/11/2023 5:15:00 PM 19.09 66.362 1.113 8.49 5.65 12.53
5/11/2023 5:30:00 PM 19.11 66.398 1.114 8.47 5.74 12.25
5/11/2023 5:45:00 PM 19.11 66.398 1.116 8.45 5.47 11.97
5/11/2023 6:00:00 PM 19.1 66.38 1.118 8.43 5.38 11.67
5/11/2023 6:15:00 PM 19.08 66.344 1.12 8.4 5.76 11.39
5/11/2023 6:30:00 PM 19.05 66.29 1.122 8.37 5.98 11.08
5/11/2023 6:45:00 PM 19.01 66.218 1.123 8.34 5.47 10.76
5/11/2023 7:00:00 PM 18.97 66.146 1.123 8.31 5.52 10.5
5/11/2023 7:15:00 PM 18.92 66.056 1.124 8.28 5.32 10.23
5/11/2023 7:30:00 PM 18.86 65.948 1.124 8.25 5.3 9.93
5/11/2023 7:45:00 PM 18.79 65.82201 1.123 8.22 5.03 9.64
5/11/2023 8:00:00 PM 18.71 65.67799 1.12 8.19 5.32 9.36
5/11/2023 8:15:00 PM 18.61 65.498 1.114 8.16 5.84 9.1
5/11/2023 8:30:00 PM 18.51 65.318 1.107 8.13 5.49 8.86
5/11/2023 8:45:00 PM 18.41 65.138 1.101 8.1 6.01 8.63
5/11/2023 9:00:00 PM 18.3 64.94 1.099 8.08 5.88 8.44
5/11/2023 9:15:00 PM 18.2 64.76 1.101 8.05 6.71 8.25
5/11/2023 9:30:00 PM 18.09 64.562 1.108 8.03 5.91 8.11
5/11/2023 9:45:00 PM 17.99 64.382 1.116 8.01 6.36 7.97
5/11/2023 10:00:00 PM 17.89 64.202 1.124 7.99 6.36 7.85
5/11/2023 10:15:00 PM 17.79 64.022 1.128 7.97 6.23 7.74
5/11/2023 10:30:00 PM 17.67 63.806 1.128 7.96 6.1 7.65
5/11/2023 10:45:00 PM 17.55 63.59 1.126 7.94 6.53 7.57
5/11/2023 11:00:00 PM 17.43 63.374 1.123 7.93 6.31 7.49
5/11/2023 11:15:00 PM 17.3 63.14 1.121 7.92 6.25 7.42
5/11/2023 11:30:00 PM 17.17 62.906 1.121 7.9 6.31 7.34
5/11/2023 11:45:00 PM 17.04 62.672 1.124 7.9 6.54 7.3
5/12/2023 12:00:00 AM 16.91 62.438 1.127 7.88 6.68 7.24
5/12/2023 12:15:00 AM 16.78 62.204 1.131 7.87 6.69 7.19
5/12/2023 12:30:00 AM 16.66 61.988 1.135 7.87 6.65 7.14
5/12/2023 12:45:00 AM 16.54 61.772 1.14 7.86 6.8 7.1
5/12/2023 1:00:00 AM 16.42 61.556 1.146 7.85 6.01 7.05
5/12/2023 1:15:00 AM 16.32 61.376 1.154 7.84 6.36 7.01
5/12/2023 1:30:00 AM 16.22 61.196 1.164 7.83 6.37 7.01
5/12/2023 1:45:00 AM 16.12 61.016 1.176 7.83 6.7 6.96
5/12/2023 2:00:00 AM 16.04 60.872 1.188 7.82 6.72 6.95
5/12/2023 2:15:00 AM 15.95 60.71 1.198 7.82 6.84 6.91
5/12/2023 2:30:00 AM 15.86 60.548 1.205 7.81 6.48 6.91
5/12/2023 2:45:00 AM 15.78 60.404 1.209 7.81 6.52 6.92
5/12/2023 3:00:00 AM 15.69 60.242 1.21 7.8 6.87 6.92
5/12/2023 3:15:00 AM 15.6 60.08 1.208 7.8 6.48 6.92
5/12/2023 3:30:00 AM 15.5 59.9 1.206 7.79 6.63 6.94
5/12/2023 3:45:00 AM 15.42 59.756 1.203 7.79 6.18 6.98
5/12/2023 4:00:00 AM 15.33 59.594 1.201 7.78 6.7 7
5/12/2023 4:15:00 AM 15.25 59.45 1.203 7.78 6.57 7.02
5/12/2023 4:30:00 AM 15.17 59.306 1.206 7.77 6.49 7.01
5/12/2023 4:45:00 AM 15.1 59.18 1.211 7.77 6.92 7.04
5/12/2023 5:00:00 AM 15.03 59.054 1.216 7.77 6.96 7.04
5/12/2023 5:15:00 AM 14.96 58.928 1.22 7.77 7.31 7.05
5/12/2023 5:30:00 AM 14.89 58.802 1.22 7.77 7.02 7.08
5/12/2023 5:45:00 AM 14.82 58.676 1.215 7.77 6.88 7.09
5/12/2023 6:00:00 AM 14.74 58.532 1.207 7.77 6.57 7.13
5/12/2023 6:15:00 AM 14.66 58.388 1.196 7.77 6.11 7.2
5/12/2023 6:30:00 AM 14.59 58.262 1.183 7.77 6.3 7.27
5/12/2023 6:45:00 AM 14.51 58.118 1.169 7.78 5.87 7.38
5/12/2023 7:00:00 AM 14.44 57.992 1.155 7.78 6.13 7.5
5/12/2023 7:15:00 AM 14.38 57.884 1.145 7.79 6.14 7.69
5/12/2023 7:30:00 AM 14.34 57.812 1.137 7.8 6.18 7.85
5/12/2023 7:45:00 AM 14.3 57.74 1.131 7.82 6.2 8.09
5/12/2023 8:00:00 AM 14.29 57.722 1.125 7.83 6.75 8.33
5/12/2023 8:15:00 AM 14.29 57.722 1.116 7.85 5.92 8.62
5/12/2023 8:30:00 AM 14.31 57.758 1.103 7.87 6.11 8.92
5/12/2023 8:45:00 AM 14.33 57.794 1.087 7.9 5.63 9.26
5/12/2023 9:00:00 AM 14.37 57.866 1.07 7.93 5.52 9.62
5/12/2023 9:15:00 AM 14.41 57.938 1.053 7.97 5.09 10.01
5/12/2023 9:30:00 AM 14.47 58.046 1.037 8 5.18 10.33
5/12/2023 9:45:00 AM 14.53 58.154 1.022 8.03 5.44 10.66
5/12/2023 10:00:00 AM 14.6 58.28 1.012 8.06 5.36 10.92
5/12/2023 10:15:00 AM 14.69 58.442 1.003 8.08 5.33 11.2
5/12/2023 10:30:00 AM 14.8 58.64 0.997 8.11 5.43 11.48
5/12/2023 10:45:00 AM 14.92 58.856 0.994 8.14 5.34 11.74
5/12/2023 11:00:00 AM 15.05 59.09 0.995 8.16 5.49 11.99
5/12/2023 11:15:00 AM 15.21 59.378 0.999 8.19 5.48 12.25
5/12/2023 11:30:00 AM 15.38 59.684 1.007 8.21 5.03 12.44
5/12/2023 11:45:00 AM 15.56 60.008 1.017 8.24 5.34 12.66
5/12/2023 12:00:00 PM 15.75 60.35 1.027 8.26 5.19 12.81
5/12/2023 12:15:00 PM 15.97 60.746 1.035 8.28 5.23 12.99
5/12/2023 12:30:00 PM 16.2 61.16 1.04 8.31 5.32 13.17
5/12/2023 12:45:00 PM 16.48 61.664 1.044 8.34 4.89 13.34
5/12/2023 1:00:00 PM 16.76 62.168 1.046 8.37 5.14 13.52
5/12/2023 1:15:00 PM 17.05 62.69 1.048 8.39 5.16 13.69
5/12/2023 1:30:00 PM 17.33 63.194 1.051 8.42 4.99 13.82
5/12/2023 1:45:00 PM 17.63 63.734 1.055 8.44 5.26 13.96
5/12/2023 2:00:00 PM 17.89 64.202 1.061 8.46 5.07 14
5/12/2023 2:15:00 PM 18.04 64.472 1.071 8.46 5.24 13.85
5/12/2023 2:30:00 PM 18.27 64.886 1.081 8.47 5.33 13.86
5/12/2023 2:45:00 PM 18.48 65.264 1.09 8.48 5.25 13.83
5/12/2023 3:00:00 PM 18.67 65.606 1.097 8.48 5.41 13.73
5/12/2023 3:15:00 PM 18.85 65.93 1.102 8.48 5.32 13.63
5/12/2023 3:30:00 PM 18.99 66.182 1.104 8.48 5.51 13.51
5/12/2023 3:45:00 PM 19.12 66.416 1.106 8.48 5.34 13.38
5/12/2023 4:00:00 PM 19.23 66.614 1.106 8.48 5.85 13.18
5/12/2023 4:15:00 PM 19.31 66.758 1.107 8.47 6.04 12.94
5/12/2023 4:30:00 PM 19.39 66.902 1.108 8.46 5.86 12.7
5/12/2023 4:45:00 PM 19.45 67.01 1.11 8.44 5.26 12.41
5/12/2023 5:00:00 PM 19.49 67.082 1.112 8.42 5.55 12.13
5/12/2023 5:15:00 PM 19.53 67.154 1.114 8.4 5.64 11.88
5/12/2023 5:30:00 PM 19.54 67.172 1.115 8.38 5.59 11.6
5/12/2023 5:45:00 PM 19.54 67.172 1.116 8.36 5.32 11.29
5/12/2023 6:00:00 PM 19.53 67.154 1.117 8.33 5.7 10.96
5/12/2023 6:15:00 PM 19.53 67.154 1.117 8.31 5.56 10.68
5/12/2023 6:30:00 PM 19.53 67.154 1.117 8.29 5.43 10.41
5/12/2023 6:45:00 PM 19.51 67.118 1.118 8.26 5.35 10.13
5/12/2023 7:00:00 PM 19.47 67.046 1.117 8.23 5.38 9.82
5/12/2023 7:15:00 PM 19.43 66.974 1.117 8.2 5.64 9.56
5/12/2023 7:30:00 PM 19.37 66.866 1.116 8.17 6.52 9.26
5/12/2023 7:45:00 PM 19.31 66.758 1.114 8.15 5.2 8.96
5/12/2023 8:00:00 PM 19.24 66.632 1.112 8.12 5.32 8.7
5/12/2023 8:15:00 PM 19.15 66.47 1.111 8.09 5.62 8.44
5/12/2023 8:30:00 PM 19.07 66.326 1.11 8.06 6.96 8.2
5/12/2023 8:45:00 PM 18.99 66.182 1.109 8.04 5.95 8
5/12/2023 9:00:00 PM 18.9 66.02 1.108 8.02 5.71 7.81
5/12/2023 9:15:00 PM 18.82 65.876 1.108 8 5.96 7.66
5/12/2023 9:30:00 PM 18.73 65.714 1.108 7.98 6.65 7.53
5/12/2023 9:45:00 PM 18.64 65.552 1.108 7.97 6.01 7.42
5/12/2023 10:00:00 PM 18.55 65.39 1.108 7.95 6.09 7.32
5/12/2023 10:15:00 PM 18.46 65.228 1.107 7.94 5.94 7.22
5/12/2023 10:30:00 PM 18.36 65.048 1.107 7.93 7.64 7.15
5/12/2023 10:45:00 PM 18.26 64.868 1.107 7.92 6.68 7.09
5/12/2023 11:00:00 PM 18.16 64.688 1.107 7.9 6.98 7.03
5/12/2023 11:15:00 PM 18.06 64.508 1.109 7.9 6.5 6.96
5/12/2023 11:30:00 PM 17.97 64.346 1.112 7.88 6.8 6.91
5/12/2023 11:45:00 PM 17.87 64.166 1.115 7.88 6.02 6.84
5/13/2023 12:00:00 AM 17.78 64.004 1.119 7.87 6.22 6.81
5/13/2023 12:15:00 AM 17.69 63.842 1.122 7.86 6.3 6.77
5/13/2023 12:30:00 AM 17.6 63.68 1.126 7.85 6.1 6.73
5/13/2023 12:45:00 AM 17.51 63.518 1.13 7.84 6.51 6.68
5/13/2023 1:00:00 AM 17.42 63.356 1.133 7.83 6.51 6.66
5/13/2023 1:15:00 AM 17.34 63.212 1.137 7.83 6.67 6.64
5/13/2023 1:30:00 AM 17.26 63.068 1.14 7.82 6.58 6.62
5/13/2023 1:45:00 AM 17.18 62.924 1.144 7.82 6.61 6.61
5/13/2023 2:00:00 AM 17.1 62.78 1.146 7.81 6.03 6.59
5/13/2023 2:15:00 AM 17.03 62.654 1.148 7.81 6.76 6.59
5/13/2023 2:30:00 AM 16.95 62.51 1.149 7.81 6.94 6.59
5/13/2023 2:45:00 AM 16.88 62.384 1.148 7.8 6.3 6.6
5/13/2023 3:00:00 AM 16.82 62.276 1.147 7.8 6.49 6.61
5/13/2023 3:15:00 AM 16.75 62.15 1.145 7.8 6.6 6.63
5/13/2023 3:30:00 AM 16.69 62.042 1.144 7.8 6.52 6.62
5/13/2023 3:45:00 AM 16.62 61.916 1.143 7.79 7.02 6.65
5/13/2023 4:00:00 AM 16.56 61.808 1.141 7.79 7.12 6.68
5/13/2023 4:15:00 AM 16.49 61.682 1.14 7.79 6.7 6.67
5/13/2023 4:30:00 AM 16.43 61.574 1.139 7.79 6.34 6.69
5/13/2023 4:45:00 AM 16.37 61.466 1.138 7.79 6.75 6.73
5/13/2023 5:00:00 AM 16.32 61.376 1.137 7.78 6.8 6.7
5/13/2023 5:15:00 AM 16.26 61.268 1.137 7.78 6.69 6.77
5/13/2023 5:30:00 AM 16.21 61.178 1.137 7.78 7.57 6.78
5/13/2023 5:45:00 AM 16.16 61.088 1.137 7.78 6.86 6.8
5/13/2023 6:00:00 AM 16.11 60.998 1.136 7.78 6.73 6.84
5/13/2023 6:15:00 AM 16.07 60.926 1.134 7.78 6.21 6.87
5/13/2023 6:30:00 AM 16.02 60.836 1.13 7.78 6.29 6.93
5/13/2023 6:45:00 AM 15.98 60.764 1.125 7.79 5.99 7.01
5/13/2023 7:00:00 AM 15.93 60.674 1.119 7.79 5.93 7.11
5/13/2023 7:15:00 AM 15.89 60.602 1.113 7.79 6 7.19
5/13/2023 7:30:00 AM 15.85 60.53 1.105 7.8 5.99 7.28
5/13/2023 7:45:00 AM 15.81 60.458 1.096 7.8 5.85 7.4
5/13/2023 8:00:00 AM 15.77 60.386 1.087 7.81 5.67 7.5
5/13/2023 8:15:00 AM 15.73 60.314 1.076 7.82 5.81 7.62
5/13/2023 8:30:00 AM 15.7 60.26 1.066 7.82 5.53 7.84
5/13/2023 8:45:00 AM 15.68 60.224 1.055 7.84 5.41 8.06
5/13/2023 9:00:00 AM 15.65 60.17 1.044 7.85 5.4 8.14
5/13/2023 9:15:00 AM 15.61 60.098 1.034 7.86 5.02 8.19
5/13/2023 9:30:00 AM 15.58 60.044 1.024 7.87 5.04 8.28
5/13/2023 9:45:00 AM 15.55 59.99 1.014 7.87 5.35 8.4
5/13/2023 10:00:00 AM 15.52 59.936 1.006 7.88 5.74 8.49
5/13/2023 10:15:00 AM 15.5 59.9 0.999 7.9 5.66 8.69
5/13/2023 10:30:00 AM 15.5 59.9 0.993 7.91 5.71 8.93
5/13/2023 10:45:00 AM 15.5 59.9 0.989 7.94 5.7 9.26
5/13/2023 11:00:00 AM 15.51 59.918 0.986 7.96 5.84 9.49
5/13/2023 11:15:00 AM 15.54 59.972 0.985 7.98 5.56 9.77
5/13/2023 11:30:00 AM 15.59 60.062 0.985 8.01 5.82 10.18
5/13/2023 11:45:00 AM 15.67 60.206 0.986 8.05 5.55 10.58
5/13/2023 12:00:00 PM 15.72 60.296 0.986 8.08 5.14 10.84
5/13/2023 12:15:00 PM 15.76 60.368 0.986 8.09 5 10.9
5/13/2023 12:30:00 PM 15.79 60.422 0.984 8.11 5.51 10.93
5/13/2023 12:45:00 PM 15.8 60.44 0.981 8.11 5.06 10.9
5/13/2023 1:00:00 PM 15.81 60.458 0.976 8.11 5.08 10.88
5/13/2023 1:15:00 PM 15.81 60.458 0.972 8.12 5.28 10.85
5/13/2023 1:30:00 PM 15.81 60.458 0.969 8.12 5.27 10.78
5/13/2023 1:45:00 PM 15.81 60.458 0.969 8.11 5.35 10.71
5/13/2023 2:00:00 PM 15.83 60.494 0.973 8.11 5.44 10.73
5/13/2023 2:15:00 PM 15.86 60.548 0.981 8.12 5.22 10.75
5/13/2023 2:30:00 PM 15.89 60.602 0.994 8.12 5.43 10.71
5/13/2023 2:45:00 PM 15.94 60.692 1.011 8.11 5.38 10.63
5/13/2023 3:00:00 PM 16 60.8 1.031 8.12 5.32 10.61
5/13/2023 3:15:00 PM 16.06 60.908 1.052 8.12 5.17 10.57
5/13/2023 3:30:00 PM 16.14 61.052 1.071 8.12 5.15 10.57
5/13/2023 3:45:00 PM 16.2 61.16 1.085 8.12 5.11 10.55
5/13/2023 4:00:00 PM 16.27 61.286 1.095 8.13 4.97 10.53
5/13/2023 4:15:00 PM 16.32 61.376 1.1 8.13 5.39 10.47
5/13/2023 4:30:00 PM 16.36 61.448 1.102 8.13 5.15 10.4
5/13/2023 4:45:00 PM 16.39 61.502 1.103 8.12 4.94 10.29
5/13/2023 5:00:00 PM 16.41 61.538 1.104 8.12 5.37 10.19
5/13/2023 5:15:00 PM 16.42 61.556 1.103 8.11 7.32 10.08
5/13/2023 5:30:00 PM 16.43 61.574 1.104 8.1 5.29 9.98
5/13/2023 5:45:00 PM 16.44 61.592 1.104 8.1 5.69 9.9
5/13/2023 6:00:00 PM 16.44 61.592 1.105 8.09 5.31 9.89
5/13/2023 6:15:00 PM 16.44 61.592 1.106 8.09 5.1 9.82
5/13/2023 6:30:00 PM 16.44 61.592 1.107 8.08 5.74 9.69
5/13/2023 6:45:00 PM 16.43 61.574 1.108 8.07 5.31 9.61
5/13/2023 7:00:00 PM 16.43 61.574 1.109 8.07 5.07 9.51
5/13/2023 7:15:00 PM 16.41 61.538 1.11 8.06 5.23 9.44
5/13/2023 7:30:00 PM 16.4 61.52 1.111 8.05 5.13 9.32
5/13/2023 7:45:00 PM 16.37 61.466 1.111 8.04 4.97 9.2
5/13/2023 8:00:00 PM 16.34 61.412 1.112 8.03 4.81 9.06
5/13/2023 8:15:00 PM 16.31 61.358 1.112 8.01 5.82 8.9
5/13/2023 8:30:00 PM 16.27 61.286 1.111 8 5.18 8.8
5/13/2023 8:45:00 PM 16.22 61.196 1.111 7.99 5.42 8.67
5/13/2023 9:00:00 PM 16.18 61.124 1.11 7.98 6.04 8.56
5/13/2023 9:15:00 PM 16.12 61.016 1.108 7.96 6.01 8.43
5/13/2023 9:30:00 PM 16.07 60.926 1.106 7.95 5.82 8.35
5/13/2023 9:45:00 PM 16.03 60.854 1.103 7.95 5.89 8.27
5/13/2023 10:00:00 PM 15.97 60.746 1.098 7.94 6.13 8.21
5/13/2023 10:15:00 PM 15.91 60.638 1.093 7.93 5.92 8.15
5/13/2023 10:30:00 PM 15.85 60.53 1.089 7.92 6.11 8.1
5/13/2023 10:45:00 PM 15.79 60.422 1.084 7.92 6.24 8.07
5/13/2023 11:00:00 PM 15.73 60.314 1.08 7.91 6.51 8.04
5/13/2023 11:15:00 PM 15.67 60.206 1.078 7.9 6.44 8.01
5/13/2023 11:30:00 PM 15.61 60.098 1.077 7.9 6.07 7.93
5/13/2023 11:45:00 PM 15.56 60.008 1.076 7.89 5.99 7.95
5/14/2023 12:00:00 AM 15.5 59.9 1.075 7.88 6.05 7.93
5/14/2023 12:15:00 AM 15.44 59.792 1.074 7.88 5.93 7.91
5/14/2023 12:30:00 AM 15.38 59.684 1.073 7.87 5.67 7.89
5/14/2023 12:45:00 AM 15.32 59.576 1.072 7.87 5.88 7.87
5/14/2023 1:00:00 AM 15.26 59.468 1.072 7.87 6.16 7.83
5/14/2023 1:15:00 AM 15.2 59.36 1.072 7.86 6.13 7.84
5/14/2023 1:30:00 AM 15.14 59.252 1.073 7.86 6.23 7.83
5/14/2023 1:45:00 AM 15.07 59.126 1.074 7.85 6.31 7.81
5/14/2023 2:00:00 AM 15 59 1.075 7.85 6.49 7.81
5/14/2023 2:15:00 AM 14.93 58.874 1.077 7.85 6.12 7.81
5/14/2023 2:30:00 AM 14.86 58.748 1.08 7.84 5.82 7.79
5/14/2023 2:45:00 AM 14.78 58.604 1.082 7.84 6.47 7.81
5/14/2023 3:00:00 AM 14.71 58.478 1.086 7.84 5.96 7.81
5/14/2023 3:15:00 AM 14.65 58.37 1.09 7.83 5.93 7.81
5/14/2023 3:30:00 AM 14.58 58.244 1.095 7.83 5.88 7.82
5/14/2023 3:45:00 AM 14.51 58.118 1.099 7.83 5.87 7.82
5/14/2023 4:00:00 AM 14.45 58.01 1.103 7.83 6.22 7.77
5/14/2023 4:15:00 AM 14.39 57.902 1.107 7.83 6.04 7.85
5/14/2023 4:30:00 AM 14.32 57.776 1.108 7.83 6.26 7.84
5/14/2023 4:45:00 AM 14.24 57.632 1.11 7.83 6.31 7.84
5/14/2023 5:00:00 AM 14.18 57.524 1.111 7.83 6.27 7.89
5/14/2023 5:15:00 AM 14.11 57.398 1.11 7.83 6.15 7.91
5/14/2023 5:30:00 AM 14.03 57.254 1.108 7.83 5.89 7.92
5/14/2023 5:45:00 AM 13.96 57.128 1.106 7.83 6.16 7.97
5/14/2023 6:00:00 AM 13.88 56.984 1.102 7.83 5.9 7.99
5/14/2023 6:15:00 AM 13.81 56.858 1.098 7.83 6.39 8.06
5/14/2023 6:30:00 AM 13.75 56.75 1.094 7.83 7.24 8.1
5/14/2023 6:45:00 AM 13.69 56.642 1.09 7.83 6.36 8.21
5/14/2023 7:00:00 AM 13.64 56.552 1.086 7.84 6.65 8.32
5/14/2023 7:15:00 AM 13.59 56.462 1.081 7.85 6.1 8.46
5/14/2023 7:30:00 AM 13.56 56.408 1.076 7.86 6.47 8.63
5/14/2023 7:45:00 AM 13.53 56.354 1.07 7.88 5.99 8.78
5/14/2023 8:00:00 AM 13.5 56.3 1.063 7.89 5.55 8.95
5/14/2023 8:15:00 AM 13.5 56.3 1.055 7.91 5.77 9.19
5/14/2023 8:30:00 AM 13.51 56.318 1.046 7.94 6.14 9.48
5/14/2023 8:45:00 AM 13.54 56.372 1.036 7.96 5.69 9.79
5/14/2023 9:00:00 AM 13.59 56.462 1.027 8 5.62 10.16
5/14/2023 9:15:00 AM 13.67 56.606 1.018 8.03 5.67 10.58
5/14/2023 9:30:00 AM 13.73 56.714 1.008 8.07 5.6 10.92
5/14/2023 9:45:00 AM 13.8 56.84 1 8.1 5.36 11.22
5/14/2023 10:00:00 AM 13.88 56.984 0.991 8.14 5.53 11.54
5/14/2023 10:15:00 AM 13.97 57.146 0.983 8.17 5.37 11.82
5/14/2023 10:30:00 AM 14.08 57.344 0.977 8.2 5.58 12.03
5/14/2023 10:45:00 AM 14.22 57.596 0.972 8.22 5.77 12.29
5/14/2023 11:00:00 AM 14.36 57.848 0.968 8.25 5.8 12.5
5/14/2023 11:15:00 AM 14.54 58.172 0.967 8.28 5.75 12.7
5/14/2023 11:30:00 AM 14.72 58.496 0.968 8.31 5.61 12.9
5/14/2023 11:45:00 AM 14.91 58.838 0.969 8.33 5.27 13.08
5/14/2023 12:00:00 PM 15.12 59.216 0.97 8.36 5.59 13.25
5/14/2023 12:15:00 PM 15.33 59.594 0.97 8.38 5.72 13.41
5/14/2023 12:30:00 PM 15.56 60.008 0.969 8.41 5.13 13.55
5/14/2023 12:45:00 PM 15.8 60.44 0.967 8.43 5.43 13.68
5/14/2023 1:00:00 PM 16.06 60.908 0.964 8.45 5.49 13.82
5/14/2023 1:15:00 PM 16.32 61.376 0.96 8.48 5.43 13.97
5/14/2023 1:30:00 PM 16.57 61.826 0.957 8.5 5.46 14.06
5/14/2023 1:45:00 PM 16.82 62.276 0.955 8.52 5.63 14.14
5/14/2023 2:00:00 PM 17.06 62.708 0.956 8.54 5.72 14.2
5/14/2023 2:15:00 PM 17.27 63.086 0.961 8.55 5.51 14.19
5/14/2023 2:30:00 PM 17.48 63.464 0.968 8.57 5.36 14.16
5/14/2023 2:45:00 PM 17.67 63.806 0.978 8.57 5.42 14.1
5/14/2023 3:00:00 PM 17.85 64.13 0.991 8.57 5.12 14.01
5/14/2023 3:15:00 PM 18.01 64.418 1.005 8.57 5.25 13.9
5/14/2023 3:30:00 PM 18.16 64.688 1.02 8.57 5.3 13.79
5/14/2023 3:45:00 PM 18.28 64.904 1.035 8.57 5.18 13.67
5/14/2023 4:00:00 PM 18.37 65.066 1.049 8.56 5.62 13.49
5/14/2023 4:15:00 PM 18.47 65.246 1.062 8.55 5.72 13.31
5/14/2023 4:30:00 PM 18.54 65.372 1.074 8.55 5.45 13.12
5/14/2023 4:45:00 PM 18.6 65.48 1.085 8.54 5.71 12.96
5/14/2023 5:00:00 PM 18.62 65.516 1.094 8.52 5.14 12.8
5/14/2023 5:15:00 PM 18.65 65.57 1.102 8.51 5.34 12.59
5/14/2023 5:30:00 PM 18.64 65.552 1.109 8.5 5.32 12.4
5/14/2023 5:45:00 PM 18.62 65.516 1.115 8.47 5.26 12.14
5/14/2023 6:00:00 PM 18.57 65.426 1.121 8.45 5.55 11.83
5/14/2023 6:15:00 PM 18.53 65.354 1.124 8.42 5.26 11.53
5/14/2023 6:30:00 PM 18.49 65.282 1.126 8.4 5.4 11.21
5/14/2023 6:45:00 PM 18.44 65.192 1.127 8.37 5.35 10.94
5/14/2023 7:00:00 PM 18.38 65.084 1.127 8.34 5.25 10.67
5/14/2023 7:15:00 PM 18.34 65.012 1.129 8.32 5.63 10.46
5/14/2023 7:30:00 PM 18.29 64.922 1.124 8.29 5.3 10.22
5/14/2023 7:45:00 PM 18.22 64.796 1.121 8.27 4.99 9.99
5/14/2023 8:00:00 PM 18.15 64.67 1.122 8.24 5.32 9.72
5/14/2023 8:15:00 PM 18.05 64.49 1.122 8.21 4.85 9.45
5/14/2023 8:30:00 PM 17.95 64.31 1.121 8.18 5.47 9.21
5/14/2023 8:45:00 PM 17.84 64.112 1.121 8.15 5.18 8.98
5/14/2023 9:00:00 PM 17.72 63.896 1.12 8.13 5.63 8.8
5/14/2023 9:15:00 PM 17.6 63.68 1.118 8.1 6 8.62
5/14/2023 9:30:00 PM 17.48 63.464 1.117 8.08 5.62 8.48
5/14/2023 9:45:00 PM 17.35 63.23 1.115 8.07 5.95 8.39
5/14/2023 10:00:00 PM 17.23 63.014 1.113 8.05 6.23 8.27
5/14/2023 10:15:00 PM 17.1 62.78 1.111 8.03 5.89 8.21
5/14/2023 10:30:00 PM 16.97 62.546 1.11 8.02 6.1 8.15
5/14/2023 10:45:00 PM 16.84 62.312 1.109 8.01 6.57 8.1
5/14/2023 11:00:00 PM 16.71 62.078 1.109 8 6.45 8.04
5/14/2023 11:15:00 PM 16.58 61.844 1.109 7.98 6.57 8.02
5/14/2023 11:30:00 PM 16.45 61.61 1.109 7.98 6.86 7.96
5/14/2023 11:45:00 PM 16.32 61.376 1.109 7.96 6.83 7.92
5/15/2023 12:00:00 AM 16.19 61.142 1.109 7.95 6.65 7.88
5/15/2023 12:15:00 AM 16.06 60.908 1.108 7.94 6.94 7.86
5/15/2023 12:30:00 AM 15.94 60.692 1.108 7.93 6.88 7.82
5/15/2023 12:45:00 AM 15.82 60.476 1.108 7.92 6.69 7.78
5/15/2023 1:00:00 AM 15.7 60.26 1.108 7.91 6.28 7.77
5/15/2023 1:15:00 AM 15.58 60.044 1.108 7.9 6.59 7.73
5/15/2023 1:30:00 AM 15.46 59.828 1.108 7.89 6.74 7.72
5/15/2023 1:45:00 AM 15.35 59.63 1.11 7.88 6.67 7.71
5/15/2023 2:00:00 AM 15.25 59.45 1.112 7.87 6.14 7.7
5/15/2023 2:15:00 AM 15.14 59.252 1.113 7.86 6.46 7.68
5/15/2023 2:30:00 AM 15.04 59.072 1.114 7.85 6.32 7.67
5/15/2023 2:45:00 AM 14.94 58.892 1.115 7.84 6.02 7.68
5/15/2023 3:00:00 AM 14.84 58.712 1.115 7.84 6.14 7.69
5/15/2023 3:15:00 AM 14.75 58.55 1.115 7.83 6.47 7.69
5/15/2023 3:30:00 AM 14.65 58.37 1.115 7.83 6.46 7.71
5/15/2023 3:45:00 AM 14.55 58.19 1.115 7.82 6.88 7.73
5/15/2023 4:00:00 AM 14.46 58.028 1.115 7.82 6.07 7.72
5/15/2023 4:15:00 AM 14.37 57.866 1.114 7.82 6.38 7.76
5/15/2023 4:30:00 AM 14.27 57.686 1.113 7.82 6.54 7.78
5/15/2023 4:45:00 AM 14.18 57.524 1.112 7.82 6.06 7.8
5/15/2023 5:00:00 AM 14.09 57.362 1.11 7.82 6.02 7.81
5/15/2023 5:15:00 AM 14 57.2 1.109 7.81 6.66 7.82
5/15/2023 5:30:00 AM 13.91 57.038 1.107 7.81 6.54 7.87
5/15/2023 5:45:00 AM 13.82 56.876 1.105 7.81 6.48 7.89
5/15/2023 6:00:00 AM 13.73 56.714 1.101 7.82 6.27 7.93
5/15/2023 6:15:00 AM 13.64 56.552 1.097 7.82 5.84 7.99
5/15/2023 6:30:00 AM 13.55 56.39 1.092 7.82 5.77 8.07
5/15/2023 6:45:00 AM 13.47 56.246 1.085 7.83 6.44 8.18
5/15/2023 7:00:00 AM 13.4 56.12 1.078 7.83 6.05 8.28
5/15/2023 7:15:00 AM 13.33 55.994 1.069 7.84 5.75 8.42
5/15/2023 7:30:00 AM 13.27 55.886 1.06 7.85 5.91 8.57
5/15/2023 7:45:00 AM 13.23 55.814 1.049 7.87 5.71 8.75
5/15/2023 8:00:00 AM 13.19 55.742 1.039 7.88 5.53 8.96
5/15/2023 8:15:00 AM 13.16 55.688 1.028 7.9 5.38 9.19
5/15/2023 8:30:00 AM 13.16 55.688 1.019 7.92 5.34 9.46
5/15/2023 8:45:00 AM 13.18 55.724 1.009 7.95 5.05 9.78
5/15/2023 9:00:00 AM 13.22 55.796 1 7.99 5.02 10.1
5/15/2023 9:15:00 AM 13.27 55.886 0.991 8.02 5.59 10.41
5/15/2023 9:30:00 AM 13.32 55.976 0.983 8.05 5.34 10.73
5/15/2023 9:45:00 AM 13.39 56.102 0.974 8.08 5.75 11.05
5/15/2023 10:00:00 AM 13.47 56.246 0.967 8.12 5.32 11.35
5/15/2023 10:15:00 AM 13.57 56.426 0.961 8.15 5.96 11.61
5/15/2023 10:30:00 AM 13.69 56.642 0.956 8.18 5.53 11.9
5/15/2023 10:45:00 AM 13.81 56.858 0.953 8.21 5.51 12.17
5/15/2023 11:00:00 AM 13.94 57.092 0.951 8.24 5.58 12.39
5/15/2023 11:15:00 AM 14.09 57.362 0.952 8.27 5.66 12.65
5/15/2023 11:30:00 AM 14.24 57.632 0.954 8.29 5.42 12.88
5/15/2023 11:45:00 AM 14.41 57.938 0.956 8.32 6.1 13.05
5/15/2023 12:00:00 PM 14.59 58.262 0.959 8.34 5.6 13.26
5/15/2023 12:15:00 PM 14.79 58.622 0.96 8.37 5.35 13.47
5/15/2023 12:30:00 PM 15.02 59.036 0.961 8.4 5.23 13.65
5/15/2023 12:45:00 PM 15.25 59.45 0.961 8.42 5.21 13.82
5/15/2023 1:00:00 PM 15.5 59.9 0.962 8.45 5.34 13.97
5/15/2023 1:15:00 PM 15.77 60.386 0.964 8.48 5.13 14.14
5/15/2023 1:30:00 PM 16.03 60.854 0.969 8.5 5.43 14.25
5/15/2023 1:45:00 PM 16.29 61.322 0.977 8.52 5.28 14.35
5/15/2023 2:00:00 PM 16.54 61.772 0.988 8.54 5.28 14.39
5/15/2023 2:15:00 PM 16.79 62.222 1.003 8.56 5.08 14.41
5/15/2023 2:30:00 PM 17.01 62.618 1.019 8.57 4.85 14.38
5/15/2023 2:45:00 PM 17.24 63.032 1.036 8.58 5.07 14.33
5/15/2023 3:00:00 PM 17.43 63.374 1.051 8.58 5.15 14.22
5/15/2023 3:15:00 PM 17.62 63.716 1.065 8.59 5.29 14.15
5/15/2023 3:30:00 PM 17.78 64.004 1.075 8.59 5.26 14.01
5/15/2023 3:45:00 PM 17.92 64.256 1.083 8.59 5.71 13.86
5/15/2023 4:00:00 PM 18.03 64.454 1.089 8.58 5.7 13.67
5/15/2023 4:15:00 PM 18.14 64.652 1.093 8.58 5.31 13.52
5/15/2023 4:30:00 PM 18.22 64.796 1.096 8.57 5.25 13.3
5/15/2023 4:45:00 PM 18.29 64.922 1.098 8.56 5.89 13.08
5/15/2023 5:00:00 PM 18.33 64.994 1.1 8.54 5.52 12.83
5/15/2023 5:15:00 PM 18.35 65.03 1.101 8.52 5.25 12.55
5/15/2023 5:30:00 PM 18.37 65.066 1.103 8.5 5.31 12.31
5/15/2023 5:45:00 PM 18.39 65.102 1.104 8.49 5.19 12.08
5/15/2023 6:00:00 PM 18.38 65.084 1.106 8.47 5.25 11.85
5/15/2023 6:15:00 PM 18.36 65.048 1.108 8.44 5.34 11.59
5/15/2023 6:30:00 PM 18.33 64.994 1.11 8.42 5.04 11.33
5/15/2023 6:45:00 PM 18.3 64.94 1.112 8.39 5.08 11.05
5/15/2023 7:00:00 PM 18.25 64.85 1.113 8.37 5.14 10.76
5/15/2023 7:15:00 PM 18.21 64.778 1.113 8.33 5.09 10.47
5/15/2023 7:30:00 PM 18.15 64.67 1.112 8.31 5.3 10.2
5/15/2023 7:45:00 PM 18.09 64.562 1.111 8.28 5.28 9.93
5/15/2023 8:00:00 PM 18.02 64.436 1.109 8.25 5.19 9.66
5/15/2023 8:15:00 PM 17.94 64.292 1.107 8.22 4.94 9.4
5/15/2023 8:30:00 PM 17.86 64.148 1.106 8.19 5.01 9.17
5/15/2023 8:45:00 PM 17.77 63.986 1.105 8.16 5.54 8.96
5/15/2023 9:00:00 PM 17.67 63.806 1.104 8.14 5.22 8.77
5/15/2023 9:15:00 PM 17.58 63.644 1.103 8.11 5.77 8.61
5/15/2023 9:30:00 PM 17.48 63.464 1.103 8.09 5.8 8.47
5/15/2023 9:45:00 PM 17.38 63.284 1.102 8.08 5.61 8.35
5/15/2023 10:00:00 PM 17.27 63.086 1.1 8.06 5.95 8.25
5/15/2023 10:15:00 PM 17.16 62.888 1.097 8.05 5.59 8.17
5/15/2023 10:30:00 PM 17.05 62.69 1.094 8.03 5.76 8.1
5/15/2023 10:45:00 PM 16.94 62.492 1.09 8.02 6.14 8.04
5/15/2023 11:00:00 PM 16.82 62.276 1.086 8 6.24 7.98
5/15/2023 11:15:00 PM 16.7 62.06 1.083 7.99 6.06 7.94
5/15/2023 11:30:00 PM 16.58 61.844 1.081 7.98 6.47 7.88
5/15/2023 11:45:00 PM 16.46 61.628 1.08 7.97 6.11 7.84
5/16/2023 12:00:00 AM 16.34 61.412 1.08 7.96 6.79 7.78
5/16/2023 12:15:00 AM 16.22 61.196 1.081 7.95 6.36 7.75
5/16/2023 12:30:00 AM 16.1 60.98 1.081 7.93 6.37 7.71
5/16/2023 12:45:00 AM 15.99 60.782 1.082 7.93 6.71 7.68
5/16/2023 1:00:00 AM 15.87 60.566 1.084 7.92 6.37 7.64
5/16/2023 1:15:00 AM 15.77 60.386 1.087 7.91 6.76 7.6
5/16/2023 1:30:00 AM 15.67 60.206 1.091 7.9 6.59 7.58
5/16/2023 1:45:00 AM 15.58 60.044 1.095 7.89 6.37 7.55
5/16/2023 2:00:00 AM 15.49 59.882 1.1 7.88 6.18 7.54
5/16/2023 2:15:00 AM 15.4 59.72 1.105 7.87 6.3 7.52
5/16/2023 2:30:00 AM 15.31 59.558 1.111 7.86 6.71 7.48
5/16/2023 2:45:00 AM 15.23 59.414 1.116 7.86 7.14 7.49
5/16/2023 3:00:00 AM 15.15 59.27 1.121 7.85 6.85 7.47
5/16/2023 3:15:00 AM 15.07 59.126 1.125 7.84 6.6 7.47
5/16/2023 3:30:00 AM 14.98 58.964 1.128 7.84 6.49 7.46
5/16/2023 3:45:00 AM 14.9 58.82 1.132 7.84 6.11 7.48
5/16/2023 4:00:00 AM 14.82 58.676 1.134 7.83 5.9 7.48
5/16/2023 4:15:00 AM 14.74 58.532 1.137 7.83 6.11 7.49
5/16/2023 4:30:00 AM 14.67 58.406 1.138 7.83 6.28 7.49
5/16/2023 4:45:00 AM 14.59 58.262 1.14 7.83 6.05 7.5
5/16/2023 5:00:00 AM 14.51 58.118 1.142 7.82 7.2 7.53
5/16/2023 5:15:00 AM 14.43 57.974 1.143 7.82 7.34 7.55
5/16/2023 5:30:00 AM 14.35 57.83 1.143 7.82 6.84 7.54
5/16/2023 5:45:00 AM 14.26 57.668 1.143 7.82 6.94 7.58
5/16/2023 6:00:00 AM 14.19 57.542 1.142 7.82 6.31 7.62
5/16/2023 6:15:00 AM 14.11 57.398 1.141 7.82 6.05 7.66
5/16/2023 6:30:00 AM 14.03 57.254 1.139 7.82 6.14 7.72
5/16/2023 6:45:00 AM 13.97 57.146 1.135 7.83 5.7 7.83
5/16/2023 7:00:00 AM 13.91 57.038 1.13 7.83 6.08 7.94
5/16/2023 7:15:00 AM 13.86 56.948 1.123 7.84 5.54 8.08
5/16/2023 7:30:00 AM 13.82 56.876 1.115 7.85 5.76 8.25
5/16/2023 7:45:00 AM 13.79 56.822 1.106 7.87 5.37 8.41
5/16/2023 8:00:00 AM 13.77 56.786 1.096 7.88 5.53 8.66
5/16/2023 8:15:00 AM 13.76 56.768 1.085 7.9 5.66 8.88
5/16/2023 8:30:00 AM 13.77 56.786 1.074 7.93 5.07 9.18
5/16/2023 8:45:00 AM 13.8 56.84 1.063 7.96 5.08 9.46
5/16/2023 9:00:00 AM 13.84 56.912 1.051 7.99 5.19 9.85
5/16/2023 9:15:00 AM 13.91 57.038 1.039 8.02 5.51 10.18
5/16/2023 9:30:00 AM 13.97 57.146 1.027 8.06 5.06 10.53
5/16/2023 9:45:00 AM 14.05 57.29 1.016 8.09 5.08 10.85
5/16/2023 10:00:00 AM 14.14 57.452 1.005 8.12 4.92 11.17
5/16/2023 10:15:00 AM 14.25 57.65 0.996 8.15 5.33 11.46
5/16/2023 10:30:00 AM 14.36 57.848 0.988 8.18 5.26 11.74
5/16/2023 10:45:00 AM 14.49 58.082 0.983 8.21 5.46 11.98
5/16/2023 11:00:00 AM 14.62 58.316 0.98 8.24 5.64 12.23
5/16/2023 11:15:00 AM 14.76 58.568 0.98 8.27 5.55 12.46
5/16/2023 11:30:00 AM 14.91 58.838 0.982 8.29 5.36 12.67
5/16/2023 11:45:00 AM 15.04 59.072 0.984 8.32 5.62 12.88
5/16/2023 12:00:00 PM 15.2 59.36 0.987 8.34 5.21 13.09
5/16/2023 12:15:00 PM 15.35 59.63 0.989 8.37 4.85 13.24
5/16/2023 12:30:00 PM 15.53 59.954 0.989 8.39 5.52 13.41
5/16/2023 12:45:00 PM 15.75 60.35 0.988 8.42 5.03 13.6
5/16/2023 1:00:00 PM 15.96 60.728 0.987 8.44 5.76 13.76
5/16/2023 1:15:00 PM 16.18 61.124 0.988 8.46 4.97 13.89
5/16/2023 1:30:00 PM 16.43 61.574 0.992 8.49 4.78 14.01
5/16/2023 1:45:00 PM 16.7 62.06 0.999 8.51 4.97 14.12
5/16/2023 2:00:00 PM 16.95 62.51 1.01 8.52 5.39 14.18
5/16/2023 2:15:00 PM 17.17 62.906 1.023 8.54 5.14 14.18
5/16/2023 2:30:00 PM 17.33 63.194 1.039 8.55 5.22 14.07
5/16/2023 2:45:00 PM 17.44 63.392 1.057 8.55 5.33 13.82
5/16/2023 3:00:00 PM 17.6 63.68 1.074 8.54 5.3 13.7
5/16/2023 3:15:00 PM 17.74 63.932 1.092 8.54 5.07 13.56
5/16/2023 3:30:00 PM 17.9 64.22 1.107 8.54 4.94 13.53
5/16/2023 3:45:00 PM 18.03 64.454 1.118 8.54 5.36 13.43
5/16/2023 4:00:00 PM 18.12 64.616 1.125 8.53 5.24 13.21
5/16/2023 4:15:00 PM 18.2 64.76 1.129 8.52 5.08 12.96
5/16/2023 4:30:00 PM 18.25 64.85 1.131 8.51 5.1 12.59
5/16/2023 4:45:00 PM 18.32 64.976 1.132 8.49 4.81 12.38
5/16/2023 5:00:00 PM 18.4 65.12 1.133 8.49 4.62 12.32
5/16/2023 5:15:00 PM 18.44 65.192 1.134 8.47 4.94 12.07
5/16/2023 5:30:00 PM 18.48 65.264 1.136 8.45 4.63 11.87
5/16/2023 5:45:00 PM 18.52 65.336 1.137 8.44 4.56 11.67
5/16/2023 6:00:00 PM 18.53 65.354 1.138 8.42 4.82 11.41
5/16/2023 6:15:00 PM 18.56 65.408 1.137 8.41 4.53 11.23
5/16/2023 6:30:00 PM 18.56 65.408 1.135 8.39 4.97 11.02
5/16/2023 6:45:00 PM 18.56 65.408 1.131 8.38 5.06 10.8
5/16/2023 7:00:00 PM 18.54 65.372 1.126 8.35 4.86 10.54
5/16/2023 7:15:00 PM 18.52 65.336 1.121 8.33 4.83 10.3
5/16/2023 7:30:00 PM 18.48 65.264 1.114 8.31 4.88 10.02
5/16/2023 7:45:00 PM 18.44 65.192 1.108 8.28 4.8 9.74
5/16/2023 8:00:00 PM 18.39 65.102 1.105 8.24 4.43 9.45
5/16/2023 8:15:00 PM 18.32 64.976 1.104 8.21 4.72 9.17
5/16/2023 8:30:00 PM 18.26 64.868 1.105 8.17 4.94 8.89
5/16/2023 8:45:00 PM 18.19 64.742 1.109 8.15 5.11 8.67
5/16/2023 9:00:00 PM 18.12 64.616 1.112 8.12 5.52 8.47
5/16/2023 9:15:00 PM 18.05 64.49 1.114 8.09 5.75 8.3
5/16/2023 9:30:00 PM 17.98 64.364 1.114 8.08 6.11 8.14
5/16/2023 9:45:00 PM 17.9 64.22 1.111 8.06 5.63 8.03
5/16/2023 10:00:00 PM 17.82 64.076 1.106 8.04 7.61 7.91
5/16/2023 10:15:00 PM 17.73 63.914 1.101 8.03 6.1 7.82
5/16/2023 10:30:00 PM 17.65 63.77 1.095 8.01 5.94 7.74
5/16/2023 10:45:00 PM 17.56 63.608 1.09 8 6.01 7.66
5/16/2023 11:00:00 PM 17.47 63.446 1.086 7.99 6.39 7.59
5/16/2023 11:15:00 PM 17.39 63.302 1.083 7.98 6.39 7.52
5/16/2023 11:30:00 PM 17.3 63.14 1.082 7.96 6.56 7.47
5/16/2023 11:45:00 PM 17.22 62.996 1.082 7.95 6.54 7.4
5/17/2023 12:00:00 AM 17.13 62.834 1.084 7.94 6.24 7.33
5/17/2023 12:15:00 AM 17.05 62.69 1.087 7.93 6.58 7.26
5/17/2023 12:30:00 AM 16.96 62.528 1.09 7.92 6.41 7.21
5/17/2023 12:45:00 AM 16.88 62.384 1.094 7.91 6.36 7.14
5/17/2023 1:00:00 AM 16.79 62.222 1.097 7.89 6.09 7.09
5/17/2023 1:15:00 AM 16.71 62.078 1.101 7.88 6.18 7.03
5/17/2023 1:30:00 AM 16.62 61.916 1.105 7.88 6.43 6.97
5/17/2023 1:45:00 AM 16.54 61.772 1.109 7.86 6.55 6.9
5/17/2023 2:00:00 AM 16.47 61.646 1.113 7.86 6.05 6.86
5/17/2023 2:15:00 AM 16.39 61.502 1.116 7.85 6.54 6.83
5/17/2023 2:30:00 AM 16.32 61.376 1.12 7.84 6.21 6.79
5/17/2023 2:45:00 AM 16.26 61.268 1.124 7.84 6.9 6.76
5/17/2023 3:00:00 AM 16.19 61.142 1.127 7.83 7.64 6.75
5/17/2023 3:15:00 AM 16.13 61.034 1.131 7.83 6.63 6.72
5/17/2023 3:30:00 AM 16.07 60.926 1.134 7.82 6.19 6.71
5/17/2023 3:45:00 AM 16.01 60.818 1.136 7.82 7.11 6.69
5/17/2023 4:00:00 AM 15.95 60.71 1.137 7.81 6.3 6.68
5/17/2023 4:15:00 AM 15.89 60.602 1.139 7.81 6.49 6.67
5/17/2023 4:30:00 AM 15.84 60.512 1.14 7.81 6.72 6.64
5/17/2023 4:45:00 AM 15.78 60.404 1.14 7.8 6.08 6.68
5/17/2023 5:00:00 AM 15.71 60.278 1.14 7.8 6.3 6.67
5/17/2023 5:15:00 AM 15.65 60.17 1.139 7.8 6.35 6.71
5/17/2023 5:30:00 AM 15.58 60.044 1.138 7.8 6.02 6.72
5/17/2023 5:45:00 AM 15.52 59.936 1.135 7.79 6.13 6.73
5/17/2023 6:00:00 AM 15.45 59.81 1.132 7.79 5.9 6.72
5/17/2023 6:15:00 AM 15.38 59.684 1.128 7.8 5.92 6.79
5/17/2023 6:30:00 AM 15.31 59.558 1.123 7.8 6.02 6.87
5/17/2023 6:45:00 AM 15.25 59.45 1.117 7.8 6.05 6.98
5/17/2023 7:00:00 AM 15.18 59.324 1.111 7.81 5.72 7.11
5/17/2023 7:15:00 AM 15.12 59.216 1.104 7.82 5.65 7.25
5/17/2023 7:30:00 AM 15.05 59.09 1.096 7.83 5.71 7.39
5/17/2023 7:45:00 AM 14.99 58.982 1.088 7.84 5.3 7.58
5/17/2023 8:00:00 AM 14.94 58.892 1.079 7.85 5.52 7.78
5/17/2023 8:15:00 AM 14.9 58.82 1.069 7.86 5.61 7.98
5/17/2023 8:30:00 AM 14.86 58.748 1.059 7.88 5.3 8.23
5/17/2023 8:45:00 AM 14.84 58.712 1.049 7.9 5.17 8.57
5/17/2023 9:00:00 AM 14.84 58.712 1.039 7.93 5.8 8.88
5/17/2023 9:15:00 AM 14.85 58.73 1.03 7.95 5.3 9.21
5/17/2023 9:30:00 AM 14.86 58.748 1.021 7.98 5.24 9.51
5/17/2023 9:45:00 AM 14.9 58.82 1.012 8.01 5.25 9.85
5/17/2023 10:00:00 AM 14.94 58.892 1.003 8.05 5.38 10.21
5/17/2023 10:15:00 AM 15 59 0.994 8.08 5.39 10.52
5/17/2023 10:30:00 AM 15.07 59.126 0.986 8.11 5.45 10.84
5/17/2023 10:45:00 AM 15.15 59.27 0.979 8.14 5.36 11.11
5/17/2023 11:00:00 AM 15.24 59.432 0.974 8.17 5.61 11.41
5/17/2023 11:15:00 AM 15.33 59.594 0.972 8.2 5.78 11.72
5/17/2023 11:30:00 AM 15.44 59.792 0.971 8.23 5.26 11.94
5/17/2023 11:45:00 AM 15.55 59.99 0.972 8.26 5.66 12.16
5/17/2023 12:00:00 PM 15.68 60.224 0.975 8.29 5.16 12.41
5/17/2023 12:15:00 PM 15.83 60.494 0.977 8.32 5.28 12.66
5/17/2023 12:30:00 PM 16.01 60.818 0.979 8.34 5.02 12.86
5/17/2023 12:45:00 PM 16.2 61.16 0.98 8.37 5.1 13.08
5/17/2023 1:00:00 PM 16.39 61.502 0.981 8.4 4.79 13.24
5/17/2023 1:15:00 PM 16.59 61.862 0.981 8.43 5.08 13.48
5/17/2023 1:30:00 PM 16.8 62.24 0.983 8.46 5.24 13.64
5/17/2023 1:45:00 PM 16.99 62.582 0.987 8.48 5.04 13.81
5/17/2023 2:00:00 PM 17.18 62.924 0.994 8.5 5.06 13.82
5/17/2023 2:15:00 PM 17.36 63.248 1.005 8.52 5.34 13.9
5/17/2023 2:30:00 PM 17.52 63.536 1.02 8.53 5.16 13.9
5/17/2023 2:45:00 PM 17.68 63.824 1.038 8.54 5.12 13.82
5/17/2023 3:00:00 PM 17.83 64.094 1.056 8.54 5.04 13.74
5/17/2023 3:15:00 PM 17.96 64.328 1.073 8.55 5.28 13.63
5/17/2023 3:30:00 PM 18.08 64.544 1.088 8.55 5.5 13.56
5/17/2023 3:45:00 PM 18.17 64.706 1.099 8.55 5.02 13.4
5/17/2023 4:00:00 PM 18.23 64.814 1.108 8.54 5.3 13.21
5/17/2023 4:15:00 PM 18.29 64.922 1.114 8.54 5.15 13.06
5/17/2023 4:30:00 PM 18.33 64.994 1.117 8.53 5.23 12.88
5/17/2023 4:45:00 PM 18.36 65.048 1.119 8.52 4.72 12.69
5/17/2023 5:00:00 PM 18.35 65.03 1.12 8.51 5.08 12.47
5/17/2023 5:15:00 PM 18.32 64.976 1.12 8.5 4.87 12.27
5/17/2023 5:30:00 PM 18.28 64.904 1.121 8.49 5.56 12.07
5/17/2023 5:45:00 PM 18.24 64.832 1.123 8.47 5.13 11.89
5/17/2023 6:00:00 PM 18.19 64.742 1.127 8.45 5.51 11.66
5/17/2023 6:15:00 PM 18.14 64.652 1.133 8.43 5.72 11.42
5/17/2023 6:30:00 PM 18.06 64.508 1.139 8.4 5.59 11.16
5/17/2023 6:45:00 PM 17.99 64.382 1.146 8.38 5.21 10.91
5/17/2023 7:00:00 PM 17.92 64.256 1.153 8.35 5.09 10.68
5/17/2023 7:15:00 PM 17.83 64.094 1.158 8.33 5.02 10.4
5/17/2023 7:30:00 PM 17.74 63.932 1.161 8.3 4.85 10.15
5/17/2023 7:45:00 PM 17.65 63.77 1.161 8.27 5.12 9.89
5/17/2023 8:00:00 PM 17.55 63.59 1.158 8.24 4.93 9.6
5/17/2023 8:15:00 PM 17.45 63.41 1.153 8.22 5.52 9.38
5/17/2023 8:30:00 PM 17.34 63.212 1.147 8.19 5.26 9.17
5/17/2023 8:45:00 PM 17.22 62.996 1.139 8.17 16.19 8.97
5/17/2023 9:00:00 PM 17.11 62.798 1.134 8.14 5.99 8.77
5/17/2023 9:15:00 PM 17 62.6 1.129 8.12 6.12 8.64
5/17/2023 9:30:00 PM 16.88 62.384 1.127 8.1 5.94 8.5
5/17/2023 9:45:00 PM 16.76 62.168 1.125 8.09 5.83 8.4
5/17/2023 10:00:00 PM 16.63 61.934 1.124 8.07 5.95 8.31
5/17/2023 10:15:00 PM 16.5 61.7 1.123 8.06 5.84 8.23
5/17/2023 10:30:00 PM 16.37 61.466 1.122 8.04 5.84 8.18
5/17/2023 10:45:00 PM 16.23 61.214 1.121 8.03 6.55 8.1
5/17/2023 11:00:00 PM 16.09 60.962 1.12 8.02 5.99 8.07
5/17/2023 11:15:00 PM 15.95 60.71 1.119 8.01 6.05 8.05
5/17/2023 11:30:00 PM 15.8 60.44 1.119 7.99 6.26 7.99
5/17/2023 11:45:00 PM 15.66 60.188 1.119 7.98 5.92 7.97
5/18/2023 12:00:00 AM 15.51 59.918 1.119 7.96 6.28 7.94
5/18/2023 12:15:00 AM 15.36 59.648 1.119 7.95 6.66 7.91
5/18/2023 12:30:00 AM 15.22 59.396 1.12 7.93 6.57 7.87
5/18/2023 12:45:00 AM 15.08 59.144 1.122 7.92 6.7 7.83
5/18/2023 1:00:00 AM 14.94 58.892 1.125 7.91 5.99 7.84
5/18/2023 1:15:00 AM 14.81 58.658 1.129 7.89 6.26 7.78
5/18/2023 1:30:00 AM 14.68 58.424 1.134 7.88 6.32 7.79
5/18/2023 1:45:00 AM 14.56 58.208 1.138 7.87 6.12 7.77
5/18/2023 2:00:00 AM 14.45 58.01 1.142 7.86 6.53 7.77
5/18/2023 2:15:00 AM 14.33 57.794 1.145 7.85 6.23 7.76
5/18/2023 2:30:00 AM 14.21 57.578 1.147 7.85 6.22 7.77
5/18/2023 2:45:00 AM 14.1 57.38 1.15 7.84 6.31 7.78
5/18/2023 3:00:00 AM 13.99 57.182 1.151 7.84 6.53 7.78
5/18/2023 3:15:00 AM 13.87 56.966 1.152 7.84 5.98 7.8
5/18/2023 3:30:00 AM 13.76 56.768 1.153 7.83 6.09 7.8
5/18/2023 3:45:00 AM 13.65 56.57 1.153 7.83 6.19 7.83
5/18/2023 4:00:00 AM 13.54 56.372 1.152 7.83 5.93 7.85
5/18/2023 4:15:00 AM 13.43 56.174 1.151 7.83 5.91 7.87
5/18/2023 4:30:00 AM 13.32 55.976 1.149 7.83 5.88 7.88
5/18/2023 4:45:00 AM 13.22 55.796 1.148 7.82 6.07 7.92
5/18/2023 5:00:00 AM 13.11 55.598 1.148 7.83 6.17 7.94
5/18/2023 5:15:00 AM 13.01 55.418 1.147 7.83 6.65 7.96
5/18/2023 5:30:00 AM 12.91 55.238 1.146 7.83 6.5 8.01
5/18/2023 5:45:00 AM 12.81 55.058 1.146 7.83 6.65 8.03
5/18/2023 6:00:00 AM 12.72 54.896 1.144 7.83 6.21 8.09
5/18/2023 6:15:00 AM 12.62 54.716 1.142 7.83 6 8.13
5/18/2023 6:30:00 AM 12.54 54.572 1.139 7.84 6.12 8.2
5/18/2023 6:45:00 AM 12.46 54.428 1.135 7.84 6.15 8.29
5/18/2023 7:00:00 AM 12.38 54.284 1.131 7.85 6.2 8.42
5/18/2023 7:15:00 AM 12.32 54.176 1.126 7.86 6.05 8.56
5/18/2023 7:30:00 AM 12.27 54.086 1.119 7.86 6.81 8.72
5/18/2023 7:45:00 AM 12.22 53.996 1.113 7.88 6.22 8.9
5/18/2023 8:00:00 AM 12.19 53.942 1.104 7.9 6.43 9.1
5/18/2023 8:15:00 AM 12.16 53.888 1.095 7.92 5.98 9.33
5/18/2023 8:30:00 AM 12.15 53.87 1.086 7.94 5.54 9.65
5/18/2023 8:45:00 AM 12.16 53.888 1.076 7.97 5.5 9.98
5/18/2023 9:00:00 AM 12.17 53.906 1.066 8 5.63 10.31
5/18/2023 9:15:00 AM 12.19 53.942 1.056 8.04 6.36 10.66
5/18/2023 9:30:00 AM 12.23 54.014 1.047 8.07 6.59 10.93
5/18/2023 9:45:00 AM 12.29 54.122 1.038 8.1 5.74 11.29
5/18/2023 10:00:00 AM 12.36 54.248 1.029 8.14 5.84 11.61
5/18/2023 10:15:00 AM 12.44 54.392 1.02 8.17 5.63 11.91
5/18/2023 10:30:00 AM 12.54 54.572 1.012 8.2 5.68 12.19
5/18/2023 10:45:00 AM 12.65 54.77 1.005 8.23 5.5 12.46
5/18/2023 11:00:00 AM 12.76 54.968 1 8.26 5.75 12.71
5/18/2023 11:15:00 AM 12.89 55.202 0.997 8.29 5.45 12.94
5/18/2023 11:30:00 AM 13.04 55.472 0.997 8.31 5.96 13.14
5/18/2023 11:45:00 AM 13.2 55.76 0.998 8.33 5.37 13.32
5/18/2023 12:00:00 PM 13.38 56.084 1.001 8.36 5.53 13.48
5/18/2023 12:15:00 PM 13.59 56.462 1.004 8.38 5.37 13.66
5/18/2023 12:30:00 PM 13.81 56.858 1.007 8.4 5.3 13.82
5/18/2023 12:45:00 PM 14.05 57.29 1.009 8.44 5.41 13.97
5/18/2023 1:00:00 PM 14.31 57.758 1.012 8.46 5.25 14.13
5/18/2023 1:15:00 PM 14.58 58.244 1.015 8.48 5.05 14.25
5/18/2023 1:30:00 PM 14.85 58.73 1.021 8.5 5.11 14.36
5/18/2023 1:45:00 PM 15.12 59.216 1.03 8.52 5 14.46
5/18/2023 2:00:00 PM 15.39 59.702 1.044 8.54 5.12 14.49
5/18/2023 2:15:00 PM 15.64 60.152 1.061 8.55 5.22 14.49
5/18/2023 2:30:00 PM 15.9 60.62 1.081 8.56 5.27 14.48
5/18/2023 2:45:00 PM 16.13 61.034 1.101 8.57 5.28 14.41
5/18/2023 3:00:00 PM 16.34 61.412 1.121 8.57 5.17 14.36
5/18/2023 3:15:00 PM 16.55 61.79 1.138 8.58 5.38 14.22
5/18/2023 3:30:00 PM 16.74 62.132 1.153 8.58 5.33 14.08
5/18/2023 3:45:00 PM 16.9 62.42 1.166 8.58 5.4 13.96
5/18/2023 4:00:00 PM 17.03 62.654 1.177 8.57 5 13.8
5/18/2023 4:15:00 PM 17.16 62.888 1.187 8.56 5.22 13.62
5/18/2023 4:30:00 PM 17.27 63.086 1.195 8.56 4.98 13.42
5/18/2023 4:45:00 PM 17.37 63.266 1.202 8.54 4.86 13.21
5/18/2023 5:00:00 PM 17.45 63.41 1.208 8.53 5 12.97
5/18/2023 5:15:00 PM 17.49 63.482 1.212 8.51 5.29 12.72
5/18/2023 5:30:00 PM 17.53 63.554 1.215 8.49 5.17 12.46
5/18/2023 5:45:00 PM 17.56 63.608 1.22 8.47 5.47 12.2
5/18/2023 6:00:00 PM 17.57 63.626 1.224 8.46 5.39 11.92
5/18/2023 6:15:00 PM 17.58 63.644 1.23 8.43 5.25 11.63
5/18/2023 6:30:00 PM 17.58 63.644 1.234 8.41 5.15 11.37
5/18/2023 6:45:00 PM 17.56 63.608 1.238 8.38 5.18 11.09
5/18/2023 7:00:00 PM 17.54 63.572 1.238 8.36 5.04 10.84

These are provisional data and have not been subject to a quality assurance process, but rather are the raw data reported by the instrument.
H: value is above sensor operating range
L: value is below sensor operating range
Offline: station is not reporting data
NC: parameter is not collected at site

Data Availability & Limitations

Uncertainty and potential for error can be associated with environmental monitoring data. Provisional data have not been subject to a quality assurance process, but rather are the raw data reported by the instrument. Data users are cautioned to consider carefully the provisional nature of the information before using it for decisions that concern personal or public safety or the conduct of business that involves substantial monetary or operational consequences.

Approved data are currently available by request by emailing: [email protected]. Approved data have been subject to a quality assurance process to correct for equipment or fouling drift. Data recorded during equipment malfunctions have been removed.

View Historical Stations that have been discontinued.